UAE1DP YSSY-OMDB
Flight info
| Callsign | UAE1DP |
|---|---|
| Flight time | 13h 50m |
| Altitude | 30000 |
| Route | KADOM A576 PKS J141 NEWMO DCT BHI DCT DAMOB DCT RUSAD/N0495F320 DCT 30S131E 28S126E DCT WONYU DCT ONSLO DCT 19S112E DCT IDOKU DCT MEBKA/N0502F340 DCT 13S105E 10S101E 07S097E DCT MUTMI N509 ELATI N640 EKASU/N0497F360 N640 KAT R461 MDI M300 LEMAX/N0490F380 M300 EMURU P570 ITURA M762 VAXAS/N0476F240 M762 MIVEK P574 IMPED |
| Aircraft | B77W/H-SDE1E2E3FGHIJ2J3J4J5M1RWXYZ/LB1D1 |
Departure
| Time | 2026-05-06 03:32 |
|---|---|
| Airport | Sydney Kingsford Smith International Airport (YSSY) |
Arrival
| Time | 2026-05-06 17:22 |
|---|---|
| Airport | Dubai International Airport (OMDB) |
| Time | Latitude | Longitude | Altitude | Speed | Heading |
|---|---|---|---|---|---|
| 2026-05-06 02:15 | -33.93977 | 151.16679 | 35 ft | 0 kts | 304° |
| 2026-05-06 03:16 | -33.93980 | 151.16685 | 35 ft | 3 kts | 302° |
| 2026-05-06 03:17 | -33.93991 | 151.16706 | 35 ft | 3 kts | 297° |
| 2026-05-06 03:17 | -33.94000 | 151.16728 | 35 ft | 3 kts | 295° |
| 2026-05-06 03:17 | -33.94008 | 151.16750 | 33 ft | 3 kts | 305° |
| 2026-05-06 03:17 | -33.94021 | 151.16765 | 35 ft | 3 kts | 348° |
| 2026-05-06 03:18 | -33.94039 | 151.16767 | 34 ft | 3 kts | 5° |
| 2026-05-06 03:18 | -33.94058 | 151.16762 | 33 ft | 3 kts | 29° |
| 2026-05-06 03:18 | -33.94074 | 151.16748 | 33 ft | 3 kts | 50° |
| 2026-05-06 03:18 | -33.94086 | 151.16729 | 34 ft | 3 kts | 64° |
| 2026-05-06 03:19 | -33.94093 | 151.16706 | 32 ft | 3 kts | 72° |
| 2026-05-06 03:19 | -33.94099 | 151.16684 | 33 ft | 1 kts | 74° |
| 2026-05-06 03:22 | -33.94098 | 151.16686 | 33 ft | 1 kts | 74° |
| 2026-05-06 03:23 | -33.94095 | 151.16698 | 31 ft | 2 kts | 74° |
| 2026-05-06 03:23 | -33.94090 | 151.16722 | 33 ft | 4 kts | 74° |
| 2026-05-06 03:23 | -33.94081 | 151.16759 | 31 ft | 5 kts | 74° |
| 2026-05-06 03:23 | -33.94070 | 151.16806 | 34 ft | 6 kts | 74° |
| 2026-05-06 03:24 | -33.94057 | 151.16864 | 35 ft | 8 kts | 74° |
| 2026-05-06 03:24 | -33.94041 | 151.16931 | 34 ft | 8 kts | 74° |
| 2026-05-06 03:24 | -33.94024 | 151.17000 | 34 ft | 8 kts | 74° |
| 2026-05-06 03:24 | -33.94008 | 151.17068 | 34 ft | 8 kts | 74° |
| 2026-05-06 03:25 | -33.93992 | 151.17136 | 34 ft | 8 kts | 75° |
| 2026-05-06 03:25 | -33.93971 | 151.17202 | 34 ft | 8 kts | 49° |
| 2026-05-06 03:25 | -33.93914 | 151.17210 | 33 ft | 9 kts | 348° |
| 2026-05-06 03:25 | -33.93857 | 151.17195 | 33 ft | 9 kts | 348° |
| 2026-05-06 03:26 | -33.93795 | 151.17179 | 33 ft | 10 kts | 348° |
| 2026-05-06 03:26 | -33.93729 | 151.17162 | 34 ft | 10 kts | 348° |
| 2026-05-06 03:26 | -33.93663 | 151.17145 | 34 ft | 10 kts | 348° |
| 2026-05-06 03:26 | -33.93596 | 151.17128 | 34 ft | 10 kts | 348° |
| 2026-05-06 03:27 | -33.93531 | 151.17111 | 34 ft | 10 kts | 348° |
| 2026-05-06 03:27 | -33.93465 | 151.17093 | 34 ft | 10 kts | 348° |
| 2026-05-06 03:27 | -33.93398 | 151.17076 | 34 ft | 10 kts | 348° |
| 2026-05-06 03:27 | -33.93335 | 151.17049 | 34 ft | 10 kts | 330° |
| 2026-05-06 03:28 | -33.93285 | 151.16993 | 34 ft | 10 kts | 313° |
| 2026-05-06 03:28 | -33.93226 | 151.16956 | 34 ft | 10 kts | 344° |
| 2026-05-06 03:28 | -33.93159 | 151.16938 | 34 ft | 10 kts | 347° |
| 2026-05-06 03:28 | -33.93094 | 151.16921 | 35 ft | 9 kts | 347° |
| 2026-05-06 03:29 | -33.93044 | 151.16908 | 35 ft | 7 kts | 350° |
| 2026-05-06 03:29 | -33.93002 | 151.16927 | 35 ft | 7 kts | 45° |
| 2026-05-06 03:29 | -33.92980 | 151.16977 | 35 ft | 7 kts | 72° |
| 2026-05-06 03:29 | -33.92969 | 151.17032 | 35 ft | 7 kts | 77° |
| 2026-05-06 03:30 | -33.92959 | 151.17088 | 35 ft | 7 kts | 77° |
| 2026-05-06 03:30 | -33.92951 | 151.17135 | 35 ft | 5 kts | 81° |
| 2026-05-06 03:30 | -33.92971 | 151.17164 | 34 ft | 4 kts | 150° |
| 2026-05-06 03:30 | -33.93018 | 151.17179 | 35 ft | 16 kts | 167° |
| 2026-05-06 03:31 | -33.93323 | 151.17259 | 34 ft | 80 kts | 168° |
| 2026-05-06 03:31 | -33.94104 | 151.17463 | 31 ft | 147 kts | 168° |
| 2026-05-06 03:31 | -33.95289 | 151.17772 | 38 ft | 197 kts | 167° |
| 2026-05-06 03:31 | -33.96636 | 151.18127 | 550 ft | 196 kts | 168° |
| 2026-05-06 03:32 | -33.97991 | 151.18324 | 1063 ft | 199 kts | 184° |
| 2026-05-06 03:32 | -33.99375 | 151.18101 | 1312 ft | 211 kts | 187° |
| 2026-05-06 03:32 | -34.00902 | 151.17842 | 1508 ft | 226 kts | 187° |
| 2026-05-06 03:32 | -34.02492 | 151.17563 | 1836 ft | 233 kts | 195° |
| 2026-05-06 03:33 | -34.03873 | 151.16573 | 2269 ft | 236 kts | 232° |
| 2026-05-06 03:33 | -34.04506 | 151.14774 | 2694 ft | 237 kts | 266° |
| 2026-05-06 03:33 | -34.04267 | 151.12843 | 3188 ft | 234 kts | 291° |
| 2026-05-06 03:33 | -34.03600 | 151.11026 | 3541 ft | 242 kts | 297° |
| 2026-05-06 03:34 | -34.02851 | 151.09158 | 3809 ft | 255 kts | 297° |
| 2026-05-06 03:34 | -34.02041 | 151.07183 | 4116 ft | 268 kts | 298° |
| 2026-05-06 03:34 | -34.01196 | 151.05142 | 4554 ft | 279 kts | 297° |
| 2026-05-06 03:34 | -34.00328 | 151.02992 | 4935 ft | 290 kts | 297° |
| 2026-05-06 03:35 | -33.99448 | 151.00763 | 5474 ft | 297 kts | 297° |
| 2026-05-06 03:35 | -33.98564 | 150.98505 | 6119 ft | 300 kts | 296° |
| 2026-05-06 03:35 | -33.97668 | 150.96220 | 6798 ft | 302 kts | 297° |
| 2026-05-06 03:35 | -33.96766 | 150.93932 | 7436 ft | 304 kts | 296° |
| 2026-05-06 03:36 | -33.95852 | 150.91622 | 8050 ft | 307 kts | 296° |
| 2026-05-06 03:36 | -33.94928 | 150.89294 | 8677 ft | 309 kts | 296° |
| 2026-05-06 03:36 | -33.94008 | 150.86982 | 9274 ft | 312 kts | 296° |
| 2026-05-06 03:36 | -33.93054 | 150.84587 | 9902 ft | 314 kts | 296° |
| 2026-05-06 03:37 | -33.92118 | 150.82238 | 10432 ft | 318 kts | 296° |
| 2026-05-06 03:37 | -33.91120 | 150.79741 | 10572 ft | 336 kts | 296° |
| 2026-05-06 03:37 | -33.90091 | 150.77168 | 10753 ft | 352 kts | 296° |
| 2026-05-06 03:37 | -33.89012 | 150.74471 | 11144 ft | 362 kts | 296° |
| 2026-05-06 03:38 | -33.87910 | 150.71719 | 11636 ft | 368 kts | 296° |
| 2026-05-06 03:38 | -33.86795 | 150.68936 | 12273 ft | 370 kts | 296° |
| 2026-05-06 03:38 | -33.85677 | 150.66146 | 12966 ft | 370 kts | 296° |
| 2026-05-06 03:38 | -33.84558 | 150.63357 | 13630 ft | 372 kts | 296° |
| 2026-05-06 03:39 | -33.83423 | 150.60534 | 14229 ft | 375 kts | 296° |
| 2026-05-06 03:39 | -33.82285 | 150.57704 | 14784 ft | 378 kts | 296° |
| 2026-05-06 03:39 | -33.81131 | 150.54839 | 15331 ft | 382 kts | 295° |
| 2026-05-06 03:39 | -33.79972 | 150.51958 | 15888 ft | 385 kts | 295° |
| 2026-05-06 03:40 | -33.78802 | 150.49054 | 16447 ft | 388 kts | 295° |
| 2026-05-06 03:40 | -33.77622 | 150.46126 | 17006 ft | 391 kts | 295° |
| 2026-05-06 03:40 | -33.76430 | 150.43175 | 17543 ft | 394 kts | 295° |
| 2026-05-06 03:40 | -33.75229 | 150.40201 | 18096 ft | 397 kts | 295° |
| 2026-05-06 03:41 | -33.74019 | 150.37207 | 18599 ft | 400 kts | 295° |
| 2026-05-06 03:41 | -33.72800 | 150.34198 | 19087 ft | 402 kts | 295° |
| 2026-05-06 03:41 | -33.71574 | 150.31161 | 19590 ft | 404 kts | 294° |
| 2026-05-06 03:41 | -33.70508 | 150.28034 | 20070 ft | 406 kts | 288° |
| 2026-05-06 03:42 | -33.69642 | 150.24789 | 20559 ft | 409 kts | 287° |
| 2026-05-06 03:42 | -33.68774 | 150.21533 | 21040 ft | 411 kts | 287° |
| 2026-05-06 03:42 | -33.67906 | 150.18302 | 21507 ft | 414 kts | 288° |
| 2026-05-06 03:42 | -33.67022 | 150.15032 | 21983 ft | 416 kts | 288° |
| 2026-05-06 03:43 | -33.66121 | 150.11715 | 22438 ft | 419 kts | 288° |
| 2026-05-06 03:43 | -33.65212 | 150.08380 | 22912 ft | 422 kts | 288° |
| 2026-05-06 03:43 | -33.64295 | 150.05021 | 23368 ft | 424 kts | 288° |
| 2026-05-06 03:43 | -33.63371 | 150.01643 | 23794 ft | 427 kts | 288° |
| 2026-05-06 03:44 | -33.62441 | 149.98247 | 24164 ft | 429 kts | 288° |
| 2026-05-06 03:44 | -33.61507 | 149.94845 | 24534 ft | 431 kts | 288° |
| 2026-05-06 03:44 | -33.60566 | 149.91418 | 24899 ft | 434 kts | 288° |
| 2026-05-06 03:44 | -33.59616 | 149.87965 | 25238 ft | 436 kts | 288° |
| 2026-05-06 03:45 | -33.58661 | 149.84496 | 25575 ft | 439 kts | 288° |
| 2026-05-06 03:45 | -33.57699 | 149.81005 | 25915 ft | 442 kts | 288° |
| 2026-05-06 03:45 | -33.56732 | 149.77500 | 26268 ft | 444 kts | 288° |
| 2026-05-06 03:45 | -33.55758 | 149.73975 | 26613 ft | 446 kts | 288° |
| 2026-05-06 03:46 | -33.54792 | 149.70485 | 26938 ft | 449 kts | 288° |
| 2026-05-06 03:46 | -33.53805 | 149.66924 | 27258 ft | 451 kts | 288° |
| 2026-05-06 03:46 | -33.52815 | 149.63352 | 27588 ft | 453 kts | 288° |
| 2026-05-06 03:46 | -33.51817 | 149.59759 | 27898 ft | 456 kts | 288° |
| 2026-05-06 03:47 | -33.50813 | 149.56149 | 28220 ft | 457 kts | 288° |
| 2026-05-06 03:47 | -33.49807 | 149.52535 | 28548 ft | 459 kts | 289° |
| 2026-05-06 03:47 | -33.48796 | 149.48908 | 28831 ft | 461 kts | 289° |
| 2026-05-06 03:47 | -33.47777 | 149.45259 | 29104 ft | 463 kts | 289° |
| 2026-05-06 03:48 | -33.47098 | 149.42830 | 29270 ft | 464 kts | 289° |
| 2026-05-06 03:48 | -33.45722 | 149.37912 | 29602 ft | 467 kts | 289° |
| 2026-05-06 03:48 | -33.45039 | 149.35474 | 29769 ft | 468 kts | 289° |
| 2026-05-06 03:48 | -33.44002 | 149.31776 | 29994 ft | 469 kts | 289° |
| 2026-05-06 03:49 | -33.41931 | 149.24406 | 30071 ft | 473 kts | 289° |
| 2026-05-06 03:49 | -33.39845 | 149.17001 | 30092 ft | 468 kts | 289° |
| 2026-05-06 03:50 | -33.37763 | 149.09630 | 30123 ft | 468 kts | 289° |
| 2026-05-06 03:50 | -33.35678 | 149.02265 | 30128 ft | 467 kts | 289° |
| 2026-05-06 03:51 | -33.33602 | 148.94951 | 30130 ft | 467 kts | 289° |
| 2026-05-06 03:51 | -33.31505 | 148.87587 | 30127 ft | 467 kts | 289° |
| 2026-05-06 03:52 | -33.29409 | 148.80243 | 30129 ft | 467 kts | 289° |
| 2026-05-06 03:52 | -33.27309 | 148.72901 | 30133 ft | 466 kts | 289° |
| 2026-05-06 03:53 | -33.25209 | 148.65578 | 30136 ft | 466 kts | 289° |
| 2026-05-06 03:53 | -33.23107 | 148.58265 | 30137 ft | 465 kts | 289° |
| 2026-05-06 03:54 | -33.21003 | 148.50966 | 30130 ft | 465 kts | 289° |
| 2026-05-06 03:54 | -33.18896 | 148.43673 | 30161 ft | 464 kts | 289° |
| 2026-05-06 03:55 | -33.16788 | 148.36395 | 30144 ft | 463 kts | 289° |
| 2026-05-06 03:55 | -33.14683 | 148.29141 | 30140 ft | 462 kts | 289° |
| 2026-05-06 03:56 | -33.12662 | 148.21872 | 30142 ft | 462 kts | 285° |
| 2026-05-06 03:56 | -33.11097 | 148.14457 | 30143 ft | 461 kts | 284° |
| 2026-05-06 03:57 | -33.09539 | 148.07084 | 30147 ft | 461 kts | 285° |
| 2026-05-06 03:57 | -33.07959 | 147.99688 | 30153 ft | 461 kts | 285° |
| 2026-05-06 03:58 | -33.06366 | 147.92285 | 30156 ft | 461 kts | 285° |
| 2026-05-06 03:58 | -33.04769 | 147.84895 | 30156 ft | 461 kts | 285° |
| 2026-05-06 03:59 | -33.03166 | 147.77498 | 30155 ft | 461 kts | 285° |
| 2026-05-06 03:59 | -33.01560 | 147.70110 | 30157 ft | 461 kts | 285° |
| 2026-05-06 04:00 | -32.99950 | 147.62726 | 30175 ft | 460 kts | 285° |
| 2026-05-06 04:00 | -32.98338 | 147.55354 | 30154 ft | 460 kts | 285° |
| 2026-05-06 04:01 | -32.96721 | 147.47983 | 30158 ft | 459 kts | 285° |
| 2026-05-06 04:01 | -32.95102 | 147.40621 | 30158 ft | 459 kts | 285° |
| 2026-05-06 04:02 | -32.93481 | 147.33279 | 30156 ft | 459 kts | 285° |
| 2026-05-06 04:02 | -32.91857 | 147.25939 | 30178 ft | 458 kts | 285° |
| 2026-05-06 04:03 | -32.90231 | 147.18616 | 30161 ft | 458 kts | 285° |
| 2026-05-06 04:03 | -32.88602 | 147.11300 | 30159 ft | 457 kts | 285° |
| 2026-05-06 04:04 | -32.86970 | 147.03996 | 30157 ft | 457 kts | 285° |
| 2026-05-06 04:04 | -32.85334 | 146.96692 | 30180 ft | 457 kts | 285° |
| 2026-05-06 04:05 | -32.83693 | 146.89385 | 30161 ft | 457 kts | 285° |
| 2026-05-06 04:05 | -32.82050 | 146.82095 | 30153 ft | 457 kts | 285° |
| 2026-05-06 04:06 | -32.80403 | 146.74809 | 30153 ft | 456 kts | 285° |
| 2026-05-06 04:06 | -32.78754 | 146.67530 | 30171 ft | 456 kts | 285° |
| 2026-05-06 04:07 | -32.77110 | 146.60296 | 30179 ft | 456 kts | 285° |
| 2026-05-06 04:07 | -32.75453 | 146.53029 | 30165 ft | 456 kts | 285° |
| 2026-05-06 04:08 | -32.73789 | 146.45754 | 30157 ft | 456 kts | 285° |
| 2026-05-06 04:08 | -32.72124 | 146.38489 | 30172 ft | 456 kts | 285° |
| 2026-05-06 04:09 | -32.70452 | 146.31222 | 30161 ft | 456 kts | 285° |
| 2026-05-06 04:09 | -32.68776 | 146.23952 | 30173 ft | 456 kts | 285° |
| 2026-05-06 04:10 | -32.67100 | 146.16708 | 30174 ft | 455 kts | 285° |
| 2026-05-06 04:10 | -32.65419 | 146.09460 | 30155 ft | 455 kts | 285° |
| 2026-05-06 04:11 | -32.63737 | 146.02230 | 30172 ft | 454 kts | 285° |
| 2026-05-06 04:11 | -32.62053 | 145.95009 | 30180 ft | 454 kts | 285° |
| 2026-05-06 04:12 | -32.60366 | 145.87799 | 30170 ft | 454 kts | 285° |
| 2026-05-06 04:12 | -32.58674 | 145.80585 | 30166 ft | 454 kts | 285° |
| 2026-05-06 04:13 | -32.56977 | 145.73373 | 30167 ft | 454 kts | 285° |
| 2026-05-06 04:13 | -32.55278 | 145.66171 | 30183 ft | 454 kts | 285° |
| 2026-05-06 04:14 | -32.53587 | 145.59024 | 30183 ft | 453 kts | 285° |
| 2026-05-06 04:14 | -32.51869 | 145.51777 | 30174 ft | 454 kts | 285° |
| 2026-05-06 04:15 | -32.50166 | 145.44620 | 30182 ft | 455 kts | 285° |
| 2026-05-06 04:15 | -32.48443 | 145.37400 | 30170 ft | 456 kts | 285° |
| 2026-05-06 04:16 | -32.46715 | 145.30175 | 30171 ft | 456 kts | 285° |
| 2026-05-06 04:16 | -32.44979 | 145.22938 | 30187 ft | 457 kts | 285° |
| 2026-05-06 04:17 | -32.43241 | 145.15711 | 30184 ft | 456 kts | 285° |
| 2026-05-06 04:17 | -32.41499 | 145.08489 | 30175 ft | 456 kts | 285° |
| 2026-05-06 04:18 | -32.39755 | 145.01278 | 30177 ft | 456 kts | 285° |
| 2026-05-06 04:18 | -32.38007 | 144.94071 | 30196 ft | 456 kts | 285° |
| 2026-05-06 04:19 | -32.36254 | 144.86862 | 30200 ft | 455 kts | 285° |
| 2026-05-06 04:19 | -32.34499 | 144.79667 | 30175 ft | 456 kts | 285° |
| 2026-05-06 04:20 | -32.32741 | 144.72477 | 30187 ft | 455 kts | 285° |
| 2026-05-06 04:20 | -32.30978 | 144.65285 | 30183 ft | 455 kts | 286° |
| 2026-05-06 04:21 | -32.29210 | 144.58095 | 30178 ft | 455 kts | 286° |
| 2026-05-06 04:21 | -32.27441 | 144.50916 | 30198 ft | 455 kts | 286° |
| 2026-05-06 04:22 | -32.25666 | 144.43735 | 30198 ft | 455 kts | 286° |
| 2026-05-06 04:23 | -32.22999 | 144.32982 | 30197 ft | 455 kts | 286° |
| 2026-05-06 04:23 | -32.21217 | 144.25820 | 30193 ft | 454 kts | 286° |
| 2026-05-06 04:24 | -32.19447 | 144.18723 | 30198 ft | 454 kts | 286° |
| 2026-05-06 04:24 | -32.17659 | 144.11576 | 30190 ft | 454 kts | 286° |
| 2026-05-06 04:25 | -32.15871 | 144.04446 | 30197 ft | 453 kts | 286° |
| 2026-05-06 04:25 | -32.14075 | 143.97305 | 30193 ft | 453 kts | 286° |
| 2026-05-06 04:26 | -32.12277 | 143.90169 | 30195 ft | 454 kts | 286° |
| 2026-05-06 04:26 | -32.10473 | 143.83035 | 30188 ft | 454 kts | 286° |
| 2026-05-06 04:27 | -32.08666 | 143.75900 | 30197 ft | 454 kts | 286° |
| 2026-05-06 04:27 | -32.06854 | 143.68768 | 30193 ft | 455 kts | 286° |
| 2026-05-06 04:28 | -32.05047 | 143.61668 | 30195 ft | 455 kts | 286° |
| 2026-05-06 04:28 | -32.03305 | 143.54495 | 30187 ft | 455 kts | 282° |
| 2026-05-06 04:29 | -32.02448 | 143.47117 | 30198 ft | 455 kts | 273° |
| 2026-05-06 04:29 | -32.02398 | 143.39651 | 30207 ft | 456 kts | 271° |
| 2026-05-06 04:30 | -32.02391 | 143.32173 | 30199 ft | 456 kts | 271° |
| 2026-05-06 04:30 | -32.02362 | 143.24702 | 30200 ft | 457 kts | 271° |
| 2026-05-06 04:31 | -32.02319 | 143.17220 | 30206 ft | 457 kts | 271° |
| 2026-05-06 04:31 | -32.02267 | 143.09728 | 30210 ft | 457 kts | 271° |
| 2026-05-06 04:32 | -32.02212 | 143.02242 | 30201 ft | 457 kts | 271° |
| 2026-05-06 04:32 | -32.02152 | 142.94748 | 30213 ft | 457 kts | 271° |
| 2026-05-06 04:33 | -32.02088 | 142.87265 | 30207 ft | 457 kts | 271° |
| 2026-05-06 04:33 | -32.02020 | 142.79766 | 30211 ft | 457 kts | 271° |
| 2026-05-06 04:34 | -32.01947 | 142.72278 | 30207 ft | 457 kts | 271° |
| 2026-05-06 04:34 | -32.01870 | 142.64787 | 30209 ft | 457 kts | 271° |
| 2026-05-06 04:35 | -32.01789 | 142.57292 | 30211 ft | 458 kts | 271° |
| 2026-05-06 04:35 | -32.01717 | 142.51054 | 30191 ft | 458 kts | 271° |
| 2026-05-06 04:36 | -32.01631 | 142.43790 | 30202 ft | 458 kts | 271° |
| 2026-05-06 04:36 | -32.01536 | 142.36269 | 30203 ft | 458 kts | 271° |
| 2026-05-06 04:37 | -32.01438 | 142.28767 | 30197 ft | 458 kts | 271° |
| 2026-05-06 04:37 | -32.01335 | 142.21258 | 30209 ft | 459 kts | 271° |
| 2026-05-06 04:38 | -32.01228 | 142.13741 | 30216 ft | 459 kts | 271° |
| 2026-05-06 04:38 | -32.01116 | 142.06226 | 30214 ft | 459 kts | 271° |
| 2026-05-06 04:39 | -32.01000 | 141.98709 | 30207 ft | 459 kts | 271° |
| 2026-05-06 04:39 | -32.00879 | 141.91189 | 30205 ft | 459 kts | 272° |
| 2026-05-06 04:40 | -32.00754 | 141.83664 | 30212 ft | 459 kts | 272° |
| 2026-05-06 04:40 | -32.00624 | 141.76142 | 30216 ft | 459 kts | 272° |
| 2026-05-06 04:41 | -32.00490 | 141.68626 | 30204 ft | 459 kts | 272° |
| 2026-05-06 04:41 | -32.00351 | 141.61096 | 30217 ft | 459 kts | 272° |
| 2026-05-06 04:42 | -32.00209 | 141.53577 | 30217 ft | 459 kts | 272° |
| 2026-05-06 04:42 | -31.99886 | 141.46114 | 30209 ft | 459 kts | 278° |
| 2026-05-06 04:43 | -31.98802 | 141.38712 | 30211 ft | 459 kts | 280° |
| 2026-05-06 04:43 | -31.97707 | 141.31303 | 30208 ft | 459 kts | 279° |
| 2026-05-06 04:44 | -31.96630 | 141.23895 | 30220 ft | 459 kts | 279° |
| 2026-05-06 04:44 | -31.95555 | 141.16484 | 30220 ft | 460 kts | 279° |
| 2026-05-06 04:45 | -31.94475 | 141.09055 | 30209 ft | 460 kts | 279° |
| 2026-05-06 04:45 | -31.93391 | 141.01642 | 30216 ft | 460 kts | 279° |
| 2026-05-06 04:46 | -31.92303 | 140.94229 | 30218 ft | 460 kts | 279° |
| 2026-05-06 04:46 | -31.91210 | 140.86820 | 30216 ft | 460 kts | 280° |
| 2026-05-06 04:47 | -31.90114 | 140.79413 | 30209 ft | 459 kts | 280° |
| 2026-05-06 04:47 | -31.89013 | 140.72013 | 30215 ft | 459 kts | 280° |
| 2026-05-06 04:48 | -31.87908 | 140.64611 | 30208 ft | 459 kts | 280° |
| 2026-05-06 04:48 | -31.86799 | 140.57212 | 30214 ft | 459 kts | 280° |
| 2026-05-06 04:49 | -31.85685 | 140.49814 | 30211 ft | 459 kts | 280° |
| 2026-05-06 04:49 | -31.84568 | 140.42422 | 30214 ft | 459 kts | 280° |
| 2026-05-06 04:50 | -31.83446 | 140.35030 | 30222 ft | 459 kts | 280° |
| 2026-05-06 04:50 | -31.82319 | 140.27633 | 30225 ft | 459 kts | 280° |
| 2026-05-06 04:51 | -31.81195 | 140.20288 | 30218 ft | 460 kts | 280° |
| 2026-05-06 04:51 | -31.80059 | 140.12894 | 30218 ft | 460 kts | 280° |
| 2026-05-06 04:52 | -31.78920 | 140.05510 | 30224 ft | 459 kts | 280° |
| 2026-05-06 04:52 | -31.77776 | 139.98120 | 30222 ft | 459 kts | 280° |
| 2026-05-06 04:53 | -31.76626 | 139.90723 | 30225 ft | 459 kts | 280° |
| 2026-05-06 04:53 | -31.75475 | 139.83348 | 30226 ft | 459 kts | 280° |
| 2026-05-06 04:54 | -31.74318 | 139.75963 | 30231 ft | 459 kts | 280° |
| 2026-05-06 04:54 | -31.73159 | 139.68594 | 30221 ft | 459 kts | 280° |
| 2026-05-06 04:55 | -31.71995 | 139.61220 | 30226 ft | 459 kts | 280° |
| 2026-05-06 04:55 | -31.70828 | 139.53860 | 30226 ft | 459 kts | 280° |
| 2026-05-06 04:56 | -31.69657 | 139.46494 | 30226 ft | 458 kts | 280° |
| 2026-05-06 04:56 | -31.68483 | 139.39142 | 30226 ft | 458 kts | 280° |
| 2026-05-06 04:57 | -31.67349 | 139.31780 | 30234 ft | 459 kts | 278° |
| 2026-05-06 04:57 | -31.66403 | 139.24372 | 30228 ft | 459 kts | 278° |
| 2026-05-06 04:58 | -31.65514 | 139.17176 | 30228 ft | 459 kts | 278° |
| 2026-05-06 04:58 | -31.64578 | 139.09806 | 30221 ft | 460 kts | 278° |
| 2026-05-06 04:59 | -31.63616 | 139.02398 | 30225 ft | 459 kts | 278° |
| 2026-05-06 04:59 | -31.62644 | 138.94984 | 30234 ft | 460 kts | 278° |
| 2026-05-06 05:00 | -31.61667 | 138.87571 | 30231 ft | 460 kts | 278° |
| 2026-05-06 05:00 | -31.60686 | 138.80163 | 30237 ft | 460 kts | 278° |
| 2026-05-06 05:01 | -31.59701 | 138.72750 | 30243 ft | 460 kts | 278° |
| 2026-05-06 05:01 | -31.58713 | 138.65343 | 30238 ft | 460 kts | 278° |
| 2026-05-06 05:02 | -31.57720 | 138.57936 | 30239 ft | 460 kts | 278° |
| 2026-05-06 05:02 | -31.56722 | 138.50529 | 30254 ft | 460 kts | 278° |
| 2026-05-06 05:03 | -31.55718 | 138.43109 | 30237 ft | 461 kts | 278° |
| 2026-05-06 05:03 | -31.54711 | 138.35695 | 30244 ft | 460 kts | 278° |
| 2026-05-06 05:04 | -31.53699 | 138.28281 | 30249 ft | 460 kts | 278° |
| 2026-05-06 05:04 | -31.52682 | 138.20868 | 30241 ft | 461 kts | 278° |
| 2026-05-06 05:05 | -31.51662 | 138.13457 | 30248 ft | 460 kts | 278° |
| 2026-05-06 05:05 | -31.50637 | 138.06051 | 30249 ft | 461 kts | 278° |
| 2026-05-06 05:06 | -31.49609 | 137.98647 | 30245 ft | 461 kts | 278° |
| 2026-05-06 05:06 | -31.48575 | 137.91240 | 30255 ft | 461 kts | 278° |
| 2026-05-06 05:07 | -31.47537 | 137.83829 | 30251 ft | 461 kts | 278° |
| 2026-05-06 05:07 | -31.46493 | 137.76413 | 30249 ft | 461 kts | 278° |
| 2026-05-06 05:08 | -31.45445 | 137.69001 | 30264 ft | 462 kts | 278° |
| 2026-05-06 05:08 | -31.44393 | 137.61585 | 30259 ft | 462 kts | 278° |
| 2026-05-06 05:09 | -31.43341 | 137.54210 | 30257 ft | 462 kts | 279° |
| 2026-05-06 05:09 | -31.42279 | 137.46790 | 30254 ft | 462 kts | 279° |
| 2026-05-06 05:10 | -31.41211 | 137.39365 | 30260 ft | 462 kts | 279° |
| 2026-05-06 05:10 | -31.40139 | 137.31943 | 30257 ft | 462 kts | 279° |
| 2026-05-06 05:11 | -31.39065 | 137.24536 | 30266 ft | 462 kts | 279° |
| 2026-05-06 05:11 | -31.37986 | 137.17127 | 30262 ft | 462 kts | 279° |
| 2026-05-06 05:12 | -31.36904 | 137.09725 | 30265 ft | 462 kts | 279° |
| 2026-05-06 05:12 | -31.35818 | 137.02325 | 30263 ft | 462 kts | 279° |
| 2026-05-06 05:13 | -31.34726 | 136.94919 | 30269 ft | 462 kts | 279° |
| 2026-05-06 05:13 | -31.33631 | 136.87523 | 30268 ft | 462 kts | 279° |
| 2026-05-06 05:14 | -31.32529 | 136.80112 | 30270 ft | 462 kts | 279° |
| 2026-05-06 05:14 | -31.31423 | 136.72702 | 30264 ft | 463 kts | 279° |
| 2026-05-06 05:15 | -31.30313 | 136.65296 | 30268 ft | 463 kts | 279° |
| 2026-05-06 05:15 | -31.29198 | 136.57885 | 30271 ft | 463 kts | 279° |
| 2026-05-06 05:16 | -31.28078 | 136.50474 | 30275 ft | 463 kts | 279° |
| 2026-05-06 05:16 | -31.26954 | 136.43064 | 30273 ft | 463 kts | 279° |
| 2026-05-06 05:17 | -31.25826 | 136.35657 | 30269 ft | 463 kts | 279° |
| 2026-05-06 05:17 | -31.24695 | 136.28258 | 30279 ft | 463 kts | 279° |
| 2026-05-06 05:18 | -31.23558 | 136.20857 | 30298 ft | 463 kts | 279° |
| 2026-05-06 05:18 | -31.22418 | 136.13459 | 30284 ft | 463 kts | 279° |
| 2026-05-06 05:19 | -31.21272 | 136.06053 | 30288 ft | 463 kts | 279° |
| 2026-05-06 05:19 | -31.20125 | 135.98670 | 30475 ft | 460 kts | 279° |
| 2026-05-06 05:19 | -31.19560 | 135.95045 | 30591 ft | 460 kts | 279° |
| 2026-05-06 05:20 | -31.18985 | 135.91362 | 30695 ft | 459 kts | 279° |
| 2026-05-06 05:20 | -31.18411 | 135.87694 | 30820 ft | 459 kts | 279° |
| 2026-05-06 05:20 | -31.17838 | 135.84033 | 30944 ft | 459 kts | 279° |
| 2026-05-06 05:20 | -31.17263 | 135.80373 | 31053 ft | 458 kts | 279° |
| 2026-05-06 05:21 | -31.16686 | 135.76706 | 31167 ft | 458 kts | 279° |
| 2026-05-06 05:21 | -31.16110 | 135.73051 | 31294 ft | 458 kts | 279° |
| 2026-05-06 05:21 | -31.15534 | 135.69401 | 31412 ft | 457 kts | 279° |
| 2026-05-06 05:22 | -31.14381 | 135.62121 | 31654 ft | 456 kts | 279° |
| 2026-05-06 05:22 | -31.13414 | 135.56041 | 31853 ft | 454 kts | 279° |
| 2026-05-06 05:22 | -31.12844 | 135.52459 | 31978 ft | 454 kts | 279° |
| 2026-05-06 05:23 | -31.12072 | 135.47628 | 32148 ft | 453 kts | 279° |
| 2026-05-06 05:23 | -31.10535 | 135.38039 | 32290 ft | 450 kts | 280° |
| 2026-05-06 05:24 | -31.09380 | 135.30861 | 32289 ft | 451 kts | 280° |
| 2026-05-06 05:24 | -31.08218 | 135.23667 | 32297 ft | 452 kts | 280° |
| 2026-05-06 05:25 | -31.07049 | 135.16457 | 32285 ft | 452 kts | 280° |
| 2026-05-06 05:25 | -31.05877 | 135.09258 | 32292 ft | 452 kts | 280° |
| 2026-05-06 05:26 | -31.04700 | 135.02051 | 32289 ft | 453 kts | 280° |
| 2026-05-06 05:26 | -31.03517 | 134.94837 | 32282 ft | 452 kts | 280° |
| 2026-05-06 05:27 | -31.02333 | 134.87637 | 32285 ft | 452 kts | 280° |
| 2026-05-06 05:27 | -31.01144 | 134.80436 | 32287 ft | 452 kts | 280° |
| 2026-05-06 05:28 | -30.99951 | 134.73242 | 32284 ft | 452 kts | 280° |
| 2026-05-06 05:28 | -30.98755 | 134.66046 | 32287 ft | 452 kts | 280° |
| 2026-05-06 05:29 | -30.97555 | 134.58861 | 32305 ft | 452 kts | 280° |
| 2026-05-06 05:29 | -30.96351 | 134.51673 | 32300 ft | 452 kts | 280° |
| 2026-05-06 05:30 | -30.95142 | 134.44482 | 32303 ft | 452 kts | 280° |
| 2026-05-06 05:30 | -30.93929 | 134.37291 | 32295 ft | 452 kts | 280° |
| 2026-05-06 05:31 | -30.92711 | 134.30096 | 32304 ft | 453 kts | 280° |
| 2026-05-06 05:31 | -30.91490 | 134.22911 | 32298 ft | 453 kts | 280° |
| 2026-05-06 05:32 | -30.90269 | 134.15748 | 32294 ft | 454 kts | 280° |
| 2026-05-06 05:32 | -30.89037 | 134.08546 | 32294 ft | 454 kts | 280° |
| 2026-05-06 05:33 | -30.87801 | 134.01344 | 32305 ft | 453 kts | 280° |
| 2026-05-06 05:33 | -30.86562 | 133.94153 | 32307 ft | 453 kts | 281° |
| 2026-05-06 05:34 | -30.85318 | 133.86954 | 32299 ft | 453 kts | 281° |
| 2026-05-06 05:34 | -30.84069 | 133.79751 | 32309 ft | 454 kts | 281° |
| 2026-05-06 05:35 | -30.82817 | 133.72555 | 32298 ft | 454 kts | 281° |
| 2026-05-06 05:35 | -30.81404 | 133.65403 | 32314 ft | 454 kts | 287° |
| 2026-05-06 05:36 | -30.79331 | 133.58454 | 32315 ft | 455 kts | 288° |
| 2026-05-06 05:36 | -30.77252 | 133.51504 | 32310 ft | 455 kts | 288° |
| 2026-05-06 05:37 | -30.75185 | 133.44541 | 32302 ft | 455 kts | 288° |
| 2026-05-06 05:37 | -30.73123 | 133.37582 | 32320 ft | 455 kts | 288° |
| 2026-05-06 05:38 | -30.71056 | 133.30615 | 32320 ft | 456 kts | 288° |
| 2026-05-06 05:38 | -30.69001 | 133.23704 | 32320 ft | 456 kts | 288° |
| 2026-05-06 05:39 | -30.66926 | 133.16742 | 32305 ft | 456 kts | 288° |
| 2026-05-06 05:39 | -30.64847 | 133.09785 | 32312 ft | 456 kts | 288° |
| 2026-05-06 05:40 | -30.62766 | 133.02836 | 32323 ft | 456 kts | 288° |
| 2026-05-06 05:40 | -30.60681 | 132.95888 | 32318 ft | 456 kts | 288° |
| 2026-05-06 05:41 | -30.58589 | 132.88935 | 32321 ft | 456 kts | 288° |
| 2026-05-06 05:41 | -30.56493 | 132.81982 | 32320 ft | 456 kts | 288° |
| 2026-05-06 05:42 | -30.54396 | 132.75038 | 32324 ft | 456 kts | 288° |
| 2026-05-06 05:42 | -30.52293 | 132.68093 | 32321 ft | 457 kts | 288° |
| 2026-05-06 05:43 | -30.50196 | 132.61183 | 32328 ft | 457 kts | 288° |
| 2026-05-06 05:43 | -30.48083 | 132.54231 | 32313 ft | 457 kts | 288° |
| 2026-05-06 05:44 | -30.45967 | 132.47290 | 32324 ft | 457 kts | 288° |
| 2026-05-06 05:44 | -30.43847 | 132.40347 | 32325 ft | 457 kts | 288° |
| 2026-05-06 05:45 | -30.41730 | 132.33433 | 32325 ft | 457 kts | 288° |
| 2026-05-06 05:45 | -30.39592 | 132.26461 | 32327 ft | 457 kts | 288° |
| 2026-05-06 05:46 | -30.37460 | 132.19526 | 32335 ft | 457 kts | 288° |
| 2026-05-06 05:46 | -30.35323 | 132.12590 | 32327 ft | 457 kts | 288° |
| 2026-05-06 05:47 | -30.33182 | 132.05653 | 32329 ft | 457 kts | 288° |
| 2026-05-06 05:47 | -30.31040 | 131.98728 | 32324 ft | 457 kts | 288° |
| 2026-05-06 05:48 | -30.28896 | 131.91814 | 32331 ft | 457 kts | 288° |
| 2026-05-06 05:48 | -30.26746 | 131.84894 | 32335 ft | 457 kts | 288° |
| 2026-05-06 05:49 | -30.24594 | 131.77982 | 32333 ft | 457 kts | 288° |
| 2026-05-06 05:49 | -30.22436 | 131.71066 | 32334 ft | 457 kts | 288° |
| 2026-05-06 05:50 | -30.20281 | 131.64175 | 32329 ft | 458 kts | 288° |
| 2026-05-06 05:50 | -30.18115 | 131.57261 | 32337 ft | 458 kts | 289° |
| 2026-05-06 05:51 | -30.15943 | 131.50345 | 32338 ft | 458 kts | 289° |
| 2026-05-06 05:51 | -30.13763 | 131.43416 | 32334 ft | 458 kts | 289° |
| 2026-05-06 05:52 | -30.11580 | 131.36494 | 32324 ft | 458 kts | 289° |
| 2026-05-06 05:52 | -30.09398 | 131.29587 | 32340 ft | 458 kts | 289° |
| 2026-05-06 05:53 | -30.07206 | 131.22664 | 32336 ft | 459 kts | 289° |
| 2026-05-06 05:53 | -30.05027 | 131.15797 | 32344 ft | 459 kts | 289° |
| 2026-05-06 05:54 | -30.02837 | 131.08907 | 32340 ft | 459 kts | 289° |
| 2026-05-06 05:54 | -30.00620 | 131.01947 | 32339 ft | 459 kts | 289° |
| 2026-05-06 05:55 | -29.98242 | 130.95165 | 32346 ft | 459 kts | 292° |
| 2026-05-06 05:55 | -29.95686 | 130.88403 | 32348 ft | 460 kts | 292° |
| 2026-05-06 05:56 | -29.93120 | 130.81637 | 32345 ft | 461 kts | 292° |
| 2026-05-06 05:56 | -29.90564 | 130.74867 | 32333 ft | 461 kts | 292° |
| 2026-05-06 05:57 | -29.88010 | 130.68090 | 32347 ft | 461 kts | 292° |
| 2026-05-06 05:57 | -29.85455 | 130.61320 | 32340 ft | 461 kts | 292° |
| 2026-05-06 05:58 | -29.82889 | 130.54533 | 32344 ft | 462 kts | 292° |
| 2026-05-06 05:58 | -29.80317 | 130.47745 | 32330 ft | 462 kts | 292° |
| 2026-05-06 05:59 | -29.77744 | 130.40968 | 32341 ft | 462 kts | 292° |
| 2026-05-06 05:59 | -29.75167 | 130.34194 | 32339 ft | 462 kts | 292° |
| 2026-05-06 06:00 | -29.72585 | 130.27417 | 32338 ft | 462 kts | 292° |
| 2026-05-06 06:00 | -29.70001 | 130.20648 | 32339 ft | 462 kts | 292° |
| 2026-05-06 06:01 | -29.67412 | 130.13879 | 32335 ft | 462 kts | 292° |
| 2026-05-06 06:01 | -29.64819 | 130.07111 | 32334 ft | 462 kts | 292° |
| 2026-05-06 06:02 | -29.62314 | 130.00584 | 32334 ft | 462 kts | 292° |
| 2026-05-06 06:02 | -29.59715 | 129.93826 | 32334 ft | 463 kts | 292° |
| 2026-05-06 06:03 | -29.57110 | 129.87064 | 32327 ft | 463 kts | 292° |
| 2026-05-06 06:03 | -29.54520 | 129.80353 | 32325 ft | 463 kts | 292° |
| 2026-05-06 06:04 | -29.51891 | 129.73555 | 32328 ft | 463 kts | 292° |
| 2026-05-06 06:04 | -29.49290 | 129.66839 | 32348 ft | 463 kts | 292° |
| 2026-05-06 06:05 | -29.46671 | 129.60089 | 32332 ft | 463 kts | 293° |
| 2026-05-06 06:05 | -29.44049 | 129.53345 | 32323 ft | 463 kts | 293° |
| 2026-05-06 06:06 | -29.41421 | 129.46599 | 32326 ft | 463 kts | 293° |
| 2026-05-06 06:06 | -29.38790 | 129.39855 | 32343 ft | 463 kts | 293° |
| 2026-05-06 06:07 | -29.36155 | 129.33113 | 32347 ft | 463 kts | 293° |
| 2026-05-06 06:07 | -29.33515 | 129.26372 | 32343 ft | 463 kts | 293° |
| 2026-05-06 06:08 | -29.30874 | 129.19640 | 32323 ft | 463 kts | 293° |
| 2026-05-06 06:08 | -29.28678 | 129.14050 | 32328 ft | 463 kts | 293° |
| 2026-05-06 06:09 | -29.26029 | 129.07321 | 32348 ft | 463 kts | 293° |
| 2026-05-06 06:09 | -29.23380 | 129.00602 | 32329 ft | 463 kts | 293° |
| 2026-05-06 06:10 | -29.20725 | 128.93880 | 32337 ft | 463 kts | 293° |
| 2026-05-06 06:10 | -29.18132 | 128.87328 | 32348 ft | 463 kts | 293° |
| 2026-05-06 06:11 | -29.15471 | 128.80615 | 32321 ft | 463 kts | 293° |
| 2026-05-06 06:11 | -29.12810 | 128.73912 | 32319 ft | 463 kts | 293° |
| 2026-05-06 06:12 | -29.10140 | 128.67202 | 32330 ft | 463 kts | 293° |
| 2026-05-06 06:12 | -29.07473 | 128.60509 | 32330 ft | 463 kts | 293° |
| 2026-05-06 06:13 | -29.04798 | 128.53807 | 32337 ft | 463 kts | 293° |
| 2026-05-06 06:13 | -29.02120 | 128.47111 | 32335 ft | 463 kts | 293° |
| 2026-05-06 06:14 | -28.99438 | 128.40416 | 32334 ft | 463 kts | 293° |
| 2026-05-06 06:14 | -28.96773 | 128.33776 | 32325 ft | 463 kts | 293° |
| 2026-05-06 06:15 | -28.94088 | 128.27095 | 32335 ft | 463 kts | 293° |
| 2026-05-06 06:15 | -28.91398 | 128.20416 | 32327 ft | 463 kts | 293° |
| 2026-05-06 06:16 | -28.88702 | 128.13734 | 32334 ft | 463 kts | 293° |
| 2026-05-06 06:16 | -28.86007 | 128.07065 | 32330 ft | 463 kts | 293° |
| 2026-05-06 06:17 | -28.83310 | 128.00401 | 32325 ft | 463 kts | 293° |
| 2026-05-06 06:17 | -28.80609 | 127.93742 | 32338 ft | 462 kts | 293° |
| 2026-05-06 06:18 | -28.77907 | 127.87089 | 32329 ft | 463 kts | 293° |
| 2026-05-06 06:18 | -28.75196 | 127.80427 | 32331 ft | 463 kts | 293° |
| 2026-05-06 06:19 | -28.72587 | 127.74026 | 32309 ft | 463 kts | 293° |
| 2026-05-06 06:19 | -28.69872 | 127.67378 | 32329 ft | 463 kts | 293° |
| 2026-05-06 06:20 | -28.67155 | 127.60735 | 32322 ft | 463 kts | 293° |
| 2026-05-06 06:20 | -28.64436 | 127.54098 | 32323 ft | 463 kts | 293° |
| 2026-05-06 06:21 | -28.61712 | 127.47461 | 32325 ft | 463 kts | 293° |
| 2026-05-06 06:21 | -28.58985 | 127.40826 | 32319 ft | 463 kts | 293° |
| 2026-05-06 06:22 | -28.56256 | 127.34199 | 32319 ft | 462 kts | 293° |
| 2026-05-06 06:22 | -28.53524 | 127.27575 | 32320 ft | 462 kts | 293° |
| 2026-05-06 06:23 | -28.50807 | 127.21001 | 32321 ft | 462 kts | 293° |
| 2026-05-06 06:23 | -28.48055 | 127.14352 | 32316 ft | 462 kts | 294° |
| 2026-05-06 06:24 | -28.45315 | 127.07743 | 32310 ft | 462 kts | 294° |
| 2026-05-06 06:24 | -28.42574 | 127.01141 | 32318 ft | 461 kts | 294° |
| 2026-05-06 06:25 | -28.40194 | 126.95421 | 32321 ft | 461 kts | 294° |
| 2026-05-06 06:26 | -28.36087 | 126.85565 | 32307 ft | 462 kts | 294° |
| 2026-05-06 06:26 | -28.33336 | 126.78978 | 32299 ft | 462 kts | 294° |
| 2026-05-06 06:27 | -28.30584 | 126.72399 | 32312 ft | 461 kts | 294° |
| 2026-05-06 06:27 | -28.27866 | 126.65912 | 32306 ft | 461 kts | 294° |
| 2026-05-06 06:28 | -28.25109 | 126.59343 | 32308 ft | 461 kts | 294° |
| 2026-05-06 06:28 | -28.22351 | 126.52784 | 32308 ft | 461 kts | 294° |
| 2026-05-06 06:29 | -28.19582 | 126.46208 | 32303 ft | 461 kts | 294° |
| 2026-05-06 06:29 | -28.16818 | 126.39653 | 32304 ft | 461 kts | 294° |
| 2026-05-06 06:30 | -28.14054 | 126.33111 | 32303 ft | 461 kts | 294° |
| 2026-05-06 06:30 | -28.11281 | 126.26558 | 32310 ft | 461 kts | 294° |
| 2026-05-06 06:31 | -28.08509 | 126.20017 | 32303 ft | 461 kts | 294° |
| 2026-05-06 06:31 | -28.05733 | 126.13477 | 32307 ft | 461 kts | 294° |
| 2026-05-06 06:32 | -28.02949 | 126.06929 | 32300 ft | 461 kts | 294° |
| 2026-05-06 06:32 | -28.00158 | 126.00375 | 32305 ft | 461 kts | 294° |
| 2026-05-06 06:33 | -27.97270 | 125.93892 | 32297 ft | 462 kts | 295° |
| 2026-05-06 06:33 | -27.94287 | 125.87451 | 32303 ft | 462 kts | 295° |
| 2026-05-06 06:34 | -27.91332 | 125.81069 | 32285 ft | 462 kts | 295° |
| 2026-05-06 06:34 | -27.88360 | 125.74619 | 32304 ft | 462 kts | 295° |
| 2026-05-06 06:35 | -27.85401 | 125.68188 | 32292 ft | 462 kts | 295° |
| 2026-05-06 06:35 | -27.82435 | 125.61750 | 32296 ft | 462 kts | 295° |
| 2026-05-06 06:36 | -27.79470 | 125.55322 | 32285 ft | 462 kts | 295° |
| 2026-05-06 06:36 | -27.76499 | 125.48895 | 32289 ft | 462 kts | 295° |
| 2026-05-06 06:37 | -27.73520 | 125.42460 | 32288 ft | 462 kts | 295° |
| 2026-05-06 06:37 | -27.70542 | 125.36036 | 32291 ft | 462 kts | 295° |
| 2026-05-06 06:38 | -27.67564 | 125.29622 | 32288 ft | 462 kts | 295° |
| 2026-05-06 06:38 | -27.64574 | 125.23194 | 32288 ft | 462 kts | 295° |
| 2026-05-06 06:39 | -27.61587 | 125.16781 | 32274 ft | 462 kts | 295° |
| 2026-05-06 06:39 | -27.58597 | 125.10372 | 32287 ft | 462 kts | 295° |
| 2026-05-06 06:40 | -27.55625 | 125.04010 | 32292 ft | 462 kts | 295° |
| 2026-05-06 06:40 | -27.52632 | 124.97613 | 32283 ft | 462 kts | 295° |
| 2026-05-06 06:41 | -27.49632 | 124.91212 | 32286 ft | 462 kts | 295° |
| 2026-05-06 06:41 | -27.46624 | 124.84803 | 32277 ft | 462 kts | 295° |
| 2026-05-06 06:42 | -27.43620 | 124.78412 | 32279 ft | 462 kts | 295° |
| 2026-05-06 06:42 | -27.40609 | 124.72017 | 32281 ft | 462 kts | 295° |
| 2026-05-06 06:43 | -27.37596 | 124.65626 | 32280 ft | 462 kts | 295° |
| 2026-05-06 06:43 | -27.34625 | 124.59333 | 32275 ft | 462 kts | 295° |
| 2026-05-06 06:44 | -27.31606 | 124.52948 | 32275 ft | 462 kts | 295° |
| 2026-05-06 06:44 | -27.28583 | 124.46565 | 32274 ft | 462 kts | 296° |
| 2026-05-06 06:45 | -27.25557 | 124.40187 | 32270 ft | 462 kts | 296° |
| 2026-05-06 06:45 | -27.22529 | 124.33812 | 32274 ft | 462 kts | 296° |
| 2026-05-06 06:46 | -27.19500 | 124.27445 | 32270 ft | 462 kts | 296° |
| 2026-05-06 06:46 | -27.16464 | 124.21072 | 32265 ft | 462 kts | 296° |
| 2026-05-06 06:47 | -27.13446 | 124.14749 | 32264 ft | 462 kts | 296° |
| 2026-05-06 06:47 | -27.10408 | 124.08391 | 32264 ft | 462 kts | 296° |
| 2026-05-06 06:48 | -27.07364 | 124.02029 | 32268 ft | 463 kts | 296° |
| 2026-05-06 06:48 | -27.04315 | 123.95669 | 32258 ft | 463 kts | 296° |
| 2026-05-06 06:49 | -27.01267 | 123.89319 | 32259 ft | 463 kts | 296° |
| 2026-05-06 06:49 | -26.98207 | 123.82953 | 32239 ft | 463 kts | 296° |
| 2026-05-06 06:50 | -26.95154 | 123.76611 | 32248 ft | 463 kts | 296° |
| 2026-05-06 06:50 | -26.92092 | 123.70259 | 32250 ft | 463 kts | 296° |
| 2026-05-06 06:51 | -26.89029 | 123.63917 | 32261 ft | 463 kts | 296° |
| 2026-05-06 06:51 | -26.85957 | 123.57563 | 32247 ft | 463 kts | 296° |
| 2026-05-06 06:52 | -26.82884 | 123.51217 | 32228 ft | 463 kts | 296° |
| 2026-05-06 06:52 | -26.79811 | 123.44881 | 32243 ft | 463 kts | 296° |
| 2026-05-06 06:53 | -26.76737 | 123.38551 | 32234 ft | 463 kts | 296° |
| 2026-05-06 06:53 | -26.73658 | 123.32220 | 32257 ft | 463 kts | 296° |
| 2026-05-06 06:54 | -26.70574 | 123.25888 | 32231 ft | 463 kts | 296° |
| 2026-05-06 06:54 | -26.67489 | 123.19564 | 32239 ft | 463 kts | 296° |
| 2026-05-06 06:55 | -26.64402 | 123.13244 | 32242 ft | 463 kts | 296° |
| 2026-05-06 06:55 | -26.61330 | 123.06966 | 32226 ft | 463 kts | 296° |
| 2026-05-06 06:56 | -26.58239 | 123.00657 | 32241 ft | 463 kts | 296° |
| 2026-05-06 06:56 | -26.55146 | 122.94351 | 32246 ft | 463 kts | 296° |
| 2026-05-06 06:57 | -26.52042 | 122.88033 | 32245 ft | 464 kts | 296° |
| 2026-05-06 06:57 | -26.48937 | 122.81724 | 32243 ft | 464 kts | 296° |
| 2026-05-06 06:58 | -26.46335 | 122.76441 | 32217 ft | 464 kts | 296° |
| 2026-05-06 06:58 | -26.43244 | 122.70177 | 32235 ft | 464 kts | 296° |
| 2026-05-06 06:59 | -26.40126 | 122.63864 | 32237 ft | 464 kts | 297° |
| 2026-05-06 06:59 | -26.37013 | 122.57571 | 32212 ft | 464 kts | 297° |
| 2026-05-06 07:00 | -26.33895 | 122.51277 | 32232 ft | 464 kts | 297° |
| 2026-05-06 07:00 | -26.30764 | 122.44968 | 32226 ft | 464 kts | 297° |
| 2026-05-06 07:01 | -26.27637 | 122.38673 | 32225 ft | 464 kts | 297° |
| 2026-05-06 07:01 | -26.24509 | 122.32387 | 32217 ft | 465 kts | 297° |
| 2026-05-06 07:02 | -26.21369 | 122.26085 | 32218 ft | 465 kts | 297° |
| 2026-05-06 07:02 | -26.18228 | 122.19790 | 32213 ft | 465 kts | 297° |
| 2026-05-06 07:03 | -26.15090 | 122.13509 | 32203 ft | 465 kts | 297° |
| 2026-05-06 07:03 | -26.11942 | 122.07218 | 32206 ft | 465 kts | 297° |
| 2026-05-06 07:04 | -26.08792 | 122.00930 | 32210 ft | 465 kts | 297° |
| 2026-05-06 07:04 | -26.05723 | 121.94815 | 32212 ft | 465 kts | 297° |
| 2026-05-06 07:05 | -26.02524 | 121.88447 | 32205 ft | 465 kts | 297° |
| 2026-05-06 07:05 | -25.99384 | 121.82207 | 32207 ft | 466 kts | 297° |
| 2026-05-06 07:06 | -25.96219 | 121.75926 | 32196 ft | 466 kts | 297° |
| 2026-05-06 07:06 | -25.93054 | 121.69652 | 32205 ft | 466 kts | 297° |
| 2026-05-06 07:07 | -25.89887 | 121.63385 | 32197 ft | 466 kts | 297° |
| 2026-05-06 07:07 | -25.86714 | 121.57113 | 32195 ft | 466 kts | 297° |
| 2026-05-06 07:08 | -25.83540 | 121.50849 | 32186 ft | 466 kts | 297° |
| 2026-05-06 07:08 | -25.80359 | 121.44580 | 32191 ft | 466 kts | 297° |
| 2026-05-06 07:09 | -25.77172 | 121.38308 | 32190 ft | 465 kts | 297° |
| 2026-05-06 07:09 | -25.73996 | 121.32064 | 32185 ft | 465 kts | 297° |
| 2026-05-06 07:10 | -25.70813 | 121.25816 | 32190 ft | 465 kts | 297° |
| 2026-05-06 07:10 | -25.67632 | 121.19582 | 32184 ft | 465 kts | 297° |
| 2026-05-06 07:11 | -25.64462 | 121.13377 | 32182 ft | 465 kts | 297° |
| 2026-05-06 07:11 | -25.61256 | 121.07109 | 32170 ft | 465 kts | 297° |
| 2026-05-06 07:12 | -25.58078 | 121.00906 | 32177 ft | 465 kts | 297° |
| 2026-05-06 07:12 | -25.54881 | 120.94672 | 32176 ft | 465 kts | 297° |
| 2026-05-06 07:13 | -25.51683 | 120.88445 | 32173 ft | 466 kts | 297° |
| 2026-05-06 07:13 | -25.48472 | 120.82204 | 32168 ft | 466 kts | 297° |
| 2026-05-06 07:14 | -25.45265 | 120.75976 | 32164 ft | 466 kts | 297° |
| 2026-05-06 07:14 | -25.42050 | 120.69744 | 32157 ft | 466 kts | 297° |
| 2026-05-06 07:15 | -25.38837 | 120.63522 | 32163 ft | 466 kts | 297° |
| 2026-05-06 07:15 | -25.35619 | 120.57297 | 32157 ft | 466 kts | 297° |
| 2026-05-06 07:16 | -25.32408 | 120.51098 | 32153 ft | 466 kts | 297° |
| 2026-05-06 07:16 | -25.29184 | 120.44881 | 32152 ft | 465 kts | 297° |
| 2026-05-06 07:17 | -25.25964 | 120.38679 | 32155 ft | 466 kts | 297° |
| 2026-05-06 07:17 | -25.22744 | 120.32485 | 32140 ft | 465 kts | 297° |
| 2026-05-06 07:18 | -25.19514 | 120.26280 | 32151 ft | 465 kts | 297° |
| 2026-05-06 07:18 | -25.16287 | 120.20089 | 32141 ft | 466 kts | 297° |
| 2026-05-06 07:19 | -25.13052 | 120.13891 | 32142 ft | 466 kts | 297° |
| 2026-05-06 07:19 | -25.09817 | 120.07701 | 32135 ft | 466 kts | 297° |
| 2026-05-06 07:20 | -25.06595 | 120.01544 | 32136 ft | 466 kts | 297° |
| 2026-05-06 07:20 | -25.03329 | 119.95311 | 32134 ft | 466 kts | 297° |
| 2026-05-06 07:21 | -25.00078 | 119.89115 | 32136 ft | 466 kts | 297° |
| 2026-05-06 07:21 | -24.96812 | 119.82897 | 32134 ft | 466 kts | 297° |
| 2026-05-06 07:22 | -24.93583 | 119.76759 | 32129 ft | 466 kts | 297° |
| 2026-05-06 07:22 | -24.89972 | 119.70820 | 32143 ft | 469 kts | 303° |
| 2026-05-06 07:23 | -24.86062 | 119.65073 | 32108 ft | 469 kts | 303° |
| 2026-05-06 07:23 | -24.82162 | 119.59322 | 32127 ft | 468 kts | 303° |
| 2026-05-06 07:24 | -24.78278 | 119.53568 | 32128 ft | 468 kts | 303° |
| 2026-05-06 07:24 | -24.74396 | 119.47811 | 32123 ft | 468 kts | 303° |
| 2026-05-06 07:25 | -24.70510 | 119.42053 | 32106 ft | 468 kts | 303° |
| 2026-05-06 07:25 | -24.66629 | 119.36310 | 32101 ft | 468 kts | 303° |
| 2026-05-06 07:26 | -24.62741 | 119.30565 | 32116 ft | 468 kts | 303° |
| 2026-05-06 07:26 | -24.58849 | 119.24823 | 32112 ft | 468 kts | 303° |
| 2026-05-06 07:27 | -24.54953 | 119.19080 | 32116 ft | 468 kts | 303° |
| 2026-05-06 07:27 | -24.51060 | 119.13348 | 32102 ft | 469 kts | 303° |
| 2026-05-06 07:28 | -24.47164 | 119.07618 | 32106 ft | 469 kts | 303° |
| 2026-05-06 07:28 | -24.41314 | 118.99027 | 32095 ft | 468 kts | 303° |
| 2026-05-06 07:29 | -24.37413 | 118.93307 | 32094 ft | 468 kts | 303° |
| 2026-05-06 07:29 | -24.33532 | 118.87623 | 32086 ft | 468 kts | 303° |
| 2026-05-06 07:30 | -24.29625 | 118.81908 | 32085 ft | 468 kts | 303° |
| 2026-05-06 07:30 | -24.25704 | 118.76178 | 32078 ft | 468 kts | 303° |
| 2026-05-06 07:31 | -24.21803 | 118.70484 | 32067 ft | 468 kts | 303° |
| 2026-05-06 07:31 | -24.17894 | 118.64786 | 32069 ft | 467 kts | 303° |
| 2026-05-06 07:32 | -24.13991 | 118.59103 | 32072 ft | 467 kts | 303° |
| 2026-05-06 07:32 | -24.10088 | 118.53425 | 32067 ft | 467 kts | 303° |
| 2026-05-06 07:33 | -24.06176 | 118.47741 | 32073 ft | 467 kts | 303° |
| 2026-05-06 07:33 | -24.02262 | 118.42061 | 32068 ft | 467 kts | 303° |
| 2026-05-06 07:34 | -23.98350 | 118.36392 | 32053 ft | 467 kts | 303° |
| 2026-05-06 07:34 | -23.94436 | 118.30726 | 32063 ft | 467 kts | 303° |
| 2026-05-06 07:35 | -23.90521 | 118.25064 | 32058 ft | 467 kts | 303° |
| 2026-05-06 07:35 | -23.86605 | 118.19406 | 32055 ft | 467 kts | 303° |
| 2026-05-06 07:36 | -23.82680 | 118.13741 | 32050 ft | 467 kts | 303° |
| 2026-05-06 07:36 | -23.78755 | 118.08086 | 32043 ft | 467 kts | 303° |
| 2026-05-06 07:37 | -23.74865 | 118.02486 | 32040 ft | 466 kts | 303° |
| 2026-05-06 07:37 | -23.70943 | 117.96846 | 32049 ft | 466 kts | 303° |
| 2026-05-06 07:38 | -23.67022 | 117.91214 | 32045 ft | 466 kts | 303° |
| 2026-05-06 07:38 | -23.63096 | 117.85581 | 32039 ft | 466 kts | 303° |
| 2026-05-06 07:39 | -23.59178 | 117.79964 | 32040 ft | 466 kts | 303° |
| 2026-05-06 07:39 | -23.55259 | 117.74354 | 32029 ft | 465 kts | 302° |
| 2026-05-06 07:40 | -23.51346 | 117.68760 | 32037 ft | 463 kts | 302° |
| 2026-05-06 07:40 | -23.47441 | 117.63181 | 32027 ft | 462 kts | 302° |
| 2026-05-06 07:41 | -23.43541 | 117.57616 | 32024 ft | 462 kts | 302° |
| 2026-05-06 07:41 | -23.39643 | 117.52060 | 32028 ft | 462 kts | 302° |
| 2026-05-06 07:42 | -23.35745 | 117.46509 | 32023 ft | 462 kts | 302° |
| 2026-05-06 07:42 | -23.32500 | 117.41894 | 32019 ft | 461 kts | 302° |
| 2026-05-06 07:43 | -23.28603 | 117.36356 | 32017 ft | 461 kts | 302° |
| 2026-05-06 07:43 | -23.24710 | 117.30830 | 32018 ft | 461 kts | 302° |
| 2026-05-06 07:44 | -23.20810 | 117.25301 | 32020 ft | 461 kts | 302° |
| 2026-05-06 07:44 | -23.16912 | 117.19779 | 32014 ft | 461 kts | 302° |
| 2026-05-06 07:45 | -23.13011 | 117.14260 | 32010 ft | 461 kts | 302° |
| 2026-05-06 07:45 | -23.09119 | 117.08761 | 32001 ft | 459 kts | 301° |
| 2026-05-06 07:46 | -23.05231 | 117.03273 | 32025 ft | 459 kts | 301° |
| 2026-05-06 07:46 | -23.01339 | 116.97783 | 32001 ft | 458 kts | 301° |
| 2026-05-06 07:47 | -22.97456 | 116.92311 | 32002 ft | 458 kts | 301° |
| 2026-05-06 07:47 | -22.93565 | 116.86835 | 31998 ft | 458 kts | 301° |
| 2026-05-06 07:48 | -22.89697 | 116.81397 | 31971 ft | 458 kts | 301° |
| 2026-05-06 07:48 | -22.85808 | 116.75936 | 31997 ft | 457 kts | 301° |
| 2026-05-06 07:49 | -22.81928 | 116.70493 | 32001 ft | 456 kts | 301° |
| 2026-05-06 07:49 | -22.78042 | 116.65046 | 31998 ft | 456 kts | 301° |
| 2026-05-06 07:50 | -22.74161 | 116.59613 | 31998 ft | 456 kts | 301° |
| 2026-05-06 07:50 | -22.70275 | 116.54179 | 31997 ft | 456 kts | 301° |
| 2026-05-06 07:51 | -22.66385 | 116.48743 | 31985 ft | 457 kts | 301° |
| 2026-05-06 07:51 | -22.62491 | 116.43310 | 31983 ft | 456 kts | 301° |
| 2026-05-06 07:52 | -22.58605 | 116.37891 | 31990 ft | 456 kts | 301° |
| 2026-05-06 07:52 | -22.54716 | 116.32475 | 31988 ft | 456 kts | 301° |
| 2026-05-06 07:53 | -22.50830 | 116.27069 | 31990 ft | 455 kts | 301° |
| 2026-05-06 07:53 | -22.46937 | 116.21657 | 31988 ft | 455 kts | 301° |
| 2026-05-06 07:54 | -22.43043 | 116.16252 | 31991 ft | 455 kts | 301° |
| 2026-05-06 07:54 | -22.39153 | 116.10856 | 31992 ft | 456 kts | 301° |
| 2026-05-06 07:55 | -22.35253 | 116.05451 | 31989 ft | 456 kts | 301° |
| 2026-05-06 07:55 | -22.31352 | 116.00051 | 31987 ft | 456 kts | 301° |
| 2026-05-06 07:56 | -22.27476 | 115.94692 | 31976 ft | 456 kts | 301° |
| 2026-05-06 07:56 | -22.23571 | 115.89297 | 31973 ft | 456 kts | 301° |
| 2026-05-06 07:57 | -22.19669 | 115.83913 | 31987 ft | 455 kts | 301° |
| 2026-05-06 07:57 | -22.15765 | 115.78530 | 31982 ft | 455 kts | 301° |
| 2026-05-06 07:58 | -22.11860 | 115.73152 | 31979 ft | 456 kts | 301° |
| 2026-05-06 07:58 | -22.07947 | 115.67769 | 31974 ft | 456 kts | 301° |
| 2026-05-06 07:59 | -22.04032 | 115.62387 | 31991 ft | 456 kts | 301° |
| 2026-05-06 07:59 | -22.00120 | 115.57016 | 31990 ft | 456 kts | 301° |
| 2026-05-06 08:00 | -21.96202 | 115.51641 | 31991 ft | 456 kts | 301° |
| 2026-05-06 08:00 | -21.92278 | 115.46265 | 31984 ft | 455 kts | 301° |
| 2026-05-06 08:01 | -21.88365 | 115.40909 | 31984 ft | 455 kts | 301° |
| 2026-05-06 08:01 | -21.84456 | 115.35561 | 31986 ft | 455 kts | 301° |
| 2026-05-06 08:02 | -21.80539 | 115.30210 | 31982 ft | 455 kts | 301° |
| 2026-05-06 08:02 | -21.76650 | 115.24900 | 31990 ft | 455 kts | 301° |
| 2026-05-06 08:03 | -21.72733 | 115.19557 | 31989 ft | 455 kts | 301° |
| 2026-05-06 08:03 | -21.68816 | 115.14219 | 31986 ft | 454 kts | 301° |
| 2026-05-06 08:04 | -21.64790 | 115.08966 | 31994 ft | 457 kts | 304° |
| 2026-05-06 08:04 | -21.60532 | 115.03873 | 31991 ft | 458 kts | 304° |
| 2026-05-06 08:05 | -21.56266 | 114.98798 | 31986 ft | 458 kts | 304° |
| 2026-05-06 08:05 | -21.52007 | 114.93717 | 31995 ft | 457 kts | 304° |
| 2026-05-06 08:06 | -21.47759 | 114.88638 | 31997 ft | 457 kts | 304° |
| 2026-05-06 08:06 | -21.43513 | 114.83562 | 31993 ft | 456 kts | 303° |
| 2026-05-06 08:07 | -21.39276 | 114.78502 | 31992 ft | 456 kts | 303° |
| 2026-05-06 08:07 | -21.35031 | 114.73439 | 32000 ft | 456 kts | 303° |
| 2026-05-06 08:08 | -21.30784 | 114.68376 | 32000 ft | 456 kts | 303° |
| 2026-05-06 08:08 | -21.26547 | 114.63331 | 32005 ft | 456 kts | 303° |
| 2026-05-06 08:09 | -21.22297 | 114.58275 | 32005 ft | 456 kts | 303° |
| 2026-05-06 08:09 | -21.18044 | 114.53223 | 32006 ft | 456 kts | 303° |
| 2026-05-06 08:10 | -21.13802 | 114.48185 | 32002 ft | 456 kts | 303° |
| 2026-05-06 08:10 | -21.09580 | 114.43176 | 32008 ft | 455 kts | 303° |
| 2026-05-06 08:11 | -21.05309 | 114.38114 | 32002 ft | 456 kts | 303° |
| 2026-05-06 08:11 | -21.01053 | 114.33074 | 32009 ft | 456 kts | 303° |
| 2026-05-06 08:12 | -20.96833 | 114.28082 | 32007 ft | 456 kts | 303° |
| 2026-05-06 08:12 | -20.92629 | 114.23115 | 32013 ft | 455 kts | 303° |
| 2026-05-06 08:13 | -20.88375 | 114.18091 | 32006 ft | 456 kts | 303° |
| 2026-05-06 08:13 | -20.84118 | 114.13068 | 32017 ft | 456 kts | 303° |
| 2026-05-06 08:14 | -20.79859 | 114.08048 | 32008 ft | 456 kts | 303° |
| 2026-05-06 08:14 | -20.75593 | 114.03024 | 32005 ft | 456 kts | 303° |
| 2026-05-06 08:15 | -20.71321 | 113.97999 | 32013 ft | 457 kts | 303° |
| 2026-05-06 08:15 | -20.67049 | 113.92978 | 31990 ft | 456 kts | 303° |
| 2026-05-06 08:16 | -20.62782 | 113.87967 | 31996 ft | 456 kts | 303° |
| 2026-05-06 08:16 | -20.58513 | 113.82958 | 32006 ft | 456 kts | 303° |
| 2026-05-06 08:17 | -20.54237 | 113.77944 | 32005 ft | 456 kts | 303° |
| 2026-05-06 08:17 | -20.49970 | 113.72946 | 32002 ft | 456 kts | 303° |
| 2026-05-06 08:18 | -20.45691 | 113.67938 | 32005 ft | 456 kts | 303° |
| 2026-05-06 08:18 | -20.41409 | 113.62932 | 31983 ft | 456 kts | 303° |
| 2026-05-06 08:19 | -20.37160 | 113.57969 | 32000 ft | 457 kts | 303° |
| 2026-05-06 08:19 | -20.32869 | 113.52960 | 32003 ft | 457 kts | 303° |
| 2026-05-06 08:20 | -20.28581 | 113.47959 | 32002 ft | 458 kts | 303° |
| 2026-05-06 08:20 | -20.24276 | 113.42944 | 32003 ft | 458 kts | 303° |
| 2026-05-06 08:21 | -20.19965 | 113.37926 | 32003 ft | 459 kts | 303° |
| 2026-05-06 08:21 | -20.15659 | 113.32920 | 31962 ft | 459 kts | 303° |
| 2026-05-06 08:22 | -20.11346 | 113.27908 | 31990 ft | 459 kts | 303° |
| 2026-05-06 08:22 | -20.07028 | 113.22895 | 31999 ft | 460 kts | 303° |
| 2026-05-06 08:23 | -20.02695 | 113.17869 | 31997 ft | 461 kts | 303° |
| 2026-05-06 08:23 | -19.98362 | 113.12847 | 31997 ft | 461 kts | 303° |
| 2026-05-06 08:24 | -19.94023 | 113.07824 | 31991 ft | 461 kts | 303° |
| 2026-05-06 08:24 | -19.89714 | 113.02839 | 31995 ft | 461 kts | 303° |
| 2026-05-06 08:25 | -19.85370 | 112.97818 | 31994 ft | 461 kts | 303° |
| 2026-05-06 08:25 | -19.81018 | 112.92793 | 31995 ft | 461 kts | 303° |
| 2026-05-06 08:26 | -19.76680 | 112.87787 | 31995 ft | 461 kts | 303° |
| 2026-05-06 08:26 | -19.72329 | 112.82770 | 31991 ft | 461 kts | 303° |
| 2026-05-06 08:27 | -19.67983 | 112.77764 | 31987 ft | 461 kts | 303° |
| 2026-05-06 08:27 | -19.63636 | 112.72761 | 31988 ft | 461 kts | 303° |
| 2026-05-06 08:28 | -19.59292 | 112.67766 | 31984 ft | 462 kts | 303° |
| 2026-05-06 08:28 | -19.54928 | 112.62752 | 31996 ft | 463 kts | 304° |
| 2026-05-06 08:29 | -19.50588 | 112.57769 | 31994 ft | 464 kts | 304° |
| 2026-05-06 08:29 | -19.46181 | 112.52714 | 31989 ft | 465 kts | 304° |
| 2026-05-06 08:30 | -19.41815 | 112.47712 | 31989 ft | 465 kts | 304° |
| 2026-05-06 08:30 | -19.37427 | 112.42688 | 31990 ft | 465 kts | 304° |
| 2026-05-06 08:31 | -19.33031 | 112.37660 | 31983 ft | 465 kts | 304° |
| 2026-05-06 08:31 | -19.28637 | 112.32636 | 31989 ft | 466 kts | 304° |
| 2026-05-06 08:32 | -19.24941 | 112.28414 | 31991 ft | 467 kts | 304° |
| 2026-05-06 08:32 | -19.20519 | 112.23368 | 31989 ft | 467 kts | 304° |
| 2026-05-06 08:33 | -19.16103 | 112.18332 | 31987 ft | 467 kts | 304° |
| 2026-05-06 08:33 | -19.11676 | 112.13288 | 31986 ft | 467 kts | 304° |
| 2026-05-06 08:34 | -19.05036 | 112.05729 | 31977 ft | 467 kts | 304° |
| 2026-05-06 08:35 | -19.00626 | 112.00714 | 31988 ft | 468 kts | 304° |
| 2026-05-06 08:35 | -18.96275 | 111.95617 | 31990 ft | 466 kts | 303° |
| 2026-05-06 08:35 | -18.94174 | 111.93075 | 32097 ft | 464 kts | 302° |
| 2026-05-06 08:36 | -18.92058 | 111.90505 | 32222 ft | 464 kts | 302° |
| 2026-05-06 08:36 | -18.89944 | 111.87939 | 32337 ft | 464 kts | 303° |
| 2026-05-06 08:36 | -18.87824 | 111.85374 | 32456 ft | 464 kts | 303° |
| 2026-05-06 08:36 | -18.85694 | 111.82806 | 32574 ft | 464 kts | 303° |
| 2026-05-06 08:37 | -18.83563 | 111.80243 | 32696 ft | 464 kts | 303° |
| 2026-05-06 08:37 | -18.81431 | 111.77684 | 32819 ft | 464 kts | 303° |
| 2026-05-06 08:37 | -18.79299 | 111.75126 | 32896 ft | 464 kts | 303° |
| 2026-05-06 08:37 | -18.77169 | 111.72572 | 33040 ft | 465 kts | 303° |
| 2026-05-06 08:38 | -18.75026 | 111.70005 | 33145 ft | 465 kts | 303° |
| 2026-05-06 08:38 | -18.72894 | 111.67450 | 33252 ft | 465 kts | 303° |
| 2026-05-06 08:38 | -18.70757 | 111.64891 | 33400 ft | 465 kts | 303° |
| 2026-05-06 08:38 | -18.68625 | 111.62339 | 33507 ft | 465 kts | 303° |
| 2026-05-06 08:39 | -18.66480 | 111.59772 | 33617 ft | 465 kts | 303° |
| 2026-05-06 08:39 | -18.64345 | 111.57219 | 33766 ft | 464 kts | 303° |
| 2026-05-06 08:39 | -18.62210 | 111.54666 | 33863 ft | 464 kts | 303° |
| 2026-05-06 08:40 | -18.57946 | 111.49571 | 33955 ft | 462 kts | 303° |
| 2026-05-06 08:40 | -18.53687 | 111.44486 | 33972 ft | 462 kts | 303° |
| 2026-05-06 08:41 | -18.49435 | 111.39412 | 33972 ft | 462 kts | 304° |
| 2026-05-06 08:41 | -18.45176 | 111.34334 | 33977 ft | 463 kts | 304° |
| 2026-05-06 08:42 | -18.40916 | 111.29260 | 33976 ft | 463 kts | 304° |
| 2026-05-06 08:42 | -18.36642 | 111.24172 | 33976 ft | 464 kts | 304° |
| 2026-05-06 08:43 | -18.32365 | 111.19084 | 33973 ft | 464 kts | 304° |
| 2026-05-06 08:43 | -18.28118 | 111.14037 | 33976 ft | 464 kts | 304° |
| 2026-05-06 08:44 | -18.23846 | 111.08938 | 33951 ft | 463 kts | 304° |
| 2026-05-06 08:44 | -18.19643 | 111.03814 | 33972 ft | 463 kts | 304° |
| 2026-05-06 08:45 | -18.15447 | 110.98681 | 33974 ft | 463 kts | 304° |
| 2026-05-06 08:45 | -18.11243 | 110.93552 | 33973 ft | 463 kts | 304° |
| 2026-05-06 08:46 | -18.07026 | 110.88422 | 33967 ft | 464 kts | 304° |
| 2026-05-06 08:46 | -18.02817 | 110.83308 | 33971 ft | 464 kts | 304° |
| 2026-05-06 08:47 | -17.98600 | 110.78188 | 33972 ft | 464 kts | 304° |
| 2026-05-06 08:47 | -17.94368 | 110.73053 | 33954 ft | 464 kts | 304° |
| 2026-05-06 08:48 | -17.90147 | 110.67936 | 33972 ft | 464 kts | 304° |
| 2026-05-06 08:48 | -17.85946 | 110.62847 | 33969 ft | 464 kts | 304° |
| 2026-05-06 08:49 | -17.81690 | 110.57696 | 33968 ft | 465 kts | 304° |
| 2026-05-06 08:49 | -17.77480 | 110.52604 | 33969 ft | 465 kts | 304° |
| 2026-05-06 08:50 | -17.73236 | 110.47475 | 33963 ft | 465 kts | 304° |
| 2026-05-06 08:50 | -17.68992 | 110.42351 | 33964 ft | 465 kts | 304° |
| 2026-05-06 08:51 | -17.64751 | 110.37232 | 33957 ft | 465 kts | 304° |
| 2026-05-06 08:51 | -17.60507 | 110.32116 | 33957 ft | 465 kts | 304° |
| 2026-05-06 08:52 | -17.56263 | 110.27003 | 33962 ft | 465 kts | 304° |
| 2026-05-06 08:52 | -17.52003 | 110.21875 | 33968 ft | 466 kts | 304° |
| 2026-05-06 08:53 | -17.47747 | 110.16756 | 33959 ft | 466 kts | 304° |
| 2026-05-06 08:53 | -17.43496 | 110.11647 | 33957 ft | 466 kts | 305° |
| 2026-05-06 08:54 | -17.39236 | 110.06530 | 33959 ft | 466 kts | 305° |
| 2026-05-06 08:54 | -17.34976 | 110.01418 | 33968 ft | 466 kts | 305° |
| 2026-05-06 08:55 | -17.30708 | 109.96300 | 33963 ft | 467 kts | 305° |
| 2026-05-06 08:55 | -17.26436 | 109.91181 | 33964 ft | 467 kts | 305° |
| 2026-05-06 08:56 | -17.22156 | 109.86056 | 33953 ft | 467 kts | 305° |
| 2026-05-06 08:56 | -17.17908 | 109.80974 | 33965 ft | 467 kts | 305° |
| 2026-05-06 08:57 | -17.13629 | 109.75859 | 33949 ft | 468 kts | 305° |
| 2026-05-06 08:57 | -17.09350 | 109.70747 | 33961 ft | 467 kts | 305° |
| 2026-05-06 08:58 | -17.05068 | 109.65636 | 33952 ft | 467 kts | 305° |
| 2026-05-06 08:58 | -17.00785 | 109.60528 | 33961 ft | 467 kts | 305° |
| 2026-05-06 08:59 | -16.96514 | 109.55436 | 33952 ft | 467 kts | 305° |
| 2026-05-06 08:59 | -16.92222 | 109.50325 | 33961 ft | 467 kts | 305° |
| 2026-05-06 09:00 | -16.87942 | 109.45231 | 33959 ft | 467 kts | 305° |
| 2026-05-06 09:00 | -16.83655 | 109.40133 | 33955 ft | 466 kts | 305° |
| 2026-05-06 09:01 | -16.79380 | 109.35051 | 33943 ft | 466 kts | 306° |
| 2026-05-06 09:01 | -16.75098 | 109.29966 | 33949 ft | 467 kts | 306° |
| 2026-05-06 09:02 | -16.70806 | 109.24871 | 33956 ft | 468 kts | 306° |
| 2026-05-06 09:02 | -16.66503 | 109.19769 | 33949 ft | 468 kts | 306° |
| 2026-05-06 09:03 | -16.62184 | 109.14676 | 33952 ft | 469 kts | 306° |
| 2026-05-06 09:03 | -16.57850 | 109.09582 | 33953 ft | 469 kts | 306° |
| 2026-05-06 09:04 | -16.53523 | 109.04497 | 33950 ft | 470 kts | 306° |
| 2026-05-06 09:04 | -16.49182 | 108.99396 | 33937 ft | 470 kts | 306° |
| 2026-05-06 09:05 | -16.44849 | 108.94306 | 33941 ft | 470 kts | 306° |
| 2026-05-06 09:05 | -16.40510 | 108.89213 | 33948 ft | 470 kts | 306° |
| 2026-05-06 09:06 | -16.36169 | 108.84122 | 33946 ft | 470 kts | 306° |
| 2026-05-06 09:06 | -16.31850 | 108.79059 | 33940 ft | 471 kts | 306° |
| 2026-05-06 09:07 | -16.27506 | 108.73972 | 33942 ft | 471 kts | 306° |
| 2026-05-06 09:07 | -16.23158 | 108.68884 | 33943 ft | 471 kts | 306° |
| 2026-05-06 09:08 | -16.18805 | 108.63793 | 33929 ft | 471 kts | 306° |
| 2026-05-06 09:08 | -16.14440 | 108.58692 | 33939 ft | 471 kts | 306° |
| 2026-05-06 09:09 | -16.10079 | 108.53598 | 33941 ft | 472 kts | 306° |
| 2026-05-06 09:09 | -16.05707 | 108.48497 | 33942 ft | 473 kts | 306° |
| 2026-05-06 09:10 | -16.01333 | 108.43396 | 33947 ft | 473 kts | 307° |
| 2026-05-06 09:10 | -15.96943 | 108.38280 | 33939 ft | 473 kts | 307° |
| 2026-05-06 09:11 | -15.92557 | 108.33174 | 33937 ft | 473 kts | 307° |
| 2026-05-06 09:11 | -15.88176 | 108.28076 | 33924 ft | 473 kts | 307° |
| 2026-05-06 09:12 | -15.83791 | 108.22977 | 33938 ft | 473 kts | 307° |
| 2026-05-06 09:12 | -15.79431 | 108.17910 | 33938 ft | 474 kts | 307° |
| 2026-05-06 09:13 | -15.75036 | 108.12806 | 33935 ft | 475 kts | 307° |
| 2026-05-06 09:13 | -15.70626 | 108.07689 | 33934 ft | 475 kts | 307° |
| 2026-05-06 09:14 | -15.66214 | 108.02574 | 33931 ft | 476 kts | 307° |
| 2026-05-06 09:14 | -15.61803 | 107.97462 | 33929 ft | 475 kts | 307° |
| 2026-05-06 09:15 | -15.57392 | 107.92355 | 33918 ft | 476 kts | 307° |
| 2026-05-06 09:15 | -15.52973 | 107.87241 | 33921 ft | 476 kts | 307° |
| 2026-05-06 09:16 | -15.48558 | 107.82137 | 33924 ft | 476 kts | 307° |
| 2026-05-06 09:16 | -15.44134 | 107.77025 | 33939 ft | 476 kts | 307° |
| 2026-05-06 09:17 | -15.39703 | 107.71907 | 33937 ft | 476 kts | 307° |
| 2026-05-06 09:17 | -15.35278 | 107.66801 | 33919 ft | 476 kts | 307° |
| 2026-05-06 09:18 | -15.30853 | 107.61700 | 33916 ft | 476 kts | 307° |
| 2026-05-06 09:18 | -15.26426 | 107.56598 | 33924 ft | 476 kts | 307° |
| 2026-05-06 09:19 | -15.22024 | 107.51528 | 33926 ft | 477 kts | 308° |
| 2026-05-06 09:19 | -15.18308 | 107.47251 | 33925 ft | 477 kts | 308° |
| 2026-05-06 09:20 | -15.13864 | 107.42140 | 33920 ft | 478 kts | 308° |
| 2026-05-06 09:20 | -15.08687 | 107.36190 | 33921 ft | 478 kts | 308° |
| 2026-05-06 09:21 | -15.04956 | 107.31905 | 33923 ft | 479 kts | 308° |
| 2026-05-06 09:21 | -15.00500 | 107.26791 | 33922 ft | 479 kts | 308° |
| 2026-05-06 09:22 | -14.96028 | 107.21661 | 33911 ft | 480 kts | 308° |
| 2026-05-06 09:22 | -14.91559 | 107.16538 | 33917 ft | 480 kts | 308° |
| 2026-05-06 09:23 | -14.87083 | 107.11412 | 33917 ft | 480 kts | 308° |
| 2026-05-06 09:23 | -14.82634 | 107.06319 | 33917 ft | 481 kts | 308° |
| 2026-05-06 09:24 | -14.78150 | 107.01189 | 33913 ft | 481 kts | 308° |
| 2026-05-06 09:24 | -14.73663 | 106.96060 | 33916 ft | 481 kts | 308° |
| 2026-05-06 09:25 | -14.69170 | 106.90927 | 33917 ft | 482 kts | 308° |
| 2026-05-06 09:25 | -14.64676 | 106.85796 | 33907 ft | 482 kts | 308° |
| 2026-05-06 09:26 | -14.60176 | 106.80661 | 33915 ft | 482 kts | 308° |
| 2026-05-06 09:26 | -14.55672 | 106.75526 | 33914 ft | 482 kts | 308° |
| 2026-05-06 09:27 | -14.51166 | 106.70393 | 33912 ft | 483 kts | 308° |
| 2026-05-06 09:27 | -14.46652 | 106.65251 | 33912 ft | 483 kts | 309° |
| 2026-05-06 09:28 | -14.42140 | 106.60117 | 33916 ft | 483 kts | 309° |
| 2026-05-06 09:28 | -14.37624 | 106.54982 | 33915 ft | 484 kts | 309° |
| 2026-05-06 09:29 | -14.33094 | 106.49834 | 33913 ft | 484 kts | 309° |
| 2026-05-06 09:29 | -14.28572 | 106.44698 | 33912 ft | 484 kts | 309° |
| 2026-05-06 09:30 | -14.24048 | 106.39563 | 33909 ft | 484 kts | 309° |
| 2026-05-06 09:30 | -14.19524 | 106.34432 | 33908 ft | 484 kts | 309° |
| 2026-05-06 09:31 | -14.15002 | 106.29306 | 33913 ft | 484 kts | 309° |
| 2026-05-06 09:31 | -14.10503 | 106.24210 | 33909 ft | 483 kts | 309° |
| 2026-05-06 09:32 | -14.05977 | 106.19086 | 33907 ft | 483 kts | 309° |
| 2026-05-06 09:32 | -14.01455 | 106.13970 | 33906 ft | 483 kts | 309° |
| 2026-05-06 09:33 | -13.96900 | 106.08820 | 33907 ft | 483 kts | 309° |
| 2026-05-06 09:33 | -13.92413 | 106.03749 | 33905 ft | 483 kts | 309° |
| 2026-05-06 09:34 | -13.87877 | 105.98627 | 33905 ft | 483 kts | 310° |
| 2026-05-06 09:34 | -13.83361 | 105.93530 | 33904 ft | 483 kts | 310° |
| 2026-05-06 09:35 | -13.78830 | 105.88421 | 33904 ft | 483 kts | 310° |
| 2026-05-06 09:35 | -13.74301 | 105.83316 | 33904 ft | 483 kts | 310° |
| 2026-05-06 09:36 | -13.69777 | 105.78219 | 33897 ft | 482 kts | 310° |
| 2026-05-06 09:36 | -13.65248 | 105.73121 | 33903 ft | 482 kts | 310° |
| 2026-05-06 09:37 | -13.60732 | 105.68040 | 33898 ft | 482 kts | 310° |
| 2026-05-06 09:37 | -13.56203 | 105.62948 | 33897 ft | 482 kts | 310° |
| 2026-05-06 09:38 | -13.51717 | 105.57907 | 33902 ft | 482 kts | 310° |
| 2026-05-06 09:38 | -13.47195 | 105.52828 | 33901 ft | 481 kts | 310° |
| 2026-05-06 09:39 | -13.42671 | 105.47751 | 33892 ft | 482 kts | 310° |
| 2026-05-06 09:39 | -13.38152 | 105.42681 | 33896 ft | 482 kts | 310° |
| 2026-05-06 09:40 | -13.33680 | 105.37668 | 33892 ft | 482 kts | 310° |
| 2026-05-06 09:40 | -13.26911 | 105.30085 | 33891 ft | 482 kts | 311° |
| 2026-05-06 09:41 | -13.22366 | 105.24998 | 33891 ft | 483 kts | 311° |
| 2026-05-06 09:41 | -13.17832 | 105.19926 | 33894 ft | 483 kts | 311° |
| 2026-05-06 09:42 | -13.13296 | 105.14853 | 33887 ft | 483 kts | 311° |
| 2026-05-06 09:42 | -13.08747 | 105.09770 | 33888 ft | 483 kts | 311° |
| 2026-05-06 09:43 | -13.04203 | 105.04694 | 33886 ft | 483 kts | 311° |
| 2026-05-06 09:43 | -12.99677 | 104.99593 | 33888 ft | 483 kts | 308° |
| 2026-05-06 09:44 | -12.95607 | 104.94128 | 33894 ft | 482 kts | 305° |
| 2026-05-06 09:44 | -12.91628 | 104.88656 | 33887 ft | 482 kts | 305° |
| 2026-05-06 09:45 | -12.87586 | 104.83130 | 33888 ft | 482 kts | 306° |
| 2026-05-06 09:45 | -12.83540 | 104.77628 | 33889 ft | 482 kts | 306° |
| 2026-05-06 09:46 | -12.79530 | 104.72187 | 33888 ft | 482 kts | 306° |
| 2026-05-06 09:46 | -12.75483 | 104.66700 | 33885 ft | 482 kts | 306° |
| 2026-05-06 09:47 | -12.71445 | 104.61226 | 33885 ft | 482 kts | 306° |
| 2026-05-06 09:47 | -12.67410 | 104.55758 | 33885 ft | 482 kts | 306° |
| 2026-05-06 09:48 | -12.63368 | 104.50285 | 33882 ft | 482 kts | 306° |
| 2026-05-06 09:48 | -12.59321 | 104.44808 | 33882 ft | 482 kts | 306° |
| 2026-05-06 09:49 | -12.55276 | 104.39337 | 33882 ft | 482 kts | 306° |
| 2026-05-06 09:49 | -12.51234 | 104.33872 | 33883 ft | 482 kts | 306° |
| 2026-05-06 09:50 | -12.47185 | 104.28402 | 33883 ft | 482 kts | 306° |
| 2026-05-06 09:50 | -12.43144 | 104.22946 | 33882 ft | 482 kts | 306° |
| 2026-05-06 09:51 | -12.39099 | 104.17489 | 33873 ft | 482 kts | 306° |
| 2026-05-06 09:51 | -12.35040 | 104.12014 | 33879 ft | 482 kts | 306° |
| 2026-05-06 09:52 | -12.31016 | 104.06591 | 33880 ft | 482 kts | 306° |
| 2026-05-06 09:52 | -12.26956 | 104.01121 | 33880 ft | 483 kts | 306° |
| 2026-05-06 09:53 | -12.22898 | 103.95658 | 33877 ft | 483 kts | 306° |
| 2026-05-06 09:53 | -12.18837 | 103.90193 | 33877 ft | 483 kts | 306° |
| 2026-05-06 09:54 | -12.14769 | 103.84723 | 33880 ft | 483 kts | 306° |
| 2026-05-06 09:54 | -12.10699 | 103.79254 | 33877 ft | 483 kts | 306° |
| 2026-05-06 09:55 | -12.06634 | 103.73792 | 33877 ft | 483 kts | 306° |
| 2026-05-06 09:55 | -12.02573 | 103.68342 | 33874 ft | 483 kts | 306° |
| 2026-05-06 09:56 | -11.98503 | 103.62880 | 33878 ft | 483 kts | 306° |
| 2026-05-06 09:56 | -11.94434 | 103.57425 | 33876 ft | 483 kts | 306° |
| 2026-05-06 09:57 | -11.90362 | 103.51967 | 33875 ft | 483 kts | 306° |
| 2026-05-06 09:57 | -11.86286 | 103.46506 | 33874 ft | 484 kts | 306° |
| 2026-05-06 09:58 | -11.82195 | 103.41030 | 33870 ft | 484 kts | 306° |
| 2026-05-06 09:58 | -11.78140 | 103.35605 | 33872 ft | 484 kts | 306° |
| 2026-05-06 09:59 | -11.74058 | 103.30147 | 33870 ft | 484 kts | 306° |
| 2026-05-06 09:59 | -11.69949 | 103.24655 | 33868 ft | 484 kts | 307° |
| 2026-05-06 10:00 | -11.65884 | 103.19224 | 33874 ft | 484 kts | 306° |
| 2026-05-06 10:00 | -11.61806 | 103.13780 | 33874 ft | 484 kts | 307° |
| 2026-05-06 10:01 | -11.57711 | 103.08316 | 33870 ft | 484 kts | 307° |
| 2026-05-06 10:01 | -11.53623 | 103.02864 | 33869 ft | 485 kts | 307° |
| 2026-05-06 10:02 | -11.49518 | 102.97392 | 33870 ft | 485 kts | 307° |
| 2026-05-06 10:02 | -11.45419 | 102.91932 | 33867 ft | 485 kts | 307° |
| 2026-05-06 10:03 | -11.41346 | 102.86509 | 33871 ft | 485 kts | 307° |
| 2026-05-06 10:03 | -11.37237 | 102.81041 | 33867 ft | 486 kts | 306° |
| 2026-05-06 10:04 | -11.33133 | 102.75584 | 33864 ft | 486 kts | 306° |
| 2026-05-06 10:04 | -11.29028 | 102.70126 | 33867 ft | 486 kts | 306° |
| 2026-05-06 10:05 | -11.24904 | 102.64647 | 33865 ft | 487 kts | 306° |
| 2026-05-06 10:05 | -11.20778 | 102.59168 | 33867 ft | 487 kts | 306° |
| 2026-05-06 10:06 | -11.16658 | 102.53700 | 33861 ft | 487 kts | 306° |
| 2026-05-06 10:06 | -11.13229 | 102.49150 | 33866 ft | 487 kts | 306° |
| 2026-05-06 10:07 | -11.08408 | 102.42759 | 33855 ft | 487 kts | 306° |
| 2026-05-06 10:07 | -11.04982 | 102.38219 | 33867 ft | 486 kts | 307° |
| 2026-05-06 10:08 | -11.00860 | 102.32759 | 33853 ft | 487 kts | 307° |
| 2026-05-06 10:08 | -10.96724 | 102.27283 | 33867 ft | 488 kts | 307° |
| 2026-05-06 10:09 | -10.92586 | 102.21807 | 33862 ft | 488 kts | 306° |
| 2026-05-06 10:09 | -10.88440 | 102.16325 | 33856 ft | 488 kts | 306° |
| 2026-05-06 10:10 | -10.84295 | 102.10846 | 33861 ft | 488 kts | 306° |
| 2026-05-06 10:10 | -10.80160 | 102.05382 | 33856 ft | 488 kts | 307° |
| 2026-05-06 10:11 | -10.76013 | 101.99906 | 33864 ft | 489 kts | 307° |
| 2026-05-06 10:11 | -10.71857 | 101.94422 | 33858 ft | 489 kts | 307° |
| 2026-05-06 10:12 | -10.67707 | 101.88947 | 33868 ft | 488 kts | 306° |
| 2026-05-06 10:12 | -10.63558 | 101.83476 | 33853 ft | 488 kts | 307° |
| 2026-05-06 10:13 | -10.59415 | 101.78016 | 33861 ft | 488 kts | 307° |
| 2026-05-06 10:13 | -10.55265 | 101.72550 | 33865 ft | 488 kts | 307° |
| 2026-05-06 10:14 | -10.51137 | 101.67115 | 33866 ft | 488 kts | 307° |
| 2026-05-06 10:14 | -10.46982 | 101.61648 | 33859 ft | 489 kts | 307° |
| 2026-05-06 10:15 | -10.42837 | 101.56196 | 33862 ft | 488 kts | 307° |
| 2026-05-06 10:15 | -10.38673 | 101.50722 | 33856 ft | 488 kts | 307° |
| 2026-05-06 10:16 | -10.34524 | 101.45270 | 33848 ft | 489 kts | 307° |
| 2026-05-06 10:16 | -10.30358 | 101.39799 | 33868 ft | 490 kts | 307° |
| 2026-05-06 10:17 | -10.26189 | 101.34326 | 33856 ft | 491 kts | 307° |
| 2026-05-06 10:17 | -10.22008 | 101.28840 | 33858 ft | 490 kts | 307° |
| 2026-05-06 10:18 | -10.17839 | 101.23373 | 33853 ft | 490 kts | 307° |
| 2026-05-06 10:18 | -10.13670 | 101.17907 | 33855 ft | 489 kts | 307° |
| 2026-05-06 10:19 | -10.09498 | 101.12441 | 33847 ft | 490 kts | 307° |
| 2026-05-06 10:19 | -10.05327 | 101.06977 | 33860 ft | 490 kts | 307° |
| 2026-05-06 10:20 | -10.01159 | 101.01520 | 33848 ft | 490 kts | 307° |
| 2026-05-06 10:20 | -9.97016 | 100.96030 | 33856 ft | 490 kts | 306° |
| 2026-05-06 10:21 | -9.92962 | 100.90526 | 33847 ft | 490 kts | 306° |
| 2026-05-06 10:21 | -9.88886 | 100.84980 | 33859 ft | 490 kts | 306° |
| 2026-05-06 10:22 | -9.84796 | 100.79439 | 33848 ft | 491 kts | 306° |
| 2026-05-06 10:22 | -9.80690 | 100.73888 | 33849 ft | 492 kts | 306° |
| 2026-05-06 10:23 | -9.76589 | 100.68349 | 33850 ft | 492 kts | 306° |
| 2026-05-06 10:23 | -9.72471 | 100.62789 | 33852 ft | 492 kts | 306° |
| 2026-05-06 10:24 | -9.68373 | 100.57259 | 33849 ft | 490 kts | 306° |
| 2026-05-06 10:24 | -9.64351 | 100.51833 | 33840 ft | 491 kts | 306° |
| 2026-05-06 10:25 | -9.60222 | 100.46265 | 33856 ft | 493 kts | 306° |
| 2026-05-06 10:25 | -9.56091 | 100.40697 | 33853 ft | 496 kts | 306° |
| 2026-05-06 10:26 | -9.51938 | 100.35103 | 33856 ft | 498 kts | 306° |
| 2026-05-06 10:26 | -9.47771 | 100.29492 | 33847 ft | 498 kts | 306° |
| 2026-05-06 10:27 | -9.43607 | 100.23888 | 33847 ft | 498 kts | 306° |
| 2026-05-06 10:27 | -9.39470 | 100.18322 | 33853 ft | 496 kts | 306° |
| 2026-05-06 10:28 | -9.35323 | 100.12746 | 33844 ft | 495 kts | 306° |
| 2026-05-06 10:28 | -9.31183 | 100.07181 | 33842 ft | 494 kts | 307° |
| 2026-05-06 10:29 | -9.27046 | 100.01624 | 33845 ft | 495 kts | 307° |
| 2026-05-06 10:29 | -9.22872 | 99.96018 | 33852 ft | 496 kts | 306° |
| 2026-05-06 10:30 | -9.18743 | 99.90476 | 33847 ft | 497 kts | 306° |
| 2026-05-06 10:30 | -9.14588 | 99.84900 | 33848 ft | 497 kts | 306° |
| 2026-05-06 10:31 | -9.10420 | 99.79310 | 33852 ft | 494 kts | 307° |
| 2026-05-06 10:31 | -9.06273 | 99.73751 | 33842 ft | 488 kts | 307° |
| 2026-05-06 10:32 | -9.02227 | 99.68329 | 33841 ft | 484 kts | 307° |
| 2026-05-06 10:32 | -8.98120 | 99.62829 | 33858 ft | 491 kts | 307° |
| 2026-05-06 10:33 | -8.94018 | 99.57335 | 33846 ft | 492 kts | 307° |
| 2026-05-06 10:33 | -8.89913 | 99.51842 | 33838 ft | 488 kts | 307° |
| 2026-05-06 10:34 | -8.85829 | 99.46379 | 33841 ft | 485 kts | 307° |
| 2026-05-06 10:34 | -8.81765 | 99.40945 | 33835 ft | 484 kts | 307° |
| 2026-05-06 10:35 | -8.77702 | 99.35515 | 33850 ft | 485 kts | 307° |
| 2026-05-06 10:35 | -8.73640 | 99.30088 | 33844 ft | 488 kts | 307° |
| 2026-05-06 10:36 | -8.69558 | 99.24635 | 33851 ft | 490 kts | 307° |
| 2026-05-06 10:36 | -8.65439 | 99.19137 | 33847 ft | 491 kts | 307° |
| 2026-05-06 10:37 | -8.61311 | 99.13628 | 33843 ft | 492 kts | 307° |
| 2026-05-06 10:37 | -8.57182 | 99.08121 | 33829 ft | 492 kts | 308° |
| 2026-05-06 10:38 | -8.53043 | 99.02602 | 33836 ft | 493 kts | 308° |
| 2026-05-06 10:38 | -8.48901 | 98.97082 | 33845 ft | 493 kts | 308° |
| 2026-05-06 10:39 | -8.44745 | 98.91545 | 33837 ft | 495 kts | 308° |
| 2026-05-06 10:39 | -8.40580 | 98.85998 | 33840 ft | 495 kts | 308° |
| 2026-05-06 10:40 | -8.36420 | 98.80460 | 33842 ft | 495 kts | 308° |
| 2026-05-06 10:40 | -8.32255 | 98.74919 | 33835 ft | 495 kts | 308° |
| 2026-05-06 10:41 | -8.28095 | 98.69385 | 33846 ft | 494 kts | 308° |
| 2026-05-06 10:41 | -8.23979 | 98.63912 | 33835 ft | 493 kts | 308° |
| 2026-05-06 10:42 | -8.19829 | 98.58397 | 33840 ft | 493 kts | 308° |
| 2026-05-06 10:42 | -8.15678 | 98.52882 | 33837 ft | 494 kts | 308° |
| 2026-05-06 10:43 | -8.11511 | 98.47348 | 33839 ft | 495 kts | 308° |
| 2026-05-06 10:44 | -8.05263 | 98.39053 | 33841 ft | 495 kts | 308° |
| 2026-05-06 10:44 | -8.01087 | 98.33514 | 33845 ft | 496 kts | 307° |
| 2026-05-06 10:45 | -7.96921 | 98.27988 | 33838 ft | 493 kts | 307° |
| 2026-05-06 10:45 | -7.92783 | 98.22502 | 33828 ft | 491 kts | 307° |
| 2026-05-06 10:46 | -7.88653 | 98.17028 | 33832 ft | 490 kts | 307° |
| 2026-05-06 10:46 | -7.84486 | 98.11508 | 33844 ft | 501 kts | 308° |
| 2026-05-06 10:47 | -7.80225 | 98.05866 | 33846 ft | 507 kts | 308° |
| 2026-05-06 10:47 | -7.75972 | 98.00235 | 33839 ft | 508 kts | 308° |
| 2026-05-06 10:48 | -7.71701 | 97.94584 | 33847 ft | 505 kts | 308° |
| 2026-05-06 10:48 | -7.67453 | 97.88964 | 33833 ft | 501 kts | 308° |
| 2026-05-06 10:49 | -7.63256 | 97.83414 | 33828 ft | 497 kts | 308° |
| 2026-05-06 10:49 | -7.59080 | 97.77894 | 33829 ft | 494 kts | 308° |
| 2026-05-06 10:50 | -7.54925 | 97.72404 | 33839 ft | 493 kts | 308° |
| 2026-05-06 10:50 | -7.50763 | 97.66907 | 33835 ft | 494 kts | 308° |
| 2026-05-06 10:51 | -7.46591 | 97.61397 | 33846 ft | 497 kts | 308° |
| 2026-05-06 10:51 | -7.42377 | 97.55835 | 33847 ft | 500 kts | 308° |
| 2026-05-06 10:52 | -7.38153 | 97.50261 | 33838 ft | 502 kts | 308° |
| 2026-05-06 10:52 | -7.33913 | 97.44670 | 33838 ft | 501 kts | 308° |
| 2026-05-06 10:53 | -7.29680 | 97.39087 | 33835 ft | 500 kts | 308° |
| 2026-05-06 10:53 | -7.26183 | 97.34477 | 33835 ft | 499 kts | 308° |
| 2026-05-06 10:54 | -7.21974 | 97.28931 | 33842 ft | 498 kts | 308° |
| 2026-05-06 10:54 | -7.17769 | 97.23393 | 33840 ft | 497 kts | 308° |
| 2026-05-06 10:55 | -7.13578 | 97.17873 | 33839 ft | 497 kts | 308° |
| 2026-05-06 10:55 | -7.09376 | 97.12340 | 33843 ft | 497 kts | 308° |
| 2026-05-06 10:56 | -7.05179 | 97.06817 | 33839 ft | 497 kts | 308° |
| 2026-05-06 10:56 | -7.00972 | 97.01281 | 33841 ft | 497 kts | 308° |
| 2026-05-06 10:57 | -6.96843 | 96.95687 | 33839 ft | 498 kts | 307° |
| 2026-05-06 10:57 | -6.92858 | 96.89987 | 33839 ft | 498 kts | 306° |
| 2026-05-06 10:58 | -6.88877 | 96.84272 | 33840 ft | 499 kts | 306° |
| 2026-05-06 10:58 | -6.84864 | 96.78561 | 33836 ft | 500 kts | 306° |
| 2026-05-06 10:59 | -6.80828 | 96.72847 | 33843 ft | 502 kts | 306° |
| 2026-05-06 10:59 | -6.76773 | 96.67113 | 33832 ft | 504 kts | 306° |
| 2026-05-06 11:00 | -6.72704 | 96.61359 | 33836 ft | 505 kts | 306° |
| 2026-05-06 11:00 | -6.68659 | 96.55639 | 33841 ft | 506 kts | 306° |
| 2026-05-06 11:01 | -6.64542 | 96.49819 | 33837 ft | 507 kts | 306° |
| 2026-05-06 11:01 | -6.60485 | 96.44085 | 33835 ft | 507 kts | 306° |
| 2026-05-06 11:02 | -6.56405 | 96.38320 | 33828 ft | 506 kts | 306° |
| 2026-05-06 11:02 | -6.52325 | 96.32558 | 33832 ft | 504 kts | 306° |
| 2026-05-06 11:03 | -6.48265 | 96.26826 | 33828 ft | 503 kts | 306° |
| 2026-05-06 11:03 | -6.44207 | 96.21098 | 33831 ft | 503 kts | 306° |
| 2026-05-06 11:04 | -6.40146 | 96.15368 | 33833 ft | 502 kts | 306° |
| 2026-05-06 11:04 | -6.36111 | 96.09677 | 33828 ft | 502 kts | 306° |
| 2026-05-06 11:05 | -6.32076 | 96.03988 | 33835 ft | 500 kts | 306° |
| 2026-05-06 11:05 | -6.28035 | 95.98291 | 33827 ft | 499 kts | 306° |
| 2026-05-06 11:06 | -6.24014 | 95.92625 | 33829 ft | 498 kts | 306° |
| 2026-05-06 11:06 | -6.20001 | 95.86970 | 33830 ft | 497 kts | 306° |
| 2026-05-06 11:07 | -6.15987 | 95.81318 | 33833 ft | 497 kts | 306° |
| 2026-05-06 11:07 | -6.11966 | 95.75657 | 33833 ft | 497 kts | 306° |
| 2026-05-06 11:08 | -6.07947 | 95.70000 | 33835 ft | 498 kts | 306° |
| 2026-05-06 11:08 | -6.03914 | 95.64326 | 33825 ft | 500 kts | 305° |
| 2026-05-06 11:09 | -5.99881 | 95.58652 | 33838 ft | 504 kts | 305° |
| 2026-05-06 11:09 | -5.95801 | 95.52914 | 33839 ft | 507 kts | 305° |
| 2026-05-06 11:10 | -5.91690 | 95.47135 | 33834 ft | 508 kts | 305° |
| 2026-05-06 11:10 | -5.87580 | 95.41358 | 33831 ft | 508 kts | 306° |
| 2026-05-06 11:11 | -5.83481 | 95.35599 | 33827 ft | 506 kts | 305° |
| 2026-05-06 11:11 | -5.79380 | 95.29839 | 33825 ft | 505 kts | 306° |
| 2026-05-06 11:12 | -5.75303 | 95.24113 | 33830 ft | 505 kts | 306° |
| 2026-05-06 11:12 | -5.71210 | 95.18367 | 33831 ft | 505 kts | 306° |
| 2026-05-06 11:13 | -5.67118 | 95.12624 | 33837 ft | 506 kts | 306° |
| 2026-05-06 11:13 | -5.63022 | 95.06878 | 33833 ft | 506 kts | 306° |
| 2026-05-06 11:14 | -5.58927 | 95.01134 | 33832 ft | 507 kts | 306° |
| 2026-05-06 11:14 | -5.54848 | 94.95415 | 33834 ft | 507 kts | 306° |
| 2026-05-06 11:15 | -5.50716 | 94.89621 | 33832 ft | 507 kts | 306° |
| 2026-05-06 11:15 | -5.46608 | 94.83865 | 33830 ft | 507 kts | 306° |
| 2026-05-06 11:16 | -5.42501 | 94.78110 | 33828 ft | 507 kts | 306° |
| 2026-05-06 11:16 | -5.38395 | 94.72359 | 33827 ft | 507 kts | 306° |
| 2026-05-06 11:17 | -5.34295 | 94.66617 | 33827 ft | 507 kts | 306° |
| 2026-05-06 11:17 | -5.30210 | 94.60899 | 33830 ft | 507 kts | 306° |
| 2026-05-06 11:18 | -5.26103 | 94.55149 | 33831 ft | 507 kts | 306° |
| 2026-05-06 11:18 | -5.21997 | 94.49404 | 33827 ft | 507 kts | 306° |
| 2026-05-06 11:19 | -5.17895 | 94.43665 | 33828 ft | 507 kts | 306° |
| 2026-05-06 11:19 | -5.13774 | 94.37903 | 33830 ft | 508 kts | 306° |
| 2026-05-06 11:20 | -5.09657 | 94.32147 | 33830 ft | 508 kts | 306° |
| 2026-05-06 11:20 | -5.05537 | 94.26387 | 33831 ft | 508 kts | 306° |
| 2026-05-06 11:21 | -5.01416 | 94.20628 | 33830 ft | 508 kts | 306° |
| 2026-05-06 11:21 | -4.97295 | 94.14871 | 33833 ft | 507 kts | 306° |
| 2026-05-06 11:22 | -4.93188 | 94.09134 | 33840 ft | 506 kts | 307° |
| 2026-05-06 11:22 | -4.89095 | 94.03416 | 33830 ft | 503 kts | 306° |
| 2026-05-06 11:23 | -4.85021 | 93.97729 | 33831 ft | 500 kts | 307° |
| 2026-05-06 11:23 | -4.80980 | 93.92090 | 33832 ft | 498 kts | 306° |
| 2026-05-06 11:24 | -4.76941 | 93.86453 | 33835 ft | 497 kts | 306° |
| 2026-05-06 11:24 | -4.72904 | 93.80821 | 33841 ft | 497 kts | 307° |
| 2026-05-06 11:25 | -4.68871 | 93.75196 | 33845 ft | 497 kts | 307° |
| 2026-05-06 11:25 | -4.64839 | 93.69573 | 33827 ft | 497 kts | 306° |
| 2026-05-06 11:26 | -4.60810 | 93.63955 | 33836 ft | 497 kts | 306° |
| 2026-05-06 11:26 | -4.56773 | 93.58328 | 33840 ft | 497 kts | 307° |
| 2026-05-06 11:27 | -4.52739 | 93.52706 | 33836 ft | 497 kts | 307° |
| 2026-05-06 11:27 | -4.48701 | 93.47080 | 33840 ft | 497 kts | 307° |
| 2026-05-06 11:28 | -4.44662 | 93.41454 | 33838 ft | 497 kts | 307° |
| 2026-05-06 11:28 | -4.40623 | 93.35829 | 33842 ft | 498 kts | 307° |
| 2026-05-06 11:29 | -4.36577 | 93.30195 | 33844 ft | 498 kts | 307° |
| 2026-05-06 11:29 | -4.32529 | 93.24559 | 33846 ft | 498 kts | 307° |
| 2026-05-06 11:30 | -4.28509 | 93.18964 | 33842 ft | 498 kts | 307° |
| 2026-05-06 11:30 | -4.24445 | 93.13308 | 33842 ft | 497 kts | 307° |
| 2026-05-06 11:31 | -4.20403 | 93.07684 | 33846 ft | 497 kts | 307° |
| 2026-05-06 11:31 | -4.16381 | 93.02088 | 33846 ft | 497 kts | 307° |
| 2026-05-06 11:32 | -4.12362 | 92.96492 | 33839 ft | 495 kts | 307° |
| 2026-05-06 11:32 | -4.08391 | 92.90874 | 33838 ft | 493 kts | 306° |
| 2026-05-06 11:33 | -4.04452 | 92.85260 | 33840 ft | 492 kts | 306° |
| 2026-05-06 11:33 | -4.00509 | 92.79650 | 33841 ft | 491 kts | 306° |
| 2026-05-06 11:34 | -3.96573 | 92.74061 | 33844 ft | 491 kts | 306° |
| 2026-05-06 11:34 | -3.92630 | 92.68467 | 33845 ft | 491 kts | 306° |
| 2026-05-06 11:35 | -3.88680 | 92.62864 | 33837 ft | 493 kts | 306° |
| 2026-05-06 11:35 | -3.84747 | 92.57286 | 33851 ft | 495 kts | 306° |
| 2026-05-06 11:36 | -3.80771 | 92.51647 | 33856 ft | 496 kts | 306° |
| 2026-05-06 11:36 | -3.76785 | 92.45996 | 33850 ft | 497 kts | 307° |
| 2026-05-06 11:37 | -3.72795 | 92.40340 | 33841 ft | 497 kts | 306° |
| 2026-05-06 11:37 | -3.68814 | 92.34696 | 33848 ft | 497 kts | 306° |
| 2026-05-06 11:38 | -3.64823 | 92.29039 | 33845 ft | 497 kts | 306° |
| 2026-05-06 11:38 | -3.60834 | 92.23389 | 33843 ft | 497 kts | 306° |
| 2026-05-06 11:39 | -3.56849 | 92.17743 | 33846 ft | 496 kts | 306° |
| 2026-05-06 11:39 | -3.52862 | 92.12096 | 33847 ft | 496 kts | 306° |
| 2026-05-06 11:40 | -3.48875 | 92.06450 | 33848 ft | 497 kts | 306° |
| 2026-05-06 11:40 | -3.45560 | 92.01755 | 33851 ft | 497 kts | 306° |
| 2026-05-06 11:41 | -3.41573 | 91.96112 | 33852 ft | 496 kts | 306° |
| 2026-05-06 11:41 | -3.37572 | 91.90448 | 33846 ft | 495 kts | 307° |
| 2026-05-06 11:42 | -3.33597 | 91.84823 | 33843 ft | 495 kts | 306° |
| 2026-05-06 11:42 | -3.29623 | 91.79199 | 33849 ft | 494 kts | 306° |
| 2026-05-06 11:43 | -3.25650 | 91.73577 | 33846 ft | 495 kts | 306° |
| 2026-05-06 11:43 | -3.21699 | 91.67989 | 33854 ft | 495 kts | 307° |
| 2026-05-06 11:44 | -3.15707 | 91.59515 | 33853 ft | 495 kts | 307° |
| 2026-05-06 11:44 | -3.11754 | 91.53925 | 33849 ft | 495 kts | 307° |
| 2026-05-06 11:45 | -3.07776 | 91.48302 | 33851 ft | 494 kts | 306° |
| 2026-05-06 11:45 | -3.03804 | 91.42686 | 33844 ft | 494 kts | 306° |
| 2026-05-06 11:46 | -2.99833 | 91.37073 | 33849 ft | 494 kts | 306° |
| 2026-05-06 11:46 | -2.95859 | 91.31458 | 33850 ft | 494 kts | 306° |
| 2026-05-06 11:47 | -2.91881 | 91.25837 | 33846 ft | 495 kts | 306° |
| 2026-05-06 11:47 | -2.87894 | 91.20203 | 33853 ft | 497 kts | 306° |
| 2026-05-06 11:48 | -2.83897 | 91.14558 | 33847 ft | 497 kts | 306° |
| 2026-05-06 11:48 | -2.79893 | 91.08904 | 33847 ft | 498 kts | 306° |
| 2026-05-06 11:49 | -2.75886 | 91.03244 | 33848 ft | 498 kts | 306° |
| 2026-05-06 11:49 | -2.71906 | 90.97624 | 33851 ft | 498 kts | 306° |
| 2026-05-06 11:50 | -2.67886 | 90.91949 | 33844 ft | 497 kts | 306° |
| 2026-05-06 11:50 | -2.63918 | 90.86347 | 33842 ft | 496 kts | 306° |
| 2026-05-06 11:51 | -2.59926 | 90.80713 | 33847 ft | 495 kts | 306° |
| 2026-05-06 11:51 | -2.56004 | 90.75178 | 33932 ft | 496 kts | 306° |
| 2026-05-06 11:52 | -2.54017 | 90.72373 | 34047 ft | 497 kts | 306° |
| 2026-05-06 11:52 | -2.52014 | 90.69547 | 34164 ft | 498 kts | 306° |
| 2026-05-06 11:52 | -2.50005 | 90.66712 | 34267 ft | 498 kts | 306° |
| 2026-05-06 11:52 | -2.48005 | 90.63890 | 34376 ft | 499 kts | 306° |
| 2026-05-06 11:53 | -2.46003 | 90.61066 | 34487 ft | 499 kts | 306° |
| 2026-05-06 11:53 | -2.43991 | 90.58227 | 34593 ft | 499 kts | 306° |
| 2026-05-06 11:53 | -2.41989 | 90.55403 | 34700 ft | 499 kts | 306° |
| 2026-05-06 11:53 | -2.39973 | 90.52560 | 34814 ft | 499 kts | 306° |
| 2026-05-06 11:54 | -2.37963 | 90.49725 | 34929 ft | 498 kts | 306° |
| 2026-05-06 11:54 | -2.35960 | 90.46899 | 35041 ft | 498 kts | 306° |
| 2026-05-06 11:54 | -2.33959 | 90.44078 | 35150 ft | 498 kts | 306° |
| 2026-05-06 11:54 | -2.31954 | 90.41249 | 35266 ft | 497 kts | 306° |
| 2026-05-06 11:55 | -2.29956 | 90.38432 | 35379 ft | 497 kts | 306° |
| 2026-05-06 11:55 | -2.27964 | 90.35623 | 35486 ft | 497 kts | 306° |
| 2026-05-06 11:55 | -2.25967 | 90.32808 | 35615 ft | 496 kts | 306° |
| 2026-05-06 11:55 | -2.23966 | 90.29986 | 35716 ft | 496 kts | 306° |
| 2026-05-06 11:56 | -2.19966 | 90.24346 | 35811 ft | 497 kts | 306° |
| 2026-05-06 11:56 | -2.15961 | 90.18701 | 35826 ft | 497 kts | 306° |
| 2026-05-06 11:57 | -2.11986 | 90.13098 | 35850 ft | 497 kts | 306° |
| 2026-05-06 11:57 | -2.07961 | 90.07422 | 35847 ft | 498 kts | 306° |
| 2026-05-06 11:58 | -2.03975 | 90.01805 | 35850 ft | 498 kts | 306° |
| 2026-05-06 11:58 | -1.99935 | 89.96201 | 35824 ft | 497 kts | 309° |
| 2026-05-06 11:59 | -1.95270 | 89.91113 | 35846 ft | 496 kts | 315° |
| 2026-05-06 11:59 | -1.90464 | 89.86167 | 35847 ft | 495 kts | 315° |
| 2026-05-06 12:00 | -1.85672 | 89.81197 | 35852 ft | 496 kts | 314° |
| 2026-05-06 12:00 | -1.80902 | 89.76208 | 35846 ft | 497 kts | 314° |
| 2026-05-06 12:01 | -1.76126 | 89.71200 | 35849 ft | 498 kts | 314° |
| 2026-05-06 12:01 | -1.71357 | 89.66201 | 35848 ft | 498 kts | 314° |
| 2026-05-06 12:02 | -1.66572 | 89.61188 | 35827 ft | 499 kts | 314° |
| 2026-05-06 12:02 | -1.61777 | 89.56167 | 35851 ft | 499 kts | 314° |
| 2026-05-06 12:03 | -1.56984 | 89.51148 | 35841 ft | 499 kts | 314° |
| 2026-05-06 12:03 | -1.52193 | 89.46132 | 35846 ft | 499 kts | 314° |
| 2026-05-06 12:04 | -1.47425 | 89.41140 | 35837 ft | 498 kts | 314° |
| 2026-05-06 12:04 | -1.42653 | 89.36144 | 35819 ft | 498 kts | 314° |
| 2026-05-06 12:05 | -1.37875 | 89.31141 | 35837 ft | 498 kts | 314° |
| 2026-05-06 12:05 | -1.33101 | 89.26143 | 35840 ft | 498 kts | 314° |
| 2026-05-06 12:06 | -1.28313 | 89.21131 | 35816 ft | 498 kts | 314° |
| 2026-05-06 12:06 | -1.23538 | 89.16133 | 35831 ft | 498 kts | 314° |
| 2026-05-06 12:07 | -1.18748 | 89.11119 | 35822 ft | 499 kts | 314° |
| 2026-05-06 12:07 | -1.13955 | 89.06102 | 35840 ft | 499 kts | 314° |
| 2026-05-06 12:08 | -1.09146 | 89.01069 | 35841 ft | 500 kts | 313° |
| 2026-05-06 12:08 | -1.04323 | 88.96020 | 35824 ft | 502 kts | 313° |
| 2026-05-06 12:09 | -0.99485 | 88.90957 | 35846 ft | 504 kts | 313° |
| 2026-05-06 12:09 | -0.94655 | 88.85909 | 35822 ft | 504 kts | 313° |
| 2026-05-06 12:10 | -0.89811 | 88.80843 | 35839 ft | 503 kts | 314° |
| 2026-05-06 12:10 | -0.85020 | 88.75833 | 35821 ft | 502 kts | 314° |
| 2026-05-06 12:11 | -0.80214 | 88.70806 | 35843 ft | 500 kts | 314° |
| 2026-05-06 12:11 | -0.75405 | 88.65776 | 35829 ft | 499 kts | 314° |
| 2026-05-06 12:12 | -0.70602 | 88.60752 | 35823 ft | 500 kts | 314° |
| 2026-05-06 12:12 | -0.65798 | 88.55728 | 35841 ft | 500 kts | 314° |
| 2026-05-06 12:13 | -0.60998 | 88.50709 | 35847 ft | 501 kts | 314° |
| 2026-05-06 12:13 | -0.56180 | 88.45670 | 35839 ft | 501 kts | 314° |
| 2026-05-06 12:14 | -0.51358 | 88.40627 | 35822 ft | 502 kts | 314° |
| 2026-05-06 12:14 | -0.46525 | 88.35574 | 35819 ft | 504 kts | 314° |
| 2026-05-06 12:15 | -0.41674 | 88.30502 | 35827 ft | 505 kts | 314° |
| 2026-05-06 12:15 | -0.36818 | 88.25423 | 35837 ft | 506 kts | 314° |
| 2026-05-06 12:16 | -0.31955 | 88.20338 | 35822 ft | 506 kts | 314° |
| 2026-05-06 12:16 | -0.27093 | 88.15254 | 35838 ft | 505 kts | 314° |
| 2026-05-06 12:17 | -0.22256 | 88.10197 | 35838 ft | 503 kts | 314° |
| 2026-05-06 12:17 | -0.17413 | 88.05134 | 35843 ft | 507 kts | 314° |
| 2026-05-06 12:18 | -0.12514 | 88.00010 | 35816 ft | 512 kts | 314° |
| 2026-05-06 12:18 | -0.07589 | 87.94861 | 35820 ft | 514 kts | 314° |
| 2026-05-06 12:19 | -0.02647 | 87.89692 | 35841 ft | 513 kts | 314° |
| 2026-05-06 12:19 | 0.02251 | 87.84571 | 35817 ft | 507 kts | 314° |
| 2026-05-06 12:20 | 0.07096 | 87.79504 | 35840 ft | 502 kts | 314° |
| 2026-05-06 12:20 | 0.11912 | 87.74470 | 35814 ft | 500 kts | 314° |
| 2026-05-06 12:21 | 0.16687 | 87.69478 | 35843 ft | 503 kts | 313° |
| 2026-05-06 12:21 | 0.21575 | 87.64366 | 35817 ft | 508 kts | 313° |
| 2026-05-06 12:22 | 0.26448 | 87.59270 | 35824 ft | 512 kts | 313° |
| 2026-05-06 12:22 | 0.31387 | 87.54104 | 35840 ft | 513 kts | 313° |
| 2026-05-06 12:23 | 0.36266 | 87.49002 | 35808 ft | 506 kts | 313° |
| 2026-05-06 12:23 | 0.41120 | 87.43924 | 35818 ft | 504 kts | 313° |
| 2026-05-06 12:24 | 0.45951 | 87.38872 | 35816 ft | 502 kts | 313° |
| 2026-05-06 12:24 | 0.50771 | 87.33834 | 35815 ft | 503 kts | 313° |
| 2026-05-06 12:25 | 0.55608 | 87.28777 | 35818 ft | 504 kts | 313° |
| 2026-05-06 12:25 | 0.60469 | 87.23693 | 35820 ft | 507 kts | 312° |
| 2026-05-06 12:26 | 0.65361 | 87.18573 | 35842 ft | 511 kts | 313° |
| 2026-05-06 12:26 | 0.69432 | 87.14314 | 35824 ft | 512 kts | 313° |
| 2026-05-06 12:27 | 0.74362 | 87.09158 | 35823 ft | 512 kts | 313° |
| 2026-05-06 12:27 | 0.79273 | 87.04020 | 35815 ft | 510 kts | 314° |
| 2026-05-06 12:28 | 0.84162 | 86.98906 | 35821 ft | 507 kts | 314° |
| 2026-05-06 12:28 | 0.89036 | 86.93806 | 35844 ft | 507 kts | 314° |
| 2026-05-06 12:29 | 0.93904 | 86.88714 | 35815 ft | 507 kts | 314° |
| 2026-05-06 12:29 | 0.98785 | 86.83606 | 35816 ft | 510 kts | 314° |
| 2026-05-06 12:30 | 1.03694 | 86.78468 | 35848 ft | 512 kts | 314° |
| 2026-05-06 12:30 | 1.08620 | 86.73314 | 35820 ft | 514 kts | 314° |
| 2026-05-06 12:31 | 1.13532 | 86.68173 | 35829 ft | 513 kts | 314° |
| 2026-05-06 12:31 | 1.18418 | 86.63059 | 35809 ft | 502 kts | 314° |
| 2026-05-06 12:32 | 1.23209 | 86.58045 | 35819 ft | 500 kts | 314° |
| 2026-05-06 12:32 | 1.28040 | 86.52988 | 35845 ft | 506 kts | 314° |
| 2026-05-06 12:33 | 1.32933 | 86.47868 | 35812 ft | 513 kts | 314° |
| 2026-05-06 12:33 | 1.37876 | 86.42692 | 35811 ft | 513 kts | 314° |
| 2026-05-06 12:34 | 1.42782 | 86.37555 | 35823 ft | 508 kts | 314° |
| 2026-05-06 12:34 | 1.47640 | 86.32470 | 35812 ft | 504 kts | 314° |
| 2026-05-06 12:35 | 1.52495 | 86.27385 | 35819 ft | 508 kts | 314° |
| 2026-05-06 12:35 | 1.57366 | 86.22285 | 35816 ft | 505 kts | 314° |
| 2026-05-06 12:36 | 1.62187 | 86.17235 | 35812 ft | 503 kts | 314° |
| 2026-05-06 12:36 | 1.66958 | 86.12088 | 35821 ft | 507 kts | 312° |
| 2026-05-06 12:37 | 1.71681 | 86.06831 | 35827 ft | 510 kts | 312° |
| 2026-05-06 12:37 | 1.76437 | 86.01537 | 35819 ft | 514 kts | 313° |
| 2026-05-06 12:38 | 1.81252 | 85.96204 | 35826 ft | 517 kts | 313° |
| 2026-05-06 12:38 | 1.86052 | 85.90903 | 35809 ft | 511 kts | 313° |
| 2026-05-06 12:39 | 1.90772 | 85.85691 | 35819 ft | 503 kts | 312° |
| 2026-05-06 12:39 | 1.95471 | 85.80502 | 35826 ft | 506 kts | 313° |
| 2026-05-06 12:40 | 2.00138 | 85.75345 | 35817 ft | 508 kts | 312° |
| 2026-05-06 12:40 | 2.04832 | 85.70158 | 35814 ft | 504 kts | 312° |
| 2026-05-06 12:41 | 2.09551 | 85.64943 | 35824 ft | 502 kts | 312° |
| 2026-05-06 12:41 | 2.14246 | 85.59755 | 35823 ft | 505 kts | 312° |
| 2026-05-06 12:42 | 2.18980 | 85.54522 | 35831 ft | 510 kts | 312° |
| 2026-05-06 12:42 | 2.23716 | 85.49286 | 35819 ft | 510 kts | 312° |
| 2026-05-06 12:43 | 2.28467 | 85.44034 | 35819 ft | 510 kts | 312° |
| 2026-05-06 12:43 | 2.33228 | 85.38770 | 35825 ft | 510 kts | 312° |
| 2026-05-06 12:44 | 2.37984 | 85.33510 | 35820 ft | 509 kts | 312° |
| 2026-05-06 12:44 | 2.42719 | 85.28272 | 35818 ft | 506 kts | 312° |
| 2026-05-06 12:45 | 2.47435 | 85.23058 | 35815 ft | 504 kts | 312° |
| 2026-05-06 12:46 | 2.54469 | 85.15275 | 35827 ft | 502 kts | 312° |
| 2026-05-06 12:46 | 2.59143 | 85.10105 | 35819 ft | 500 kts | 312° |
| 2026-05-06 12:47 | 2.63807 | 85.04945 | 35814 ft | 500 kts | 312° |
| 2026-05-06 12:47 | 2.68411 | 84.99849 | 35820 ft | 502 kts | 313° |
| 2026-05-06 12:48 | 2.73105 | 84.94655 | 35831 ft | 510 kts | 312° |
| 2026-05-06 12:48 | 2.77853 | 84.89398 | 35824 ft | 508 kts | 312° |
| 2026-05-06 12:49 | 2.82594 | 84.84150 | 35819 ft | 508 kts | 313° |
| 2026-05-06 12:49 | 2.87327 | 84.78909 | 35826 ft | 508 kts | 313° |
| 2026-05-06 12:50 | 2.92052 | 84.73677 | 35821 ft | 507 kts | 313° |
| 2026-05-06 12:50 | 2.96786 | 84.68434 | 35830 ft | 507 kts | 312° |
| 2026-05-06 12:51 | 3.01510 | 84.63201 | 35819 ft | 506 kts | 313° |
| 2026-05-06 12:51 | 3.06223 | 84.57981 | 35818 ft | 506 kts | 313° |
| 2026-05-06 12:52 | 3.10942 | 84.52752 | 35822 ft | 506 kts | 313° |
| 2026-05-06 12:52 | 3.15656 | 84.47528 | 35822 ft | 506 kts | 312° |
| 2026-05-06 12:53 | 3.20375 | 84.42298 | 35822 ft | 505 kts | 312° |
| 2026-05-06 12:53 | 3.25079 | 84.37083 | 35818 ft | 505 kts | 313° |
| 2026-05-06 12:54 | 3.29798 | 84.31852 | 35821 ft | 506 kts | 313° |
| 2026-05-06 12:54 | 3.34516 | 84.26620 | 35826 ft | 507 kts | 312° |
| 2026-05-06 12:55 | 3.39130 | 84.21503 | 35821 ft | 507 kts | 312° |
| 2026-05-06 12:55 | 3.43890 | 84.16222 | 35826 ft | 507 kts | 313° |
| 2026-05-06 12:56 | 3.48583 | 84.11014 | 35816 ft | 507 kts | 313° |
| 2026-05-06 12:56 | 3.53304 | 84.05775 | 35817 ft | 506 kts | 312° |
| 2026-05-06 12:57 | 3.57955 | 84.00482 | 35819 ft | 506 kts | 311° |
| 2026-05-06 12:57 | 3.62551 | 83.95153 | 35817 ft | 506 kts | 311° |
| 2026-05-06 12:58 | 3.67145 | 83.89832 | 35813 ft | 505 kts | 311° |
| 2026-05-06 12:58 | 3.71756 | 83.84511 | 35815 ft | 505 kts | 311° |
| 2026-05-06 12:59 | 3.76368 | 83.79196 | 35821 ft | 505 kts | 311° |
| 2026-05-06 12:59 | 3.80971 | 83.73891 | 35817 ft | 505 kts | 311° |
| 2026-05-06 13:00 | 3.85583 | 83.68574 | 35815 ft | 505 kts | 311° |
| 2026-05-06 13:00 | 3.90182 | 83.63271 | 35817 ft | 505 kts | 311° |
| 2026-05-06 13:01 | 3.94758 | 83.57991 | 35819 ft | 504 kts | 311° |
| 2026-05-06 13:01 | 3.99380 | 83.52659 | 35814 ft | 504 kts | 311° |
| 2026-05-06 13:02 | 4.03935 | 83.47403 | 35817 ft | 502 kts | 311° |
| 2026-05-06 13:02 | 4.08522 | 83.42110 | 35807 ft | 501 kts | 311° |
| 2026-05-06 13:03 | 4.13077 | 83.36851 | 35811 ft | 501 kts | 311° |
| 2026-05-06 13:03 | 4.17639 | 83.31583 | 35821 ft | 500 kts | 311° |
| 2026-05-06 13:04 | 4.22197 | 83.26320 | 35824 ft | 500 kts | 311° |
| 2026-05-06 13:04 | 4.26754 | 83.21058 | 35810 ft | 500 kts | 311° |
| 2026-05-06 13:05 | 4.31311 | 83.15792 | 35821 ft | 500 kts | 311° |
| 2026-05-06 13:05 | 4.35879 | 83.10514 | 35820 ft | 501 kts | 311° |
| 2026-05-06 13:06 | 4.40437 | 83.05246 | 35817 ft | 502 kts | 311° |
| 2026-05-06 13:06 | 4.45015 | 82.99955 | 35824 ft | 502 kts | 311° |
| 2026-05-06 13:07 | 4.49568 | 82.94690 | 35821 ft | 503 kts | 311° |
| 2026-05-06 13:07 | 4.54186 | 82.89351 | 35822 ft | 503 kts | 311° |
| 2026-05-06 13:08 | 4.58732 | 82.84092 | 35818 ft | 503 kts | 311° |
| 2026-05-06 13:08 | 4.63311 | 82.78794 | 35819 ft | 502 kts | 311° |
| 2026-05-06 13:09 | 4.67868 | 82.73520 | 35819 ft | 501 kts | 311° |
| 2026-05-06 13:09 | 4.72429 | 82.68242 | 35819 ft | 500 kts | 311° |
| 2026-05-06 13:10 | 4.76985 | 82.62968 | 35815 ft | 500 kts | 311° |
| 2026-05-06 13:10 | 4.81537 | 82.57697 | 35818 ft | 499 kts | 311° |
| 2026-05-06 13:11 | 4.86077 | 82.52439 | 35817 ft | 499 kts | 311° |
| 2026-05-06 13:11 | 4.90625 | 82.47170 | 35819 ft | 499 kts | 311° |
| 2026-05-06 13:12 | 4.95174 | 82.41900 | 35812 ft | 499 kts | 311° |
| 2026-05-06 13:12 | 4.99714 | 82.36637 | 35812 ft | 499 kts | 311° |
| 2026-05-06 13:13 | 5.04253 | 82.31375 | 35815 ft | 498 kts | 311° |
| 2026-05-06 13:13 | 5.08709 | 82.26209 | 35815 ft | 498 kts | 311° |
| 2026-05-06 13:14 | 5.13204 | 82.20996 | 35814 ft | 497 kts | 311° |
| 2026-05-06 13:14 | 5.17728 | 82.15748 | 35813 ft | 497 kts | 311° |
| 2026-05-06 13:15 | 5.22256 | 82.10494 | 35816 ft | 498 kts | 311° |
| 2026-05-06 13:15 | 5.26786 | 82.05236 | 35817 ft | 498 kts | 311° |
| 2026-05-06 13:16 | 5.30587 | 82.00823 | 35810 ft | 498 kts | 311° |
| 2026-05-06 13:16 | 5.35091 | 81.95594 | 35829 ft | 499 kts | 311° |
| 2026-05-06 13:17 | 5.39640 | 81.90310 | 35815 ft | 500 kts | 311° |
| 2026-05-06 13:17 | 5.44192 | 81.85022 | 35812 ft | 501 kts | 311° |
| 2026-05-06 13:18 | 5.48741 | 81.79735 | 35810 ft | 502 kts | 311° |
| 2026-05-06 13:18 | 5.53302 | 81.74432 | 35829 ft | 502 kts | 311° |
| 2026-05-06 13:19 | 5.57864 | 81.69127 | 35814 ft | 502 kts | 311° |
| 2026-05-06 13:19 | 5.62432 | 81.63814 | 35810 ft | 502 kts | 311° |
| 2026-05-06 13:20 | 5.67003 | 81.58527 | 35818 ft | 502 kts | 312° |
| 2026-05-06 13:20 | 5.71589 | 81.53245 | 35808 ft | 501 kts | 312° |
| 2026-05-06 13:21 | 5.76178 | 81.47955 | 35809 ft | 501 kts | 312° |
| 2026-05-06 13:21 | 5.80744 | 81.42685 | 35809 ft | 501 kts | 312° |
| 2026-05-06 13:22 | 5.85316 | 81.37404 | 35809 ft | 500 kts | 312° |
| 2026-05-06 13:22 | 5.89882 | 81.32129 | 35811 ft | 500 kts | 312° |
| 2026-05-06 13:23 | 5.94413 | 81.26893 | 35816 ft | 500 kts | 311° |
| 2026-05-06 13:23 | 5.99004 | 81.21587 | 35829 ft | 501 kts | 311° |
| 2026-05-06 13:24 | 6.03580 | 81.16296 | 35828 ft | 501 kts | 311° |
| 2026-05-06 13:24 | 6.08126 | 81.11037 | 35798 ft | 500 kts | 311° |
| 2026-05-06 13:25 | 6.12677 | 81.05770 | 35800 ft | 499 kts | 311° |
| 2026-05-06 13:25 | 6.17200 | 81.00488 | 35801 ft | 497 kts | 311° |
| 2026-05-06 13:26 | 6.21693 | 80.95221 | 35799 ft | 496 kts | 311° |
| 2026-05-06 13:26 | 6.26193 | 80.89950 | 35809 ft | 496 kts | 311° |
| 2026-05-06 13:27 | 6.30683 | 80.84692 | 35820 ft | 497 kts | 311° |
| 2026-05-06 13:27 | 6.35197 | 80.79407 | 35819 ft | 499 kts | 311° |
| 2026-05-06 13:28 | 6.39727 | 80.74101 | 35818 ft | 501 kts | 311° |
| 2026-05-06 13:28 | 6.44264 | 80.68782 | 35833 ft | 501 kts | 311° |
| 2026-05-06 13:29 | 6.48804 | 80.63466 | 35855 ft | 501 kts | 312° |
| 2026-05-06 13:29 | 6.53408 | 80.58214 | 35827 ft | 500 kts | 313° |
| 2026-05-06 13:30 | 6.58034 | 80.52993 | 35830 ft | 499 kts | 313° |
| 2026-05-06 13:30 | 6.62649 | 80.47768 | 35846 ft | 499 kts | 312° |
| 2026-05-06 13:31 | 6.67258 | 80.42531 | 35820 ft | 500 kts | 312° |
| 2026-05-06 13:31 | 6.71861 | 80.37295 | 35819 ft | 501 kts | 312° |
| 2026-05-06 13:32 | 6.76484 | 80.32036 | 35843 ft | 502 kts | 312° |
| 2026-05-06 13:32 | 6.81109 | 80.26773 | 35803 ft | 502 kts | 312° |
| 2026-05-06 13:33 | 6.85735 | 80.21508 | 35800 ft | 502 kts | 312° |
| 2026-05-06 13:33 | 6.90355 | 80.16248 | 35791 ft | 501 kts | 312° |
| 2026-05-06 13:34 | 6.94869 | 80.11107 | 35793 ft | 501 kts | 312° |
| 2026-05-06 13:34 | 6.99488 | 80.05844 | 35789 ft | 501 kts | 312° |
| 2026-05-06 13:35 | 7.04103 | 80.00584 | 35776 ft | 502 kts | 312° |
| 2026-05-06 13:35 | 7.08721 | 79.95318 | 35777 ft | 502 kts | 312° |
| 2026-05-06 13:36 | 7.13344 | 79.90058 | 35786 ft | 502 kts | 314° |
| 2026-05-06 13:36 | 7.18524 | 79.85379 | 35787 ft | 500 kts | 324° |
| 2026-05-06 13:37 | 7.24358 | 79.81604 | 35786 ft | 499 kts | 329° |
| 2026-05-06 13:37 | 7.30285 | 79.77954 | 35766 ft | 499 kts | 329° |
| 2026-05-06 13:38 | 7.36195 | 79.74272 | 35797 ft | 501 kts | 329° |
| 2026-05-06 13:38 | 7.42125 | 79.70544 | 35784 ft | 504 kts | 329° |
| 2026-05-06 13:39 | 7.48081 | 79.66789 | 35789 ft | 506 kts | 328° |
| 2026-05-06 13:39 | 7.54039 | 79.63035 | 35783 ft | 506 kts | 329° |
| 2026-05-06 13:40 | 7.60022 | 79.59267 | 35790 ft | 506 kts | 329° |
| 2026-05-06 13:40 | 7.65987 | 79.55508 | 35810 ft | 505 kts | 329° |
| 2026-05-06 13:41 | 7.71931 | 79.51761 | 35808 ft | 504 kts | 328° |
| 2026-05-06 13:41 | 7.77868 | 79.48017 | 35806 ft | 503 kts | 328° |
| 2026-05-06 13:42 | 7.83809 | 79.44269 | 35806 ft | 503 kts | 329° |
| 2026-05-06 13:42 | 7.89677 | 79.40431 | 35785 ft | 503 kts | 326° |
| 2026-05-06 13:43 | 7.95414 | 79.36366 | 35812 ft | 504 kts | 325° |
| 2026-05-06 13:43 | 8.01149 | 79.32285 | 35814 ft | 505 kts | 325° |
| 2026-05-06 13:44 | 8.06916 | 79.28232 | 35809 ft | 507 kts | 326° |
| 2026-05-06 13:44 | 8.12686 | 79.24200 | 35815 ft | 507 kts | 326° |
| 2026-05-06 13:45 | 8.18506 | 79.20133 | 35820 ft | 507 kts | 326° |
| 2026-05-06 13:45 | 8.27183 | 79.14060 | 35815 ft | 507 kts | 326° |
| 2026-05-06 13:46 | 8.32959 | 79.10014 | 35816 ft | 506 kts | 326° |
| 2026-05-06 13:46 | 8.38744 | 79.05970 | 35793 ft | 506 kts | 327° |
| 2026-05-06 13:47 | 8.44824 | 79.02476 | 35816 ft | 505 kts | 333° |
| 2026-05-06 13:47 | 8.51012 | 78.99267 | 35814 ft | 505 kts | 333° |
| 2026-05-06 13:48 | 8.57271 | 78.96059 | 35807 ft | 505 kts | 334° |
| 2026-05-06 13:48 | 8.63562 | 78.92848 | 35810 ft | 505 kts | 334° |
| 2026-05-06 13:49 | 8.69802 | 78.89669 | 35805 ft | 506 kts | 334° |
| 2026-05-06 13:49 | 8.76132 | 78.86447 | 35803 ft | 506 kts | 334° |
| 2026-05-06 13:50 | 8.82390 | 78.83263 | 35803 ft | 506 kts | 334° |
| 2026-05-06 13:50 | 8.88721 | 78.80043 | 35802 ft | 506 kts | 334° |
| 2026-05-06 13:51 | 8.94968 | 78.76866 | 35790 ft | 506 kts | 333° |
| 2026-05-06 13:51 | 9.01269 | 78.73663 | 35808 ft | 506 kts | 333° |
| 2026-05-06 13:52 | 9.07569 | 78.70461 | 35810 ft | 507 kts | 334° |
| 2026-05-06 13:52 | 9.13873 | 78.67256 | 35793 ft | 507 kts | 334° |
| 2026-05-06 13:53 | 9.20170 | 78.64056 | 35812 ft | 507 kts | 334° |
| 2026-05-06 13:53 | 9.26488 | 78.60847 | 35810 ft | 508 kts | 334° |
| 2026-05-06 13:54 | 9.32814 | 78.57634 | 35815 ft | 508 kts | 333° |
| 2026-05-06 13:54 | 9.39126 | 78.54429 | 35814 ft | 508 kts | 333° |
| 2026-05-06 13:55 | 9.45448 | 78.51219 | 35814 ft | 508 kts | 333° |
| 2026-05-06 13:55 | 9.51777 | 78.48006 | 35811 ft | 508 kts | 333° |
| 2026-05-06 13:56 | 9.58091 | 78.44801 | 35813 ft | 508 kts | 333° |
| 2026-05-06 13:56 | 9.64396 | 78.41602 | 35815 ft | 507 kts | 333° |
| 2026-05-06 13:57 | 9.70713 | 78.38398 | 35819 ft | 506 kts | 333° |
| 2026-05-06 13:57 | 9.76986 | 78.35216 | 35825 ft | 505 kts | 333° |
| 2026-05-06 13:58 | 9.83267 | 78.32030 | 35827 ft | 504 kts | 333° |
| 2026-05-06 13:58 | 9.89544 | 78.28846 | 35822 ft | 504 kts | 333° |
| 2026-05-06 13:59 | 9.94748 | 78.26207 | 35832 ft | 503 kts | 333° |
| 2026-05-06 13:59 | 10.01022 | 78.23026 | 35824 ft | 504 kts | 333° |
| 2026-05-06 14:00 | 10.07939 | 78.18729 | 35844 ft | 503 kts | 318° |
| 2026-05-06 14:00 | 10.11839 | 78.14353 | 35844 ft | 503 kts | 303° |
| 2026-05-06 14:01 | 10.14912 | 78.08021 | 35853 ft | 501 kts | 285° |
| 2026-05-06 14:01 | 10.16392 | 78.01118 | 35852 ft | 501 kts | 278° |
| 2026-05-06 14:02 | 10.17486 | 77.94123 | 35867 ft | 502 kts | 277° |
| 2026-05-06 14:02 | 10.18540 | 77.87104 | 35864 ft | 503 kts | 277° |
| 2026-05-06 14:03 | 10.19583 | 77.80070 | 35870 ft | 504 kts | 277° |
| 2026-05-06 14:03 | 10.20619 | 77.73040 | 35871 ft | 504 kts | 277° |
| 2026-05-06 14:04 | 10.21657 | 77.65984 | 35868 ft | 505 kts | 277° |
| 2026-05-06 14:04 | 10.22688 | 77.58972 | 35888 ft | 504 kts | 277° |
| 2026-05-06 14:05 | 10.23724 | 77.51928 | 35896 ft | 504 kts | 277° |
| 2026-05-06 14:05 | 10.24758 | 77.44897 | 35881 ft | 503 kts | 277° |
| 2026-05-06 14:06 | 10.25787 | 77.37901 | 35876 ft | 501 kts | 277° |
| 2026-05-06 14:06 | 10.26807 | 77.30963 | 35882 ft | 500 kts | 277° |
| 2026-05-06 14:07 | 10.27839 | 77.23950 | 35896 ft | 500 kts | 277° |
| 2026-05-06 14:07 | 10.28857 | 77.17025 | 35882 ft | 500 kts | 277° |
| 2026-05-06 14:08 | 10.29878 | 77.10081 | 35887 ft | 500 kts | 277° |
| 2026-05-06 14:08 | 10.31557 | 77.03240 | 35864 ft | 503 kts | 293° |
| 2026-05-06 14:09 | 10.35180 | 76.97167 | 35882 ft | 505 kts | 306° |
| 2026-05-06 14:09 | 10.39656 | 76.91545 | 35872 ft | 517 kts | 309° |
| 2026-05-06 14:10 | 10.44248 | 76.85905 | 35869 ft | 524 kts | 308° |
| 2026-05-06 14:10 | 10.48795 | 76.80108 | 35859 ft | 525 kts | 307° |
| 2026-05-06 14:11 | 10.53308 | 76.74229 | 35828 ft | 525 kts | 307° |
| 2026-05-06 14:11 | 10.57782 | 76.68381 | 35823 ft | 523 kts | 307° |
| 2026-05-06 14:12 | 10.62211 | 76.62603 | 35816 ft | 520 kts | 307° |
| 2026-05-06 14:12 | 10.66652 | 76.56816 | 35805 ft | 519 kts | 307° |
| 2026-05-06 14:13 | 10.71105 | 76.51012 | 35829 ft | 521 kts | 307° |
| 2026-05-06 14:13 | 10.75520 | 76.45252 | 35817 ft | 521 kts | 308° |
| 2026-05-06 14:14 | 10.79985 | 76.39424 | 35814 ft | 521 kts | 308° |
| 2026-05-06 14:14 | 10.84424 | 76.33626 | 35798 ft | 520 kts | 308° |
| 2026-05-06 14:15 | 10.88846 | 76.27848 | 35809 ft | 519 kts | 308° |
| 2026-05-06 14:15 | 10.93268 | 76.22066 | 35804 ft | 519 kts | 308° |
| 2026-05-06 14:16 | 10.97698 | 76.16272 | 35785 ft | 519 kts | 308° |
| 2026-05-06 14:16 | 11.02125 | 76.10477 | 35778 ft | 518 kts | 308° |
| 2026-05-06 14:17 | 11.06550 | 76.04681 | 35776 ft | 518 kts | 308° |
| 2026-05-06 14:17 | 11.10966 | 75.98894 | 35769 ft | 518 kts | 308° |
| 2026-05-06 14:18 | 11.15336 | 75.93080 | 35780 ft | 518 kts | 306° |
| 2026-05-06 14:18 | 11.19463 | 75.87060 | 35777 ft | 517 kts | 304° |
| 2026-05-06 14:19 | 11.23605 | 75.81070 | 35780 ft | 518 kts | 305° |
| 2026-05-06 14:19 | 11.27693 | 75.75035 | 35769 ft | 518 kts | 304° |
| 2026-05-06 14:20 | 11.31746 | 75.68948 | 35765 ft | 519 kts | 304° |
| 2026-05-06 14:20 | 11.35735 | 75.62964 | 35759 ft | 519 kts | 304° |
| 2026-05-06 14:21 | 11.39802 | 75.56881 | 35751 ft | 519 kts | 304° |
| 2026-05-06 14:21 | 11.43866 | 75.50811 | 35776 ft | 519 kts | 304° |
| 2026-05-06 14:22 | 11.47917 | 75.44755 | 35749 ft | 520 kts | 304° |
| 2026-05-06 14:22 | 11.51993 | 75.38657 | 35759 ft | 520 kts | 304° |
| 2026-05-06 14:23 | 11.56059 | 75.32569 | 35763 ft | 518 kts | 304° |
| 2026-05-06 14:23 | 11.60102 | 75.26511 | 35754 ft | 517 kts | 304° |
| 2026-05-06 14:24 | 11.64141 | 75.20457 | 35772 ft | 515 kts | 304° |
| 2026-05-06 14:24 | 11.68173 | 75.14409 | 35772 ft | 514 kts | 304° |
| 2026-05-06 14:25 | 11.72196 | 75.08370 | 35761 ft | 515 kts | 304° |
| 2026-05-06 14:25 | 11.76222 | 75.02326 | 35772 ft | 516 kts | 304° |
| 2026-05-06 14:26 | 11.80252 | 74.96269 | 35772 ft | 517 kts | 304° |
| 2026-05-06 14:26 | 11.84297 | 74.90188 | 35775 ft | 517 kts | 304° |
| 2026-05-06 14:27 | 11.88336 | 74.84111 | 35774 ft | 517 kts | 304° |
| 2026-05-06 14:27 | 11.92375 | 74.78030 | 35791 ft | 516 kts | 304° |
| 2026-05-06 14:28 | 11.96392 | 74.71979 | 35765 ft | 515 kts | 304° |
| 2026-05-06 14:28 | 12.00407 | 74.65926 | 35768 ft | 514 kts | 304° |
| 2026-05-06 14:29 | 12.04426 | 74.59865 | 35789 ft | 514 kts | 304° |
| 2026-05-06 14:29 | 12.08437 | 74.53812 | 35768 ft | 515 kts | 304° |
| 2026-05-06 14:30 | 12.12427 | 74.47785 | 35770 ft | 516 kts | 304° |
| 2026-05-06 14:30 | 12.16447 | 74.41711 | 35773 ft | 517 kts | 304° |
| 2026-05-06 14:31 | 12.20480 | 74.35611 | 35789 ft | 517 kts | 304° |
| 2026-05-06 14:31 | 12.24503 | 74.29523 | 35776 ft | 516 kts | 304° |
| 2026-05-06 14:32 | 12.28496 | 74.23421 | 35771 ft | 516 kts | 303° |
| 2026-05-06 14:32 | 12.32393 | 74.17260 | 35788 ft | 516 kts | 303° |
| 2026-05-06 14:33 | 12.36286 | 74.11072 | 35785 ft | 518 kts | 303° |
| 2026-05-06 14:33 | 12.40197 | 74.04881 | 35765 ft | 519 kts | 303° |
| 2026-05-06 14:34 | 12.44114 | 73.98694 | 35764 ft | 519 kts | 303° |
| 2026-05-06 14:34 | 12.48038 | 73.92493 | 35765 ft | 519 kts | 303° |
| 2026-05-06 14:35 | 12.51928 | 73.86341 | 35769 ft | 518 kts | 303° |
| 2026-05-06 14:35 | 12.55842 | 73.80145 | 35791 ft | 518 kts | 303° |
| 2026-05-06 14:36 | 12.59748 | 73.73956 | 35766 ft | 518 kts | 303° |
| 2026-05-06 14:36 | 12.63662 | 73.67752 | 35794 ft | 518 kts | 302° |
| 2026-05-06 14:37 | 12.67565 | 73.61561 | 35765 ft | 517 kts | 302° |
| 2026-05-06 14:37 | 12.71460 | 73.55377 | 35788 ft | 515 kts | 302° |
| 2026-05-06 14:38 | 12.75342 | 73.49209 | 35793 ft | 514 kts | 302° |
| 2026-05-06 14:38 | 12.79212 | 73.43059 | 35790 ft | 514 kts | 302° |
| 2026-05-06 14:39 | 12.83020 | 73.37004 | 35772 ft | 514 kts | 302° |
| 2026-05-06 14:39 | 12.86895 | 73.30837 | 35775 ft | 515 kts | 302° |
| 2026-05-06 14:40 | 12.90775 | 73.24656 | 35794 ft | 516 kts | 302° |
| 2026-05-06 14:40 | 12.94660 | 73.18460 | 35797 ft | 517 kts | 302° |
| 2026-05-06 14:41 | 12.98550 | 73.12256 | 35775 ft | 515 kts | 302° |
| 2026-05-06 14:41 | 13.02411 | 73.06092 | 35779 ft | 513 kts | 302° |
| 2026-05-06 14:42 | 13.06256 | 72.99950 | 35792 ft | 511 kts | 302° |
| 2026-05-06 14:42 | 13.10091 | 72.93818 | 35805 ft | 511 kts | 302° |
| 2026-05-06 14:43 | 13.13921 | 72.87690 | 35799 ft | 511 kts | 302° |
| 2026-05-06 14:43 | 13.17759 | 72.81546 | 35802 ft | 511 kts | 302° |
| 2026-05-06 14:44 | 13.20947 | 72.76439 | 35807 ft | 511 kts | 302° |
| 2026-05-06 14:45 | 13.26702 | 72.67213 | 35811 ft | 512 kts | 302° |
| 2026-05-06 14:45 | 13.30543 | 72.61050 | 35792 ft | 511 kts | 302° |
| 2026-05-06 14:46 | 13.34374 | 72.54899 | 35806 ft | 512 kts | 302° |
| 2026-05-06 14:46 | 13.38209 | 72.48735 | 35810 ft | 512 kts | 302° |
| 2026-05-06 14:47 | 13.42037 | 72.42579 | 35812 ft | 511 kts | 302° |
| 2026-05-06 14:47 | 13.45865 | 72.36420 | 35807 ft | 512 kts | 302° |
| 2026-05-06 14:48 | 13.49690 | 72.30260 | 35808 ft | 512 kts | 302° |
| 2026-05-06 14:48 | 13.53500 | 72.24122 | 35801 ft | 512 kts | 301° |
| 2026-05-06 14:49 | 13.57322 | 72.17958 | 35813 ft | 512 kts | 301° |
| 2026-05-06 14:49 | 13.61147 | 72.11783 | 35812 ft | 512 kts | 301° |
| 2026-05-06 14:50 | 13.64978 | 72.05595 | 35823 ft | 512 kts | 302° |
| 2026-05-06 14:50 | 13.68800 | 71.99420 | 35799 ft | 512 kts | 302° |
| 2026-05-06 14:51 | 13.72682 | 71.93293 | 35819 ft | 512 kts | 303° |
| 2026-05-06 14:51 | 13.76608 | 71.87182 | 35800 ft | 512 kts | 302° |
| 2026-05-06 14:52 | 13.80529 | 71.81059 | 35819 ft | 512 kts | 302° |
| 2026-05-06 14:52 | 13.84439 | 71.74927 | 35819 ft | 513 kts | 302° |
| 2026-05-06 14:53 | 13.88352 | 71.68779 | 35829 ft | 513 kts | 302° |
| 2026-05-06 14:53 | 13.92256 | 71.62642 | 35825 ft | 512 kts | 303° |
| 2026-05-06 14:54 | 13.96155 | 71.56509 | 35826 ft | 512 kts | 302° |
| 2026-05-06 14:54 | 14.00026 | 71.50417 | 35822 ft | 511 kts | 302° |
| 2026-05-06 14:55 | 14.03919 | 71.44285 | 35830 ft | 512 kts | 302° |
| 2026-05-06 14:55 | 14.07812 | 71.38149 | 35826 ft | 512 kts | 302° |
| 2026-05-06 14:56 | 14.11706 | 71.32006 | 35822 ft | 512 kts | 303° |
| 2026-05-06 14:56 | 14.15591 | 71.25873 | 35822 ft | 512 kts | 302° |
| 2026-05-06 14:57 | 14.19481 | 71.19727 | 35821 ft | 512 kts | 302° |
| 2026-05-06 14:57 | 14.23370 | 71.13578 | 35822 ft | 511 kts | 302° |
| 2026-05-06 14:58 | 14.27242 | 71.07452 | 35822 ft | 511 kts | 302° |
| 2026-05-06 14:58 | 14.31121 | 71.01309 | 35827 ft | 510 kts | 303° |
| 2026-05-06 14:59 | 14.34990 | 70.95178 | 35824 ft | 510 kts | 302° |
| 2026-05-06 14:59 | 14.38891 | 70.89073 | 35826 ft | 510 kts | 303° |
| 2026-05-06 15:00 | 14.42828 | 70.82979 | 35825 ft | 510 kts | 303° |
| 2026-05-06 15:00 | 14.46751 | 70.76895 | 35830 ft | 510 kts | 303° |
| 2026-05-06 15:01 | 14.50679 | 70.70783 | 35831 ft | 511 kts | 303° |
| 2026-05-06 15:01 | 14.54579 | 70.64705 | 35826 ft | 512 kts | 303° |
| 2026-05-06 15:02 | 14.58505 | 70.58582 | 35826 ft | 512 kts | 303° |
| 2026-05-06 15:02 | 14.62431 | 70.52454 | 35829 ft | 511 kts | 303° |
| 2026-05-06 15:03 | 14.66350 | 70.46334 | 35827 ft | 511 kts | 303° |
| 2026-05-06 15:03 | 14.70277 | 70.40197 | 35828 ft | 511 kts | 303° |
| 2026-05-06 15:04 | 14.74197 | 70.34066 | 35824 ft | 511 kts | 303° |
| 2026-05-06 15:04 | 14.78113 | 70.27936 | 35835 ft | 511 kts | 303° |
| 2026-05-06 15:05 | 14.82028 | 70.21803 | 35832 ft | 511 kts | 303° |
| 2026-05-06 15:05 | 14.85863 | 70.15790 | 35828 ft | 510 kts | 303° |
| 2026-05-06 15:06 | 14.89732 | 70.09721 | 35828 ft | 499 kts | 303° |
| 2026-05-06 15:06 | 14.93538 | 70.03744 | 35830 ft | 497 kts | 303° |
| 2026-05-06 15:07 | 14.97339 | 69.97771 | 35834 ft | 497 kts | 303° |
| 2026-05-06 15:07 | 15.01139 | 69.91796 | 35833 ft | 497 kts | 303° |
| 2026-05-06 15:08 | 15.04913 | 69.85855 | 35832 ft | 497 kts | 303° |
| 2026-05-06 15:08 | 15.08732 | 69.79838 | 35836 ft | 497 kts | 303° |
| 2026-05-06 15:09 | 15.12531 | 69.73854 | 35832 ft | 497 kts | 303° |
| 2026-05-06 15:09 | 15.16331 | 69.67937 | 35833 ft | 497 kts | 303° |
| 2026-05-06 15:10 | 15.20164 | 69.61993 | 35832 ft | 496 kts | 303° |
| 2026-05-06 15:10 | 15.23993 | 69.56044 | 35832 ft | 496 kts | 303° |
| 2026-05-06 15:11 | 15.27812 | 69.50095 | 35833 ft | 496 kts | 303° |
| 2026-05-06 15:11 | 15.31630 | 69.44143 | 35834 ft | 496 kts | 303° |
| 2026-05-06 15:12 | 15.35444 | 69.38189 | 35839 ft | 496 kts | 303° |
| 2026-05-06 15:12 | 15.39259 | 69.32233 | 35839 ft | 496 kts | 303° |
| 2026-05-06 15:13 | 15.43070 | 69.26277 | 35839 ft | 496 kts | 303° |
| 2026-05-06 15:13 | 15.46875 | 69.20326 | 35838 ft | 495 kts | 303° |
| 2026-05-06 15:14 | 15.50681 | 69.14367 | 35839 ft | 495 kts | 303° |
| 2026-05-06 15:14 | 15.54481 | 69.08414 | 35841 ft | 495 kts | 303° |
| 2026-05-06 15:15 | 15.58282 | 69.02456 | 35840 ft | 495 kts | 303° |
| 2026-05-06 15:15 | 15.62074 | 68.96506 | 35842 ft | 495 kts | 303° |
| 2026-05-06 15:16 | 15.65871 | 68.90544 | 35845 ft | 495 kts | 303° |
| 2026-05-06 15:16 | 15.69661 | 68.84588 | 35840 ft | 495 kts | 303° |
| 2026-05-06 15:17 | 15.73453 | 68.78625 | 35846 ft | 494 kts | 303° |
| 2026-05-06 15:17 | 15.77234 | 68.72672 | 35845 ft | 494 kts | 303° |
| 2026-05-06 15:18 | 15.81017 | 68.66714 | 35844 ft | 494 kts | 303° |
| 2026-05-06 15:18 | 15.84791 | 68.60763 | 35846 ft | 493 kts | 303° |
| 2026-05-06 15:19 | 15.88565 | 68.54810 | 35850 ft | 494 kts | 303° |
| 2026-05-06 15:19 | 15.92320 | 68.48879 | 35847 ft | 494 kts | 303° |
| 2026-05-06 15:20 | 15.96092 | 68.42918 | 35847 ft | 494 kts | 303° |
| 2026-05-06 15:20 | 15.99863 | 68.36954 | 35848 ft | 494 kts | 303° |
| 2026-05-06 15:21 | 16.03634 | 68.30985 | 35850 ft | 494 kts | 303° |
| 2026-05-06 15:21 | 16.07427 | 68.24975 | 35849 ft | 494 kts | 303° |
| 2026-05-06 15:22 | 16.11204 | 68.18987 | 35852 ft | 495 kts | 303° |
| 2026-05-06 15:22 | 16.14947 | 68.13047 | 35851 ft | 494 kts | 303° |
| 2026-05-06 15:23 | 16.18714 | 68.07063 | 35848 ft | 494 kts | 303° |
| 2026-05-06 15:23 | 16.22479 | 68.01077 | 35850 ft | 494 kts | 303° |
| 2026-05-06 15:24 | 16.26244 | 67.95088 | 35845 ft | 494 kts | 303° |
| 2026-05-06 15:24 | 16.30019 | 67.89113 | 35853 ft | 494 kts | 303° |
| 2026-05-06 15:25 | 16.33815 | 67.83145 | 35853 ft | 494 kts | 303° |
| 2026-05-06 15:25 | 16.37602 | 67.77183 | 35853 ft | 494 kts | 303° |
| 2026-05-06 15:26 | 16.41393 | 67.71201 | 35851 ft | 494 kts | 303° |
| 2026-05-06 15:26 | 16.45181 | 67.65217 | 35854 ft | 494 kts | 303° |
| 2026-05-06 15:27 | 16.48959 | 67.59242 | 35851 ft | 494 kts | 303° |
| 2026-05-06 15:27 | 16.52740 | 67.53257 | 35854 ft | 494 kts | 303° |
| 2026-05-06 15:28 | 16.56521 | 67.47268 | 35850 ft | 495 kts | 303° |
| 2026-05-06 15:28 | 16.60301 | 67.41277 | 35853 ft | 495 kts | 303° |
| 2026-05-06 15:29 | 16.64080 | 67.35280 | 35854 ft | 495 kts | 303° |
| 2026-05-06 15:29 | 16.67858 | 67.29281 | 35855 ft | 495 kts | 303° |
| 2026-05-06 15:30 | 16.70998 | 67.24292 | 35854 ft | 495 kts | 303° |
| 2026-05-06 15:30 | 16.74775 | 67.18284 | 35854 ft | 494 kts | 303° |
| 2026-05-06 15:31 | 16.78459 | 67.12420 | 35856 ft | 495 kts | 303° |
| 2026-05-06 15:31 | 16.82224 | 67.06423 | 35855 ft | 495 kts | 303° |
| 2026-05-06 15:32 | 16.87884 | 66.97396 | 35857 ft | 495 kts | 303° |
| 2026-05-06 15:32 | 16.91651 | 66.91381 | 35858 ft | 495 kts | 303° |
| 2026-05-06 15:33 | 16.95413 | 66.85369 | 35860 ft | 495 kts | 303° |
| 2026-05-06 15:33 | 16.99177 | 66.79350 | 35861 ft | 495 kts | 303° |
| 2026-05-06 15:34 | 17.02938 | 66.73330 | 35858 ft | 495 kts | 303° |
| 2026-05-06 15:34 | 17.06676 | 66.67341 | 35857 ft | 495 kts | 303° |
| 2026-05-06 15:35 | 17.10437 | 66.61310 | 35860 ft | 495 kts | 303° |
| 2026-05-06 15:35 | 17.14198 | 66.55273 | 35855 ft | 496 kts | 303° |
| 2026-05-06 15:36 | 17.17965 | 66.49223 | 35859 ft | 496 kts | 303° |
| 2026-05-06 15:36 | 17.21750 | 66.43138 | 35860 ft | 496 kts | 303° |
| 2026-05-06 15:37 | 17.25505 | 66.37095 | 35862 ft | 496 kts | 303° |
| 2026-05-06 15:37 | 17.29232 | 66.31091 | 35863 ft | 496 kts | 303° |
| 2026-05-06 15:38 | 17.32987 | 66.25038 | 35862 ft | 496 kts | 303° |
| 2026-05-06 15:38 | 17.36742 | 66.18979 | 35864 ft | 495 kts | 303° |
| 2026-05-06 15:39 | 17.40470 | 66.12958 | 35991 ft | 490 kts | 303° |
| 2026-05-06 15:39 | 17.42324 | 66.09962 | 36112 ft | 490 kts | 303° |
| 2026-05-06 15:39 | 17.44172 | 66.06973 | 36225 ft | 491 kts | 303° |
| 2026-05-06 15:40 | 17.46028 | 66.03971 | 36344 ft | 491 kts | 303° |
| 2026-05-06 15:40 | 17.47886 | 66.00964 | 36467 ft | 492 kts | 303° |
| 2026-05-06 15:40 | 17.49742 | 65.97960 | 36587 ft | 492 kts | 303° |
| 2026-05-06 15:40 | 17.51607 | 65.94939 | 36718 ft | 493 kts | 303° |
| 2026-05-06 15:41 | 17.53471 | 65.91919 | 36828 ft | 493 kts | 303° |
| 2026-05-06 15:41 | 17.55325 | 65.88913 | 36950 ft | 493 kts | 303° |
| 2026-05-06 15:41 | 17.57191 | 65.85885 | 37077 ft | 493 kts | 303° |
| 2026-05-06 15:41 | 17.59049 | 65.82870 | 37189 ft | 493 kts | 303° |
| 2026-05-06 15:42 | 17.60905 | 65.79857 | 37320 ft | 493 kts | 303° |
| 2026-05-06 15:42 | 17.62768 | 65.76849 | 37446 ft | 493 kts | 303° |
| 2026-05-06 15:42 | 17.64669 | 65.73860 | 37569 ft | 492 kts | 304° |
| 2026-05-06 15:42 | 17.66563 | 65.70927 | 37701 ft | 492 kts | 304° |
| 2026-05-06 15:43 | 17.70441 | 65.64952 | 37819 ft | 490 kts | 304° |
| 2026-05-06 15:43 | 17.74230 | 65.59085 | 37859 ft | 489 kts | 304° |
| 2026-05-06 15:44 | 17.78024 | 65.53181 | 37865 ft | 489 kts | 304° |
| 2026-05-06 15:44 | 17.81816 | 65.47266 | 37860 ft | 489 kts | 304° |
| 2026-05-06 15:45 | 17.85616 | 65.41335 | 37863 ft | 489 kts | 304° |
| 2026-05-06 15:45 | 17.89408 | 65.35414 | 37863 ft | 489 kts | 304° |
| 2026-05-06 15:46 | 17.93190 | 65.29503 | 37862 ft | 489 kts | 304° |
| 2026-05-06 15:46 | 17.96981 | 65.23571 | 37864 ft | 489 kts | 304° |
| 2026-05-06 15:47 | 18.00766 | 65.17643 | 37864 ft | 489 kts | 304° |
| 2026-05-06 15:47 | 18.04559 | 65.11700 | 37863 ft | 489 kts | 304° |
| 2026-05-06 15:48 | 18.08343 | 65.05762 | 37861 ft | 489 kts | 304° |
| 2026-05-06 15:48 | 18.12126 | 64.99823 | 37859 ft | 489 kts | 304° |
| 2026-05-06 15:49 | 18.15900 | 64.93892 | 37857 ft | 488 kts | 304° |
| 2026-05-06 15:49 | 18.19676 | 64.87952 | 37860 ft | 488 kts | 303° |
| 2026-05-06 15:50 | 18.23441 | 64.82024 | 37861 ft | 488 kts | 303° |
| 2026-05-06 15:50 | 18.27218 | 64.76072 | 37859 ft | 488 kts | 303° |
| 2026-05-06 15:51 | 18.30981 | 64.70135 | 37860 ft | 488 kts | 303° |
| 2026-05-06 15:51 | 18.34741 | 64.64199 | 37863 ft | 487 kts | 303° |
| 2026-05-06 15:52 | 18.38495 | 64.58266 | 37863 ft | 487 kts | 303° |
| 2026-05-06 15:52 | 18.42248 | 64.52329 | 37858 ft | 487 kts | 303° |
| 2026-05-06 15:53 | 18.45987 | 64.46409 | 37859 ft | 486 kts | 303° |
| 2026-05-06 15:53 | 18.49713 | 64.40505 | 37852 ft | 486 kts | 303° |
| 2026-05-06 15:54 | 18.53452 | 64.34573 | 37855 ft | 486 kts | 303° |
| 2026-05-06 15:54 | 18.57189 | 64.28640 | 37853 ft | 486 kts | 303° |
| 2026-05-06 15:55 | 18.60922 | 64.22708 | 37862 ft | 486 kts | 303° |
| 2026-05-06 15:55 | 18.64657 | 64.16766 | 37851 ft | 486 kts | 303° |
| 2026-05-06 15:56 | 18.68386 | 64.10829 | 37855 ft | 486 kts | 303° |
| 2026-05-06 15:56 | 18.72118 | 64.04882 | 37852 ft | 486 kts | 303° |
| 2026-05-06 15:57 | 18.75849 | 63.98930 | 37853 ft | 486 kts | 303° |
| 2026-05-06 15:57 | 18.79580 | 63.92973 | 37856 ft | 486 kts | 303° |
| 2026-05-06 15:58 | 18.83302 | 63.87023 | 37855 ft | 487 kts | 303° |
| 2026-05-06 15:58 | 18.87029 | 63.81061 | 37857 ft | 487 kts | 303° |
| 2026-05-06 15:59 | 18.90762 | 63.75084 | 37854 ft | 487 kts | 303° |
| 2026-05-06 15:59 | 18.94479 | 63.69124 | 37853 ft | 487 kts | 303° |
| 2026-05-06 16:00 | 18.98200 | 63.63154 | 37862 ft | 486 kts | 302° |
| 2026-05-06 16:00 | 19.01920 | 63.57181 | 37858 ft | 486 kts | 302° |
| 2026-05-06 16:01 | 19.05642 | 63.51204 | 37857 ft | 486 kts | 302° |
| 2026-05-06 16:01 | 19.09362 | 63.45226 | 37861 ft | 486 kts | 303° |
| 2026-05-06 16:02 | 19.13072 | 63.39255 | 37854 ft | 486 kts | 303° |
| 2026-05-06 16:02 | 19.16787 | 63.33270 | 37860 ft | 486 kts | 302° |
| 2026-05-06 16:03 | 19.20496 | 63.27287 | 37858 ft | 486 kts | 302° |
| 2026-05-06 16:03 | 19.24184 | 63.21333 | 37856 ft | 486 kts | 302° |
| 2026-05-06 16:04 | 19.27885 | 63.15353 | 37855 ft | 486 kts | 302° |
| 2026-05-06 16:04 | 19.31586 | 63.09366 | 37857 ft | 486 kts | 302° |
| 2026-05-06 16:05 | 19.35279 | 63.03388 | 37866 ft | 486 kts | 302° |
| 2026-05-06 16:05 | 19.38978 | 62.97394 | 37858 ft | 486 kts | 302° |
| 2026-05-06 16:06 | 19.42676 | 62.91394 | 37858 ft | 486 kts | 302° |
| 2026-05-06 16:06 | 19.46368 | 62.85400 | 37861 ft | 485 kts | 302° |
| 2026-05-06 16:07 | 19.50052 | 62.79410 | 37856 ft | 485 kts | 302° |
| 2026-05-06 16:07 | 19.53734 | 62.73420 | 37856 ft | 486 kts | 302° |
| 2026-05-06 16:08 | 19.57419 | 62.67418 | 37871 ft | 486 kts | 302° |
| 2026-05-06 16:08 | 19.61106 | 62.61408 | 37858 ft | 486 kts | 302° |
| 2026-05-06 16:09 | 19.64772 | 62.55425 | 37859 ft | 486 kts | 302° |
| 2026-05-06 16:09 | 19.68456 | 62.49407 | 37858 ft | 486 kts | 302° |
| 2026-05-06 16:10 | 19.72135 | 62.43392 | 37862 ft | 486 kts | 302° |
| 2026-05-06 16:10 | 19.75820 | 62.37359 | 37859 ft | 487 kts | 302° |
| 2026-05-06 16:11 | 19.79525 | 62.31289 | 37862 ft | 487 kts | 302° |
| 2026-05-06 16:11 | 19.83204 | 62.25254 | 37861 ft | 487 kts | 302° |
| 2026-05-06 16:12 | 19.86881 | 62.19218 | 37863 ft | 487 kts | 302° |
| 2026-05-06 16:12 | 19.90536 | 62.13210 | 37863 ft | 487 kts | 302° |
| 2026-05-06 16:13 | 19.94207 | 62.07171 | 37864 ft | 487 kts | 302° |
| 2026-05-06 16:13 | 19.97883 | 62.01117 | 37863 ft | 487 kts | 302° |
| 2026-05-06 16:14 | 20.01561 | 61.95054 | 37864 ft | 488 kts | 302° |
| 2026-05-06 16:14 | 20.05232 | 61.88995 | 37863 ft | 488 kts | 302° |
| 2026-05-06 16:15 | 20.08289 | 61.83947 | 37862 ft | 487 kts | 302° |
| 2026-05-06 16:15 | 20.12568 | 61.76871 | 37862 ft | 487 kts | 302° |
| 2026-05-06 16:16 | 20.15612 | 61.71832 | 37858 ft | 487 kts | 302° |
| 2026-05-06 16:16 | 20.19274 | 61.65765 | 37859 ft | 486 kts | 302° |
| 2026-05-06 16:17 | 20.22928 | 61.59704 | 37858 ft | 486 kts | 302° |
| 2026-05-06 16:17 | 20.26577 | 61.53647 | 37865 ft | 486 kts | 302° |
| 2026-05-06 16:18 | 20.30229 | 61.47576 | 37865 ft | 486 kts | 302° |
| 2026-05-06 16:18 | 20.33866 | 61.41526 | 37858 ft | 486 kts | 302° |
| 2026-05-06 16:19 | 20.37511 | 61.35455 | 37857 ft | 485 kts | 302° |
| 2026-05-06 16:19 | 20.41142 | 61.29402 | 37856 ft | 485 kts | 302° |
| 2026-05-06 16:20 | 20.44774 | 61.23339 | 37861 ft | 485 kts | 302° |
| 2026-05-06 16:20 | 20.48413 | 61.17259 | 37860 ft | 485 kts | 302° |
| 2026-05-06 16:21 | 20.52038 | 61.11195 | 37862 ft | 485 kts | 302° |
| 2026-05-06 16:21 | 20.55646 | 61.05155 | 37860 ft | 485 kts | 302° |
| 2026-05-06 16:22 | 20.59295 | 60.99038 | 37859 ft | 485 kts | 302° |
| 2026-05-06 16:22 | 20.63030 | 60.93205 | 37864 ft | 486 kts | 309° |
| 2026-05-06 16:23 | 20.67393 | 60.87754 | 37868 ft | 486 kts | 310° |
| 2026-05-06 16:23 | 20.71829 | 60.82299 | 37857 ft | 486 kts | 310° |
| 2026-05-06 16:24 | 20.76228 | 60.76829 | 37861 ft | 486 kts | 310° |
| 2026-05-06 16:24 | 20.80614 | 60.71331 | 37855 ft | 486 kts | 309° |
| 2026-05-06 16:25 | 20.84992 | 60.65829 | 37859 ft | 485 kts | 309° |
| 2026-05-06 16:25 | 20.89362 | 60.60335 | 37855 ft | 485 kts | 309° |
| 2026-05-06 16:26 | 20.93729 | 60.54841 | 37855 ft | 485 kts | 309° |
| 2026-05-06 16:26 | 20.98097 | 60.49342 | 37864 ft | 484 kts | 309° |
| 2026-05-06 16:27 | 21.02448 | 60.43857 | 37850 ft | 484 kts | 309° |
| 2026-05-06 16:27 | 21.06774 | 60.38400 | 37858 ft | 483 kts | 309° |
| 2026-05-06 16:28 | 21.11127 | 60.32902 | 37853 ft | 483 kts | 309° |
| 2026-05-06 16:28 | 21.15443 | 60.27445 | 37853 ft | 483 kts | 309° |
| 2026-05-06 16:29 | 21.19789 | 60.21944 | 37866 ft | 483 kts | 309° |
| 2026-05-06 16:29 | 21.24129 | 60.16447 | 37844 ft | 483 kts | 309° |
| 2026-05-06 16:30 | 21.27768 | 60.11845 | 37844 ft | 483 kts | 309° |
| 2026-05-06 16:30 | 21.32810 | 60.05478 | 37850 ft | 482 kts | 309° |
| 2026-05-06 16:31 | 21.37138 | 60.00002 | 37848 ft | 481 kts | 309° |
| 2026-05-06 16:31 | 21.41472 | 59.94513 | 37849 ft | 481 kts | 309° |
| 2026-05-06 16:32 | 21.45789 | 59.89038 | 37844 ft | 481 kts | 309° |
| 2026-05-06 16:32 | 21.50117 | 59.83544 | 37842 ft | 481 kts | 309° |
| 2026-05-06 16:33 | 21.54435 | 59.78057 | 37841 ft | 481 kts | 309° |
| 2026-05-06 16:34 | 21.60906 | 59.69803 | 37844 ft | 481 kts | 309° |
| 2026-05-06 16:34 | 21.65209 | 59.64295 | 37851 ft | 481 kts | 309° |
| 2026-05-06 16:35 | 21.69512 | 59.58783 | 37848 ft | 482 kts | 309° |
| 2026-05-06 16:35 | 21.73818 | 59.53261 | 37841 ft | 482 kts | 309° |
| 2026-05-06 16:36 | 21.78094 | 59.47773 | 37843 ft | 482 kts | 309° |
| 2026-05-06 16:36 | 21.82385 | 59.42260 | 37844 ft | 482 kts | 309° |
| 2026-05-06 16:37 | 21.86692 | 59.36721 | 37846 ft | 482 kts | 309° |
| 2026-05-06 16:37 | 21.90983 | 59.31196 | 37848 ft | 481 kts | 308° |
| 2026-05-06 16:38 | 21.95280 | 59.25659 | 37853 ft | 481 kts | 308° |
| 2026-05-06 16:38 | 21.99562 | 59.20134 | 37855 ft | 481 kts | 308° |
| 2026-05-06 16:39 | 22.03877 | 59.14562 | 37856 ft | 481 kts | 308° |
| 2026-05-06 16:39 | 22.08130 | 59.09063 | 37856 ft | 481 kts | 308° |
| 2026-05-06 16:40 | 22.12407 | 59.03527 | 37858 ft | 481 kts | 308° |
| 2026-05-06 16:40 | 22.16690 | 58.97977 | 37860 ft | 481 kts | 308° |
| 2026-05-06 16:41 | 22.21007 | 58.92459 | 37859 ft | 482 kts | 312° |
| 2026-05-06 16:41 | 22.26016 | 58.87672 | 37867 ft | 484 kts | 322° |
| 2026-05-06 16:42 | 22.31703 | 58.83763 | 37870 ft | 485 kts | 327° |
| 2026-05-06 16:42 | 22.37549 | 58.80008 | 37869 ft | 486 kts | 327° |
| 2026-05-06 16:43 | 22.43290 | 58.76273 | 37866 ft | 485 kts | 327° |
| 2026-05-06 16:43 | 22.49100 | 58.72451 | 37867 ft | 485 kts | 327° |
| 2026-05-06 16:44 | 22.54817 | 58.68678 | 37858 ft | 485 kts | 327° |
| 2026-05-06 16:44 | 22.60573 | 58.64880 | 37873 ft | 484 kts | 326° |
| 2026-05-06 16:45 | 22.66303 | 58.61097 | 37867 ft | 483 kts | 326° |
| 2026-05-06 16:45 | 22.72039 | 58.57310 | 37865 ft | 482 kts | 326° |
| 2026-05-06 16:46 | 22.77758 | 58.53533 | 37866 ft | 481 kts | 326° |
| 2026-05-06 16:46 | 22.83477 | 58.49750 | 37877 ft | 481 kts | 326° |
| 2026-05-06 16:47 | 22.89178 | 58.45974 | 37867 ft | 480 kts | 326° |
| 2026-05-06 16:47 | 22.94878 | 58.42196 | 37863 ft | 480 kts | 326° |
| 2026-05-06 16:48 | 23.00582 | 58.38411 | 37866 ft | 480 kts | 326° |
| 2026-05-06 16:48 | 23.06277 | 58.34623 | 37874 ft | 481 kts | 326° |
| 2026-05-06 16:49 | 23.11969 | 58.30826 | 37854 ft | 480 kts | 326° |
| 2026-05-06 16:49 | 23.17651 | 58.27031 | 37862 ft | 479 kts | 326° |
| 2026-05-06 16:50 | 23.23334 | 58.23230 | 37850 ft | 479 kts | 326° |
| 2026-05-06 16:50 | 23.29007 | 58.19434 | 37843 ft | 479 kts | 326° |
| 2026-05-06 16:51 | 23.34677 | 58.15637 | 37797 ft | 479 kts | 325° |
| 2026-05-06 16:51 | 23.39873 | 58.11222 | 37828 ft | 472 kts | 313° |
| 2026-05-06 16:52 | 23.44070 | 58.05865 | 37833 ft | 468 kts | 303° |
| 2026-05-06 16:52 | 23.47784 | 58.00079 | 37833 ft | 468 kts | 302° |
| 2026-05-06 16:53 | 23.51527 | 57.94265 | 37846 ft | 468 kts | 303° |
| 2026-05-06 16:53 | 23.55296 | 57.88483 | 37831 ft | 468 kts | 303° |
| 2026-05-06 16:54 | 23.59069 | 57.82699 | 37822 ft | 468 kts | 303° |
| 2026-05-06 16:54 | 23.63013 | 57.77048 | 37833 ft | 469 kts | 306° |
| 2026-05-06 16:55 | 23.67080 | 57.71476 | 37822 ft | 469 kts | 306° |
| 2026-05-06 16:55 | 23.71105 | 57.65878 | 37826 ft | 469 kts | 305° |
| 2026-05-06 16:56 | 23.75103 | 57.60266 | 37815 ft | 469 kts | 305° |
| 2026-05-06 16:56 | 23.79079 | 57.54687 | 37821 ft | 468 kts | 305° |
| 2026-05-06 16:57 | 23.83078 | 57.49079 | 37815 ft | 468 kts | 305° |
| 2026-05-06 16:57 | 23.87069 | 57.43477 | 37682 ft | 464 kts | 305° |
| 2026-05-06 16:57 | 23.89075 | 57.40659 | 37314 ft | 465 kts | 305° |
| 2026-05-06 16:58 | 23.91062 | 57.37862 | 36888 ft | 467 kts | 305° |
| 2026-05-06 16:58 | 23.93056 | 57.35054 | 36466 ft | 469 kts | 305° |
| 2026-05-06 16:58 | 23.95030 | 57.32273 | 36097 ft | 469 kts | 305° |
| 2026-05-06 16:58 | 23.97032 | 57.29453 | 35720 ft | 469 kts | 305° |
| 2026-05-06 16:59 | 23.99032 | 57.26633 | 35336 ft | 470 kts | 305° |
| 2026-05-06 16:59 | 24.01055 | 57.23780 | 34937 ft | 470 kts | 305° |
| 2026-05-06 16:59 | 24.03050 | 57.20964 | 34543 ft | 471 kts | 305° |
| 2026-05-06 16:59 | 24.05032 | 57.18165 | 34137 ft | 471 kts | 305° |
| 2026-05-06 17:00 | 24.07033 | 57.15337 | 33715 ft | 472 kts | 306° |
| 2026-05-06 17:00 | 24.09045 | 57.12493 | 33204 ft | 472 kts | 306° |
| 2026-05-06 17:00 | 24.11056 | 57.09647 | 32632 ft | 474 kts | 306° |
| 2026-05-06 17:00 | 24.12425 | 57.07709 | 32205 ft | 476 kts | 306° |
| 2026-05-06 17:01 | 24.15118 | 57.03895 | 31442 ft | 479 kts | 306° |
| 2026-05-06 17:01 | 24.16495 | 57.01943 | 31042 ft | 480 kts | 306° |
| 2026-05-06 17:01 | 24.18537 | 56.99048 | 30449 ft | 482 kts | 306° |
| 2026-05-06 17:01 | 24.21246 | 56.95206 | 29844 ft | 479 kts | 306° |
| 2026-05-06 17:02 | 24.22620 | 56.93256 | 29574 ft | 477 kts | 306° |
| 2026-05-06 17:02 | 24.24635 | 56.90387 | 29177 ft | 473 kts | 306° |
| 2026-05-06 17:02 | 24.26624 | 56.87549 | 28784 ft | 469 kts | 306° |
| 2026-05-06 17:02 | 24.28609 | 56.84714 | 28377 ft | 467 kts | 306° |
| 2026-05-06 17:03 | 24.30582 | 56.81895 | 27953 ft | 465 kts | 306° |
| 2026-05-06 17:03 | 24.32522 | 56.79122 | 27404 ft | 462 kts | 306° |
| 2026-05-06 17:03 | 24.34470 | 56.76336 | 26756 ft | 458 kts | 306° |
| 2026-05-06 17:03 | 24.36397 | 56.73578 | 26130 ft | 454 kts | 306° |
| 2026-05-06 17:04 | 24.38305 | 56.70847 | 25510 ft | 449 kts | 306° |
| 2026-05-06 17:04 | 24.40202 | 56.68131 | 24900 ft | 446 kts | 306° |
| 2026-05-06 17:04 | 24.42102 | 56.65408 | 24284 ft | 443 kts | 306° |
| 2026-05-06 17:04 | 24.43979 | 56.62796 | 23691 ft | 440 kts | 310° |
| 2026-05-06 17:05 | 24.46077 | 56.60304 | 23154 ft | 436 kts | 313° |
| 2026-05-06 17:05 | 24.48130 | 56.57940 | 22683 ft | 433 kts | 313° |
| 2026-05-06 17:05 | 24.50213 | 56.55543 | 22159 ft | 435 kts | 313° |
| 2026-05-06 17:05 | 24.52326 | 56.53099 | 21693 ft | 436 kts | 313° |
| 2026-05-06 17:06 | 24.54375 | 56.50717 | 21107 ft | 433 kts | 313° |
| 2026-05-06 17:06 | 24.56439 | 56.48310 | 20575 ft | 431 kts | 313° |
| 2026-05-06 17:06 | 24.58483 | 56.45920 | 20052 ft | 428 kts | 313° |
| 2026-05-06 17:06 | 24.60516 | 56.43541 | 19543 ft | 426 kts | 313° |
| 2026-05-06 17:07 | 24.62537 | 56.41175 | 19029 ft | 425 kts | 314° |
| 2026-05-06 17:07 | 24.64558 | 56.38808 | 18504 ft | 423 kts | 314° |
| 2026-05-06 17:07 | 24.66565 | 56.36457 | 17945 ft | 422 kts | 314° |
| 2026-05-06 17:07 | 24.68562 | 56.34117 | 17363 ft | 417 kts | 314° |
| 2026-05-06 17:08 | 24.70632 | 56.31930 | 16832 ft | 409 kts | 323° |
| 2026-05-06 17:08 | 24.73001 | 56.30239 | 16328 ft | 403 kts | 333° |
| 2026-05-06 17:08 | 24.75544 | 56.29003 | 15836 ft | 398 kts | 342° |
| 2026-05-06 17:08 | 24.78194 | 56.28193 | 15326 ft | 393 kts | 347° |
| 2026-05-06 17:09 | 24.80835 | 56.27453 | 14846 ft | 390 kts | 347° |
| 2026-05-06 17:09 | 24.83451 | 56.26698 | 14343 ft | 388 kts | 346° |
| 2026-05-06 17:09 | 24.85978 | 56.25755 | 13760 ft | 385 kts | 334° |
| 2026-05-06 17:09 | 24.88155 | 56.24025 | 13177 ft | 389 kts | 317° |
| 2026-05-06 17:10 | 24.89830 | 56.21695 | 12637 ft | 387 kts | 302° |
| 2026-05-06 17:10 | 24.91133 | 56.19102 | 12113 ft | 386 kts | 299° |
| 2026-05-06 17:10 | 24.92401 | 56.16509 | 11704 ft | 381 kts | 299° |
| 2026-05-06 17:10 | 24.93644 | 56.13997 | 11641 ft | 366 kts | 299° |
| 2026-05-06 17:11 | 24.94687 | 56.11508 | 11524 ft | 352 kts | 290° |
| 2026-05-06 17:11 | 24.95490 | 56.09007 | 11453 ft | 339 kts | 289° |
| 2026-05-06 17:11 | 24.96252 | 56.06602 | 11374 ft | 327 kts | 289° |
| 2026-05-06 17:11 | 24.96993 | 56.04277 | 11282 ft | 315 kts | 289° |
| 2026-05-06 17:12 | 24.97711 | 56.02043 | 11227 ft | 304 kts | 289° |
| 2026-05-06 17:12 | 24.98403 | 55.99901 | 11071 ft | 289 kts | 289° |
| 2026-05-06 17:12 | 24.99064 | 55.97863 | 10725 ft | 280 kts | 289° |
| 2026-05-06 17:12 | 24.99716 | 55.95858 | 10275 ft | 275 kts | 289° |
| 2026-05-06 17:13 | 25.00360 | 55.93881 | 9792 ft | 273 kts | 288° |
| 2026-05-06 17:13 | 25.00998 | 55.91921 | 9260 ft | 271 kts | 288° |
| 2026-05-06 17:13 | 25.01632 | 55.89971 | 8712 ft | 269 kts | 288° |
| 2026-05-06 17:13 | 25.02265 | 55.88024 | 8227 ft | 272 kts | 289° |
| 2026-05-06 17:14 | 25.02904 | 55.86061 | 7921 ft | 271 kts | 289° |
| 2026-05-06 17:14 | 25.03537 | 55.84116 | 7640 ft | 269 kts | 289° |
| 2026-05-06 17:14 | 25.04168 | 55.82177 | 7349 ft | 268 kts | 289° |
| 2026-05-06 17:14 | 25.04795 | 55.80248 | 7071 ft | 266 kts | 289° |
| 2026-05-06 17:15 | 25.05410 | 55.78355 | 6800 ft | 265 kts | 289° |
| 2026-05-06 17:15 | 25.06031 | 55.76443 | 6520 ft | 264 kts | 289° |
| 2026-05-06 17:15 | 25.06646 | 55.74547 | 6243 ft | 263 kts | 289° |
| 2026-05-06 17:15 | 25.07260 | 55.72656 | 5962 ft | 261 kts | 290° |
| 2026-05-06 17:16 | 25.07869 | 55.70778 | 5668 ft | 259 kts | 290° |
| 2026-05-06 17:16 | 25.08472 | 55.68920 | 5414 ft | 255 kts | 290° |
| 2026-05-06 17:16 | 25.09063 | 55.67096 | 5214 ft | 249 kts | 290° |
| 2026-05-06 17:16 | 25.09640 | 55.65314 | 4993 ft | 245 kts | 290° |
| 2026-05-06 17:17 | 25.10288 | 55.63584 | 4686 ft | 244 kts | 298° |
| 2026-05-06 17:17 | 25.11129 | 55.61963 | 4379 ft | 243 kts | 302° |
| 2026-05-06 17:17 | 25.12015 | 55.60384 | 4089 ft | 241 kts | 302° |
| 2026-05-06 17:17 | 25.12883 | 55.58834 | 3752 ft | 233 kts | 302° |
| 2026-05-06 17:18 | 25.13712 | 55.57341 | 3463 ft | 222 kts | 302° |
| 2026-05-06 17:18 | 25.14499 | 55.55923 | 3193 ft | 212 kts | 302° |
| 2026-05-06 17:18 | 25.15256 | 55.54556 | 2943 ft | 207 kts | 302° |
| 2026-05-06 17:18 | 25.16000 | 55.53211 | 2709 ft | 201 kts | 302° |
| 2026-05-06 17:19 | 25.16724 | 55.51906 | 2464 ft | 199 kts | 302° |
| 2026-05-06 17:19 | 25.17433 | 55.50625 | 2208 ft | 190 kts | 302° |
| 2026-05-06 17:19 | 25.18094 | 55.49430 | 1972 ft | 176 kts | 302° |
| 2026-05-06 17:19 | 25.18729 | 55.48284 | 1763 ft | 175 kts | 302° |
| 2026-05-06 17:20 | 25.19361 | 55.47144 | 1587 ft | 173 kts | 302° |
| 2026-05-06 17:20 | 25.19976 | 55.46019 | 1371 ft | 169 kts | 302° |
| 2026-05-06 17:20 | 25.20567 | 55.44941 | 1152 ft | 159 kts | 302° |
| 2026-05-06 17:20 | 25.21132 | 55.43916 | 951 ft | 155 kts | 302° |
| 2026-05-06 17:21 | 25.21691 | 55.42908 | 767 ft | 155 kts | 302° |
| 2026-05-06 17:21 | 25.22237 | 55.41915 | 578 ft | 152 kts | 302° |
| 2026-05-06 17:21 | 25.22789 | 55.40923 | 394 ft | 152 kts | 303° |
| 2026-05-06 17:21 | 25.23337 | 55.39935 | 164 ft | 153 kts | 303° |
| 2026-05-06 17:22 | 25.23865 | 55.38985 | 32 ft | 144 kts | 303° |
| 2026-05-06 17:22 | 25.24324 | 55.38163 | 32 ft | 101 kts | 302° |
| 2026-05-06 17:22 | 25.24609 | 55.37652 | 27 ft | 66 kts | 301° |
| 2026-05-06 17:22 | 25.24762 | 55.37353 | 28 ft | 25 kts | 288° |
| 2026-05-06 17:23 | 25.24784 | 55.37171 | 29 ft | 18 kts | 271° |
| 2026-05-06 17:23 | 25.24762 | 55.37099 | 27 ft | 9 kts | 204° |
| 2026-05-06 17:23 | 25.24703 | 55.37125 | 27 ft | 10 kts | 134° |
| 2026-05-06 17:23 | 25.24664 | 55.37190 | 27 ft | 11 kts | 121° |
| 2026-05-06 17:24 | 25.24625 | 55.37260 | 26 ft | 11 kts | 122° |
| 2026-05-06 17:24 | 25.24583 | 55.37336 | 26 ft | 12 kts | 122° |
| 2026-05-06 17:24 | 25.24538 | 55.37414 | 26 ft | 12 kts | 122° |
| 2026-05-06 17:24 | 25.24492 | 55.37496 | 31 ft | 13 kts | 122° |
| 2026-05-06 17:25 | 25.24446 | 55.37579 | 30 ft | 13 kts | 122° |
| 2026-05-06 17:25 | 25.24399 | 55.37662 | 29 ft | 13 kts | 122° |
| 2026-05-06 17:25 | 25.24354 | 55.37742 | 26 ft | 10 kts | 122° |
| 2026-05-06 17:25 | 25.24312 | 55.37788 | 26 ft | 9 kts | 166° |
| 2026-05-06 17:26 | 25.24267 | 55.37755 | 31 ft | 9 kts | 251° |
| 2026-05-06 17:26 | 25.24253 | 55.37712 | 28 ft | 6 kts | 248° |
| 2026-05-06 17:26 | 25.24238 | 55.37671 | 28 ft | 6 kts | 249° |
| 2026-05-06 17:26 | 25.24225 | 55.37633 | 32 ft | 4 kts | 249° |
| 2026-05-06 17:27 | 25.24215 | 55.37605 | 31 ft | 2 kts | 249° |
| 2026-05-06 17:27 | 25.24210 | 55.37591 | 31 ft | 2 kts | 249° |
| 2026-05-06 17:27 | 25.24209 | 55.37588 | 31 ft | 0 kts | 249° |